PWSweather.com
Personal Weather Stations
Station Observations
KCOFALCO8
Falcon Hills, Falcon, CO 80831

Falcon HillsFalcon, CO 80831

Lat: 38.979792, Lon: -104.61195

Elevation: 7170

Station Type: AcuRite Pro 5-in-1

http://wx.frazierhome.net/

High Low Average
Temperature 43.6°F6.4°C 19.3°F-7.1°C 31.6°F-0.2°C
Dew Point 28.6°F-1.9°C 14.5°F-9.7°C 22.8°F-5.1°C
Winds 27.0 mph 43.5 kmh Calm Calm 10.0 mph W16.1 kmh W
Wind Gusts -- -- --
Humidity 98% 45% 71%
Pressure 30.24 in1024.0 mb 30.08 in1018.6 mb -
Precipitation 0.00 in0.0 mm - -
Hour Temp Dew Point Humidity Winds Wind Gusts Pressure Precip Precip Rate Daily Precip Total
12:00 AM 32.6°F0.3°C 27.9°F-2.3°C 83% 17.0 mph WNW27.4 kmh WNW -- 30.11 in1019.6 mb 0.00 in0.0 mm 0.00 in0.0 mm 0.00 in0.0 mm
12:01 AM 32.6°F0.3°C 27.9°F-2.3°C 83% 16.0 mph WNW25.7 kmh WNW -- 30.11 in1019.6 mb 0.00 in0.0 mm 0.00 in0.0 mm 0.00 in0.0 mm
12:02 AM 32.6°F0.3°C 27.9°F-2.3°C 83% 12.0 mph WNW19.3 kmh WNW -- 30.10 in1019.3 mb 0.00 in0.0 mm 0.00 in0.0 mm 0.00 in0.0 mm
12:03 AM 32.6°F0.3°C 27.9°F-2.3°C 83% 11.0 mph WNW17.7 kmh WNW -- 30.11 in1019.6 mb 0.00 in0.0 mm 0.00 in0.0 mm 0.00 in0.0 mm
12:04 AM 32.6°F0.3°C 27.9°F-2.3°C 83% 10.0 mph W16.1 kmh W -- 30.10 in1019.3 mb 0.00 in0.0 mm 0.00 in0.0 mm 0.00 in0.0 mm
12:05 AM 32.6°F0.3°C 27.9°F-2.3°C 83% 13.0 mph NNW20.9 kmh NNW -- 30.11 in1019.6 mb 0.00 in0.0 mm 0.00 in0.0 mm 0.00 in0.0 mm
12:06 AM 32.6°F0.3°C 27.9°F-2.3°C 83% 17.0 mph WNW27.4 kmh WNW -- 30.11 in1019.6 mb 0.00 in0.0 mm 0.00 in0.0 mm 0.00 in0.0 mm
12:07 AM 32.9°F0.5°C 28.2°F-2.1°C 83% 15.0 mph W24.1 kmh W -- 30.11 in1019.6 mb 0.00 in0.0 mm 0.00 in0.0 mm 0.00 in0.0 mm
12:08 AM 32.9°F0.5°C 28.2°F-2.1°C 83% 17.0 mph W27.4 kmh W -- 30.11 in1019.6 mb 0.00 in0.0 mm 0.00 in0.0 mm 0.00 in0.0 mm
12:09 AM 32.9°F0.5°C 28.2°F-2.1°C 83% 16.0 mph NW25.7 kmh NW -- 30.11 in1019.6 mb 0.00 in0.0 mm 0.00 in0.0 mm 0.00 in0.0 mm
12:10 AM 32.9°F0.5°C 28.2°F-2.1°C 83% 15.0 mph WNW24.1 kmh WNW -- 30.11 in1019.6 mb 0.00 in0.0 mm 0.00 in0.0 mm 0.00 in0.0 mm
12:11 AM 32.9°F0.5°C 28.2°F-2.1°C 83% 11.0 mph NW17.7 kmh NW -- 30.11 in1019.6 mb 0.00 in0.0 mm 0.00 in0.0 mm 0.00 in0.0 mm
12:12 AM 32.9°F0.5°C 27.6°F-2.4°C 81% 20.0 mph NW32.2 kmh NW -- 30.10 in1019.3 mb 0.00 in0.0 mm 0.00 in0.0 mm 0.00 in0.0 mm
12:13 AM 32.9°F0.5°C 27.6°F-2.4°C 81% 19.0 mph NW30.6 kmh NW -- 30.11 in1019.6 mb 0.00 in0.0 mm 0.00 in0.0 mm 0.00 in0.0 mm
12:14 AM 32.9°F0.5°C 27.6°F-2.4°C 81% 15.0 mph NNW24.1 kmh NNW -- 30.10 in1019.3 mb 0.00 in0.0 mm 0.00 in0.0 mm 0.00 in0.0 mm
12:15 AM 32.9°F0.5°C 27.6°F-2.4°C 81% 18.0 mph NNW29.0 kmh NNW -- 30.10 in1019.3 mb 0.00 in0.0 mm 0.00 in0.0 mm 0.00 in0.0 mm
12:16 AM 32.9°F0.5°C 27.6°F-2.4°C 81% 12.0 mph NNW19.3 kmh NNW -- 30.10 in1019.3 mb 0.00 in0.0 mm 0.00 in0.0 mm 0.00 in0.0 mm
12:17 AM 32.9°F0.5°C 27.6°F-2.4°C 81% 14.0 mph WNW22.5 kmh WNW -- 30.10 in1019.3 mb 0.00 in0.0 mm 0.00 in0.0 mm 0.00 in0.0 mm
12:18 AM 32.9°F0.5°C 27.6°F-2.4°C 81% 14.0 mph NW22.5 kmh NW -- 30.10 in1019.3 mb 0.00 in0.0 mm 0.00 in0.0 mm 0.00 in0.0 mm
12:19 AM 32.9°F0.5°C 27.6°F-2.4°C 81% 11.0 mph WNW17.7 kmh WNW -- 30.10 in1019.3 mb 0.00 in0.0 mm 0.00 in0.0 mm 0.00 in0.0 mm
12:20 AM 32.9°F0.5°C 27.6°F-2.4°C 81% 17.0 mph NW27.4 kmh NW -- 30.10 in1019.3 mb 0.00 in0.0 mm 0.00 in0.0 mm 0.00 in0.0 mm
12:21 AM 32.9°F0.5°C 27.6°F-2.4°C 81% 14.0 mph WNW22.5 kmh WNW -- 30.10 in1019.3 mb 0.00 in0.0 mm 0.00 in0.0 mm 0.00 in0.0 mm
12:22 AM 32.9°F0.5°C 27.6°F-2.4°C 81% 17.0 mph WNW27.4 kmh WNW -- 30.10 in1019.3 mb 0.00 in0.0 mm 0.00 in0.0 mm 0.00 in0.0 mm
12:23 AM 32.9°F0.5°C 27.6°F-2.4°C 81% 14.0 mph W22.5 kmh W -- 30.11 in1019.6 mb 0.00 in0.0 mm 0.00 in0.0 mm 0.00 in0.0 mm
12:24 AM 32.9°F0.5°C 27.6°F-2.4°C 81% 14.0 mph NW22.5 kmh NW -- 30.11 in1019.6 mb 0.00 in0.0 mm 0.00 in0.0 mm 0.00 in0.0 mm
12:25 AM 32.9°F0.5°C 27.6°F-2.4°C 81% 15.0 mph NW24.1 kmh NW -- 30.10 in1019.3 mb 0.00 in0.0 mm 0.00 in0.0 mm 0.00 in0.0 mm
12:26 AM 32.9°F0.5°C 27.6°F-2.4°C 81% 12.0 mph WNW19.3 kmh WNW -- 30.10 in1019.3 mb 0.00 in0.0 mm 0.00 in0.0 mm 0.00 in0.0 mm
12:27 AM 32.9°F0.5°C 27.6°F-2.4°C 81% 15.0 mph NNW24.1 kmh NNW -- 30.10 in1019.3 mb 0.00 in0.0 mm 0.00 in0.0 mm 0.00 in0.0 mm
12:28 AM 32.9°F0.5°C 27.6°F-2.4°C 81% 10.0 mph NW16.1 kmh NW -- 30.10 in1019.3 mb 0.00 in0.0 mm 0.00 in0.0 mm 0.00 in0.0 mm
12:29 AM 32.9°F0.5°C 27.6°F-2.4°C 81% 10.0 mph NW16.1 kmh NW -- 30.11 in1019.6 mb 0.00 in0.0 mm 0.00 in0.0 mm 0.00 in0.0 mm
12:30 AM 33.0°F0.6°C 27.8°F-2.3°C 81% 16.0 mph NW25.7 kmh NW -- 30.11 in1019.6 mb 0.00 in0.0 mm 0.00 in0.0 mm 0.00 in0.0 mm
12:31 AM 33.0°F0.6°C 27.8°F-2.3°C 81% 19.0 mph NNW30.6 kmh NNW -- 30.10 in1019.3 mb 0.00 in0.0 mm 0.00 in0.0 mm 0.00 in0.0 mm
12:32 AM 33.0°F0.6°C 27.8°F-2.3°C 81% 15.0 mph WNW24.1 kmh WNW -- 30.10 in1019.3 mb 0.00 in0.0 mm 0.00 in0.0 mm 0.00 in0.0 mm
12:33 AM 33.0°F0.6°C 27.8°F-2.3°C 81% 13.0 mph NW20.9 kmh NW -- 30.10 in1019.3 mb 0.00 in0.0 mm 0.00 in0.0 mm 0.00 in0.0 mm
12:34 AM 33.0°F0.6°C 27.8°F-2.3°C 81% 15.0 mph W24.1 kmh W -- 30.10 in1019.3 mb 0.00 in0.0 mm 0.00 in0.0 mm 0.00 in0.0 mm
12:35 AM 33.0°F0.6°C 27.8°F-2.3°C 81% 21.0 mph WNW33.8 kmh WNW -- 30.10 in1019.3 mb 0.00 in0.0 mm 0.00 in0.0 mm 0.00 in0.0 mm
12:36 AM 33.0°F0.6°C 27.8°F-2.3°C 81% 12.0 mph WNW19.3 kmh WNW -- 30.10 in1019.3 mb 0.00 in0.0 mm 0.00 in0.0 mm 0.00 in0.0 mm
12:37 AM 33.2°F0.7°C 28.0°F-2.2°C 81% 14.0 mph NW22.5 kmh NW -- 30.10 in1019.3 mb 0.00 in0.0 mm 0.00 in0.0 mm 0.00 in0.0 mm
12:38 AM 33.2°F0.7°C 28.0°F-2.2°C 81% 16.0 mph WNW25.7 kmh WNW -- 30.10 in1019.3 mb 0.00 in0.0 mm 0.00 in0.0 mm 0.00 in0.0 mm
12:39 AM 33.2°F0.7°C 28.0°F-2.2°C 81% 11.0 mph NW17.7 kmh NW -- 30.10 in1019.3 mb 0.00 in0.0 mm 0.00 in0.0 mm 0.00 in0.0 mm
12:40 AM 33.2°F0.7°C 28.0°F-2.2°C 81% 17.0 mph WNW27.4 kmh WNW -- 30.09 in1019.0 mb 0.00 in0.0 mm 0.00 in0.0 mm 0.00 in0.0 mm
12:41 AM 33.2°F0.7°C 28.0°F-2.2°C 81% 17.0 mph NW27.4 kmh NW -- 30.10 in1019.3 mb 0.00 in0.0 mm 0.00 in0.0 mm 0.00 in0.0 mm
12:42 AM 33.2°F0.7°C 28.0°F-2.2°C 81% 19.0 mph WNW30.6 kmh WNW -- 30.10 in1019.3 mb 0.00 in0.0 mm 0.00 in0.0 mm 0.00 in0.0 mm
12:43 AM 33.2°F0.7°C 28.0°F-2.2°C 81% 20.0 mph WNW32.2 kmh WNW -- 30.10 in1019.3 mb 0.00 in0.0 mm 0.00 in0.0 mm 0.00 in0.0 mm
12:44 AM 33.2°F0.7°C 28.0°F-2.2°C 81% 20.0 mph NW32.2 kmh NW -- 30.10 in1019.3 mb 0.00 in0.0 mm 0.00 in0.0 mm 0.00 in0.0 mm
12:45 AM 33.2°F0.7°C 28.0°F-2.2°C 81% 14.0 mph WNW22.5 kmh WNW -- 30.10 in1019.3 mb 0.00 in0.0 mm 0.00 in0.0 mm 0.00 in0.0 mm
12:46 AM 33.2°F0.7°C 28.0°F-2.2°C 81% 15.0 mph WNW24.1 kmh WNW -- 30.10 in1019.3 mb 0.00 in0.0 mm 0.00 in0.0 mm 0.00 in0.0 mm
12:47 AM 33.2°F0.7°C 28.0°F-2.2°C 81% 14.0 mph NW22.5 kmh NW -- 30.10 in1019.3 mb 0.00 in0.0 mm 0.00 in0.0 mm 0.00 in0.0 mm
12:48 AM 33.0°F0.6°C 27.8°F-2.3°C 81% 13.0 mph WNW20.9 kmh WNW -- 30.10 in1019.3 mb 0.00 in0.0 mm 0.00 in0.0 mm 0.00 in0.0 mm
12:49 AM 33.0°F0.6°C 27.8°F-2.3°C 81% 20.0 mph NNW32.2 kmh NNW -- 30.10 in1019.3 mb 0.00 in0.0 mm 0.00 in0.0 mm 0.00 in0.0 mm
12:50 AM 33.0°F0.6°C 27.8°F-2.3°C 81% 20.0 mph NW32.2 kmh NW -- 30.10 in1019.3 mb 0.00 in0.0 mm 0.00 in0.0 mm 0.00 in0.0 mm
12:51 AM 33.0°F0.6°C 27.8°F-2.3°C 81% 14.0 mph WNW22.5 kmh WNW -- 30.10 in1019.3 mb 0.00 in0.0 mm 0.00 in0.0 mm 0.00 in0.0 mm
12:52 AM 33.0°F0.6°C 27.8°F-2.3°C 81% 17.0 mph NW27.4 kmh NW -- 30.10 in1019.3 mb 0.00 in0.0 mm 0.00 in0.0 mm 0.00 in0.0 mm
12:53 AM 33.0°F0.6°C 27.8°F-2.3°C 81% 18.0 mph W29.0 kmh W -- 30.10 in1019.3 mb 0.00 in0.0 mm 0.00 in0.0 mm 0.00 in0.0 mm
12:54 AM 32.9°F0.5°C 27.6°F-2.4°C 81% 13.0 mph NNW20.9 kmh NNW -- 30.10 in1019.3 mb 0.00 in0.0 mm 0.00 in0.0 mm 0.00 in0.0 mm
12:55 AM 32.9°F0.5°C 28.2°F-2.1°C 83% 14.0 mph NW22.5 kmh NW -- 30.10 in1019.3 mb 0.00 in0.0 mm 0.00 in0.0 mm 0.00 in0.0 mm
12:56 AM 32.6°F0.3°C 27.9°F-2.3°C 83% 15.0 mph NW24.1 kmh NW -- 30.10 in1019.3 mb 0.00 in0.0 mm 0.00 in0.0 mm 0.00 in0.0 mm
12:57 AM 32.6°F0.3°C 27.9°F-2.3°C 83% 15.0 mph WNW24.1 kmh WNW -- 30.10 in1019.3 mb 0.00 in0.0 mm 0.00 in0.0 mm 0.00 in0.0 mm
12:58 AM 32.6°F0.3°C 27.9°F-2.3°C 83% 21.0 mph NW33.8 kmh NW -- 30.10 in1019.3 mb 0.00 in0.0 mm 0.00 in0.0 mm 0.00 in0.0 mm
12:59 AM 32.6°F0.3°C 27.9°F-2.3°C 83% 16.0 mph NNW25.7 kmh NNW -- 30.10 in1019.3 mb 0.00 in0.0 mm 0.00 in0.0 mm 0.00 in0.0 mm
01:00 AM 32.6°F0.3°C 27.9°F-2.3°C 83% 12.0 mph W19.3 kmh W -- 30.10 in1019.3 mb 0.00 in0.0 mm 0.00 in0.0 mm 0.00 in0.0 mm
01:01 AM 32.5°F0.3°C 27.9°F-2.3°C 83% 13.0 mph NW20.9 kmh NW -- 30.10 in1019.3 mb 0.00 in0.0 mm 0.00 in0.0 mm 0.00 in0.0 mm
01:02 AM 32.5°F0.3°C 27.9°F-2.3°C 83% 11.0 mph WNW17.7 kmh WNW -- 30.10 in1019.3 mb 0.00 in0.0 mm 0.00 in0.0 mm 0.00 in0.0 mm
01:03 AM 32.5°F0.3°C 27.9°F-2.3°C 83% 13.0 mph NW20.9 kmh NW -- 30.10 in1019.3 mb 0.00 in0.0 mm 0.00 in0.0 mm 0.00 in0.0 mm
01:04 AM 32.5°F0.3°C 28.5°F-1.9°C 85% 16.0 mph NW25.7 kmh NW -- 30.10 in1019.3 mb 0.00 in0.0 mm 0.00 in0.0 mm 0.00 in0.0 mm
01:05 AM 32.5°F0.3°C 28.5°F-1.9°C 85% 12.0 mph WNW19.3 kmh WNW -- 30.10 in1019.3 mb 0.00 in0.0 mm 0.00 in0.0 mm 0.00 in0.0 mm
01:06 AM 32.4°F0.2°C 28.3°F-2.1°C 85% 10.0 mph NW16.1 kmh NW -- 30.10 in1019.3 mb 0.00 in0.0 mm 0.00 in0.0 mm 0.00 in0.0 mm
01:07 AM 32.4°F0.2°C 28.3°F-2.1°C 85% 16.0 mph W25.7 kmh W -- 30.10 in1019.3 mb 0.00 in0.0 mm 0.00 in0.0 mm 0.00 in0.0 mm
01:08 AM 32.4°F0.2°C 28.3°F-2.1°C 85% 11.0 mph NW17.7 kmh NW -- 30.10 in1019.3 mb 0.00 in0.0 mm 0.00 in0.0 mm 0.00 in0.0 mm
01:09 AM 32.4°F0.2°C 28.3°F-2.1°C 85% 14.0 mph 22.5 kmh -- 30.10 in1019.3 mb 0.00 in0.0 mm 0.00 in0.0 mm 0.00 in0.0 mm
01:10 AM 32.4°F0.2°C 28.3°F-2.1°C 85% 15.0 mph NW24.1 kmh NW -- 30.10 in1019.3 mb 0.00 in0.0 mm 0.00 in0.0 mm 0.00 in0.0 mm
01:11 AM 32.4°F0.2°C 28.3°F-2.1°C 85% 20.0 mph WNW32.2 kmh WNW -- 30.10 in1019.3 mb 0.00 in0.0 mm 0.00 in0.0 mm 0.00 in0.0 mm
01:12 AM 32.4°F0.2°C 28.3°F-2.1°C 85% 9.0 mph WNW14.5 kmh WNW -- 30.10 in1019.3 mb 0.00 in0.0 mm 0.00 in0.0 mm 0.00 in0.0 mm
01:13 AM 32.4°F0.2°C 28.6°F-1.9°C 86% 13.0 mph NNW20.9 kmh NNW -- 30.10 in1019.3 mb 0.00 in0.0 mm 0.00 in0.0 mm 0.00 in0.0 mm
01:15 AM 32.4°F0.2°C 28.6°F-1.9°C 86% 16.0 mph NW25.7 kmh NW -- 30.10 in1019.3 mb 0.00 in0.0 mm 0.00 in0.0 mm 0.00 in0.0 mm
01:16 AM 32.2°F0.1°C 28.4°F-2.0°C 86% 13.0 mph WNW20.9 kmh WNW -- 30.10 in1019.3 mb 0.00 in0.0 mm 0.00 in0.0 mm 0.00 in0.0 mm
01:17 AM 32.2°F0.1°C 28.4°F-2.0°C 86% 12.0 mph WNW19.3 kmh WNW -- 30.10 in1019.3 mb 0.00 in0.0 mm 0.00 in0.0 mm 0.00 in0.0 mm
01:18 AM 32.2°F0.1°C 28.4°F-2.0°C 86% 17.0 mph WNW27.4 kmh WNW -- 30.10 in1019.3 mb 0.00 in0.0 mm 0.00 in0.0 mm 0.00 in0.0 mm
01:19 AM 32.2°F0.1°C 28.4°F-2.0°C 86% 14.0 mph WNW22.5 kmh WNW -- 30.10 in1019.3 mb 0.00 in0.0 mm 0.00 in0.0 mm 0.00 in0.0 mm
01:20 AM 32.2°F0.1°C 28.4°F-2.0°C 86% 13.0 mph NW20.9 kmh NW -- 30.10 in1019.3 mb 0.00 in0.0 mm 0.00 in0.0 mm 0.00 in0.0 mm
01:21 AM 32.2°F0.1°C 28.4°F-2.0°C 86% 11.0 mph W17.7 kmh W -- 30.10 in1019.3 mb 0.00 in0.0 mm 0.00 in0.0 mm 0.00 in0.0 mm
01:22 AM 32.2°F0.1°C 28.4°F-2.0°C 86% 11.0 mph NW17.7 kmh NW -- 30.10 in1019.3 mb 0.00 in0.0 mm 0.00 in0.0 mm 0.00 in0.0 mm
01:23 AM 31.9°F-0.1°C 28.1°F-2.2°C 86% 14.0 mph WNW22.5 kmh WNW -- 30.10 in1019.3 mb 0.00 in0.0 mm 0.00 in0.0 mm 0.00 in0.0 mm
01:24 AM 31.9°F-0.1°C 28.1°F-2.2°C 86% 16.0 mph NW25.7 kmh NW -- 30.10 in1019.3 mb 0.00 in0.0 mm 0.00 in0.0 mm 0.00 in0.0 mm
01:25 AM 31.9°F-0.1°C 28.1°F-2.2°C 86% 16.0 mph NNW25.7 kmh NNW -- 30.10 in1019.3 mb 0.00 in0.0 mm 0.00 in0.0 mm 0.00 in0.0 mm
01:26 AM 31.9°F-0.1°C 28.1°F-2.2°C 86% 13.0 mph NW20.9 kmh NW -- 30.10 in1019.3 mb 0.00 in0.0 mm 0.00 in0.0 mm 0.00 in0.0 mm
01:27 AM 31.9°F-0.1°C 28.1°F-2.2°C 86% 13.0 mph NNW20.9 kmh NNW -- 30.10 in1019.3 mb 0.00 in0.0 mm 0.00 in0.0 mm 0.00 in0.0 mm
01:28 AM 31.9°F-0.1°C 28.1°F-2.2°C 86% 16.0 mph W25.7 kmh W -- 30.10 in1019.3 mb 0.00 in0.0 mm 0.00 in0.0 mm 0.00 in0.0 mm
01:29 AM 31.7°F-0.2°C 27.9°F-2.3°C 86% 11.0 mph W17.7 kmh W -- 30.10 in1019.3 mb 0.00 in0.0 mm 0.00 in0.0 mm 0.00 in0.0 mm
01:30 AM 31.7°F-0.2°C 27.9°F-2.3°C 86% 16.0 mph WNW25.7 kmh WNW -- 30.10 in1019.3 mb 0.00 in0.0 mm 0.00 in0.0 mm 0.00 in0.0 mm
01:31 AM 31.7°F-0.2°C 27.9°F-2.3°C 86% 9.0 mph NW14.5 kmh NW -- 30.10 in1019.3 mb 0.00 in0.0 mm 0.00 in0.0 mm 0.00 in0.0 mm
01:32 AM 31.7°F-0.2°C 27.9°F-2.3°C 86% 16.0 mph WNW25.7 kmh WNW -- 30.10 in1019.3 mb 0.00 in0.0 mm 0.00 in0.0 mm 0.00 in0.0 mm
01:33 AM 31.7°F-0.2°C 27.9°F-2.3°C 86% 19.0 mph NNW30.6 kmh NNW -- 30.10 in1019.3 mb 0.00 in0.0 mm 0.00 in0.0 mm 0.00 in0.0 mm
01:34 AM 31.6°F-0.2°C 27.9°F-2.3°C 86% 12.0 mph WNW19.3 kmh WNW -- 30.10 in1019.3 mb 0.00 in0.0 mm 0.00 in0.0 mm 0.00 in0.0 mm
01:35 AM 31.6°F-0.2°C 27.9°F-2.3°C 86% 20.0 mph NW32.2 kmh NW -- 30.10 in1019.3 mb 0.00 in0.0 mm 0.00 in0.0 mm 0.00 in0.0 mm
01:36 AM 31.6°F-0.2°C 27.9°F-2.3°C 86% 16.0 mph NW25.7 kmh NW -- 30.10 in1019.3 mb 0.00 in0.0 mm 0.00 in0.0 mm 0.00 in0.0 mm
01:37 AM 31.6°F-0.2°C 27.9°F-2.3°C 86% 13.0 mph WNW20.9 kmh WNW -- 30.10 in1019.3 mb 0.00 in0.0 mm 0.00 in0.0 mm 0.00 in0.0 mm
01:38 AM 31.6°F-0.2°C 27.9°F-2.3°C 86% 17.0 mph NW27.4 kmh NW -- 30.10 in1019.3 mb 0.00 in0.0 mm 0.00 in0.0 mm 0.00 in0.0 mm
01:39 AM 31.5°F-0.3°C 27.7°F-2.4°C 86% 16.0 mph NNW25.7 kmh NNW -- 30.10 in1019.3 mb 0.00 in0.0 mm 0.00 in0.0 mm 0.00 in0.0 mm
01:40 AM 31.5°F-0.3°C 27.7°F-2.4°C 86% 17.0 mph W27.4 kmh W -- 30.10 in1019.3 mb 0.00 in0.0 mm 0.00 in0.0 mm 0.00 in0.0 mm
01:41 AM 31.2°F-0.4°C 27.5°F-2.5°C 86% 17.0 mph NW27.4 kmh NW -- 30.10 in1019.3 mb 0.00 in0.0 mm 0.00 in0.0 mm 0.00 in0.0 mm
01:42 AM 31.2°F-0.4°C 27.5°F-2.5°C 86% 16.0 mph WNW25.7 kmh WNW -- 30.10 in1019.3 mb 0.00 in0.0 mm 0.00 in0.0 mm 0.00 in0.0 mm
01:43 AM 31.2°F-0.4°C 27.5°F-2.5°C 86% 13.0 mph WNW20.9 kmh WNW -- 30.10 in1019.3 mb 0.00 in0.0 mm 0.00 in0.0 mm 0.00 in0.0 mm
01:44 AM 31.1°F-0.5°C 27.3°F-2.6°C 86% 17.0 mph NW27.4 kmh NW -- 30.10 in1019.3 mb 0.00 in0.0 mm 0.00 in0.0 mm 0.00 in0.0 mm
01:45 AM 31.1°F-0.5°C 27.3°F-2.6°C 86% 18.0 mph NW29.0 kmh NW -- 30.10 in1019.3 mb 0.00 in0.0 mm 0.00 in0.0 mm 0.00 in0.0 mm
01:46 AM 31.1°F-0.5°C 27.3°F-2.6°C 86% 15.0 mph W24.1 kmh W -- 30.10 in1019.3 mb 0.00 in0.0 mm 0.00 in0.0 mm 0.00 in0.0 mm
01:47 AM 31.1°F-0.5°C 27.3°F-2.6°C 86% 9.0 mph NNE14.5 kmh NNE -- 30.10 in1019.3 mb 0.00 in0.0 mm 0.00 in0.0 mm 0.00 in0.0 mm
01:48 AM 30.8°F-0.7°C 27.0°F-2.8°C 86% 14.0 mph WNW22.5 kmh WNW -- 30.10 in1019.3 mb 0.00 in0.0 mm 0.00 in0.0 mm 0.00 in0.0 mm
01:49 AM 30.8°F-0.7°C 27.0°F-2.8°C 86% 15.0 mph NW24.1 kmh NW -- 30.10 in1019.3 mb 0.00 in0.0 mm 0.00 in0.0 mm 0.00 in0.0 mm
01:50 AM 30.8°F-0.7°C 27.0°F-2.8°C 86% 13.0 mph W20.9 kmh W -- 30.10 in1019.3 mb 0.00 in0.0 mm 0.00 in0.0 mm 0.00 in0.0 mm
01:51 AM 30.8°F-0.7°C 26.7°F-2.9°C 85% 13.0 mph WNW20.9 kmh WNW -- 30.11 in1019.6 mb 0.00 in0.0 mm 0.00 in0.0 mm 0.00 in0.0 mm
01:52 AM 30.8°F-0.7°C 26.7°F-2.9°C 85% 16.0 mph NNW25.7 kmh NNW -- 30.10 in1019.3 mb 0.00 in0.0 mm 0.00 in0.0 mm 0.00 in0.0 mm
01:53 AM 30.8°F-0.7°C 26.7°F-2.9°C 85% 19.0 mph NNW30.6 kmh NNW -- 30.10 in1019.3 mb 0.00 in0.0 mm 0.00 in0.0 mm 0.00 in0.0 mm
01:54 AM 30.7°F-0.7°C 26.7°F-2.9°C 85% 14.0 mph NW22.5 kmh NW -- 30.10 in1019.3 mb 0.00 in0.0 mm 0.00 in0.0 mm 0.00 in0.0 mm
01:55 AM 30.7°F-0.7°C 26.7°F-2.9°C 85% 12.0 mph WNW19.3 kmh WNW -- 30.10 in1019.3 mb 0.00 in0.0 mm 0.00 in0.0 mm 0.00 in0.0 mm
01:56 AM 30.7°F-0.7°C 26.7°F-2.9°C 85% 14.0 mph NNW22.5 kmh NNW -- 30.10 in1019.3 mb 0.00 in0.0 mm 0.00 in0.0 mm 0.00 in0.0 mm
01:57 AM 30.5°F-0.8°C 26.5°F-3.1°C 85% 12.0 mph WNW19.3 kmh WNW -- 30.11 in1019.6 mb 0.00 in0.0 mm 0.00 in0.0 mm 0.00 in0.0 mm
01:58 AM 30.5°F-0.8°C 26.5°F-3.1°C 85% 17.0 mph NNW27.4 kmh NNW -- 30.10 in1019.3 mb 0.00 in0.0 mm 0.00 in0.0 mm 0.00 in0.0 mm
01:59 AM 30.5°F-0.8°C 26.5°F-3.1°C 85% 20.0 mph NW32.2 kmh NW -- 30.10 in1019.3 mb 0.00 in0.0 mm 0.00 in0.0 mm 0.00 in0.0 mm
02:00 AM 30.5°F-0.8°C 26.5°F-3.1°C 85% 16.0 mph WNW25.7 kmh WNW -- 30.10 in1019.3 mb 0.00 in0.0 mm 0.00 in0.0 mm 0.00 in0.0 mm
02:01 AM 30.5°F-0.8°C 26.5°F-3.1°C 85% 17.0 mph NNW27.4 kmh NNW -- 30.11 in1019.6 mb 0.00 in0.0 mm 0.00 in0.0 mm 0.00 in0.0 mm
02:02 AM 30.3°F-0.9°C 26.4°F-3.1°C 85% 16.0 mph NW25.7 kmh NW -- 30.10 in1019.3 mb 0.00 in0.0 mm 0.00 in0.0 mm 0.00 in0.0 mm
02:03 AM 30.3°F-0.9°C 26.6°F-3.0°C 86% 19.0 mph NNW30.6 kmh NNW -- 30.11 in1019.6 mb 0.00 in0.0 mm 0.00 in0.0 mm 0.00 in0.0 mm
02:04 AM 30.1°F-1.1°C 26.3°F-3.2°C 86% 12.0 mph NW19.3 kmh NW -- 30.11 in1019.6 mb 0.00 in0.0 mm 0.00 in0.0 mm 0.00 in0.0 mm
02:05 AM 30.1°F-1.1°C 26.3°F-3.2°C 86% 16.0 mph NNW25.7 kmh NNW -- 30.11 in1019.6 mb 0.00 in0.0 mm 0.00 in0.0 mm 0.00 in0.0 mm
02:06 AM 30.1°F-1.1°C 26.3°F-3.2°C 86% 12.0 mph WNW19.3 kmh WNW -- 30.10 in1019.3 mb 0.00 in0.0 mm 0.00 in0.0 mm 0.00 in0.0 mm
02:07 AM 30.1°F-1.1°C 26.3°F-3.2°C 86% 14.0 mph NNW22.5 kmh NNW -- 30.11 in1019.6 mb 0.00 in0.0 mm 0.00 in0.0 mm 0.00 in0.0 mm
02:08 AM 30.0°F-1.1°C 26.3°F-3.2°C 86% 17.0 mph NW27.4 kmh NW -- 30.11 in1019.6 mb 0.00 in0.0 mm 0.00 in0.0 mm 0.00 in0.0 mm
02:09 AM 30.0°F-1.1°C 26.3°F-3.2°C 86% 14.0 mph W22.5 kmh W -- 30.11 in1019.6 mb 0.00 in0.0 mm 0.00 in0.0 mm 0.00 in0.0 mm
02:10 AM 30.0°F-1.1°C 26.3°F-3.2°C 86% 12.0 mph NNW19.3 kmh NNW -- 30.11 in1019.6 mb 0.00 in0.0 mm 0.00 in0.0 mm 0.00 in0.0 mm
02:11 AM 30.0°F-1.1°C 26.3°F-3.2°C 86% 15.0 mph WNW24.1 kmh WNW -- 30.11 in1019.6 mb 0.00 in0.0 mm 0.00 in0.0 mm 0.00 in0.0 mm
02:12 AM 30.0°F-1.1°C 26.3°F-3.2°C 86% 12.0 mph WNW19.3 kmh WNW -- 30.11 in1019.6 mb 0.00 in0.0 mm 0.00 in0.0 mm 0.00 in0.0 mm
02:13 AM 30.0°F-1.1°C 26.9°F-2.8°C 88% 12.0 mph WNW19.3 kmh WNW -- 30.11 in1019.6 mb 0.00 in0.0 mm 0.00 in0.0 mm 0.00 in0.0 mm
02:14 AM 30.0°F-1.1°C 26.9°F-2.8°C 88% 11.0 mph W17.7 kmh W -- 30.11 in1019.6 mb 0.00 in0.0 mm 0.00 in0.0 mm 0.00 in0.0 mm
02:15 AM 30.0°F-1.1°C 26.9°F-2.8°C 88% 11.0 mph WNW17.7 kmh WNW -- 30.10 in1019.3 mb 0.00 in0.0 mm 0.00 in0.0 mm 0.00 in0.0 mm
02:16 AM 30.0°F-1.1°C 26.9°F-2.8°C 88% 19.0 mph NW30.6 kmh NW -- 30.10 in1019.3 mb 0.00 in0.0 mm 0.00 in0.0 mm 0.00 in0.0 mm
02:17 AM 30.0°F-1.1°C 26.9°F-2.8°C 88% 13.0 mph NW20.9 kmh NW -- 30.10 in1019.3 mb 0.00 in0.0 mm 0.00 in0.0 mm 0.00 in0.0 mm
02:19 AM 30.0°F-1.1°C 26.9°F-2.8°C 88% 16.0 mph NW25.7 kmh NW -- 30.10 in1019.3 mb 0.00 in0.0 mm 0.00 in0.0 mm 0.00 in0.0 mm
02:20 AM 30.0°F-1.1°C 26.9°F-2.8°C 88% 15.0 mph NW24.1 kmh NW -- 30.10 in1019.3 mb 0.00 in0.0 mm 0.00 in0.0 mm 0.00 in0.0 mm
02:21 AM 30.0°F-1.1°C 26.9°F-2.8°C 88% 17.0 mph NW27.4 kmh NW -- 30.10 in1019.3 mb 0.00 in0.0 mm 0.00 in0.0 mm 0.00 in0.0 mm
02:22 AM 30.0°F-1.1°C 26.9°F-2.8°C 88% 11.0 mph WNW17.7 kmh WNW -- 30.10 in1019.3 mb 0.00 in0.0 mm 0.00 in0.0 mm 0.00 in0.0 mm
02:23 AM 30.0°F-1.1°C 26.9°F-2.8°C 88% 17.0 mph WNW27.4 kmh WNW -- 30.09 in1019.0 mb 0.00 in0.0 mm 0.00 in0.0 mm 0.00 in0.0 mm
02:24 AM 30.0°F-1.1°C 26.9°F-2.8°C 88% 11.0 mph NNW17.7 kmh NNW -- 30.10 in1019.3 mb 0.00 in0.0 mm 0.00 in0.0 mm 0.00 in0.0 mm
02:25 AM 30.0°F-1.1°C 26.9°F-2.8°C 88% 13.0 mph WNW20.9 kmh WNW -- 30.10 in1019.3 mb 0.00 in0.0 mm 0.00 in0.0 mm 0.00 in0.0 mm
02:26 AM 30.0°F-1.1°C 26.9°F-2.8°C 88% 18.0 mph WNW29.0 kmh WNW -- 30.10 in1019.3 mb 0.00 in0.0 mm 0.00 in0.0 mm 0.00 in0.0 mm
02:27 AM 30.0°F-1.1°C 26.9°F-2.8°C 88% 13.0 mph NW20.9 kmh NW -- 30.10 in1019.3 mb 0.00 in0.0 mm 0.00 in0.0 mm 0.00 in0.0 mm
02:28 AM 30.0°F-1.1°C 26.9°F-2.8°C 88% 16.0 mph NNW25.7 kmh NNW -- 30.10 in1019.3 mb 0.00 in0.0 mm 0.00 in0.0 mm 0.00 in0.0 mm
02:29 AM 30.0°F-1.1°C 27.4°F-2.6°C 90% 12.0 mph WNW19.3 kmh WNW -- 30.10 in1019.3 mb 0.00 in0.0 mm 0.00 in0.0 mm 0.00 in0.0 mm
02:30 AM 30.0°F-1.1°C 27.4°F-2.6°C 90% 10.0 mph WNW16.1 kmh WNW -- 30.10 in1019.3 mb 0.00 in0.0 mm 0.00 in0.0 mm 0.00 in0.0 mm
02:31 AM 30.0°F-1.1°C 27.7°F-2.4°C 91% 10.0 mph WNW16.1 kmh WNW -- 30.10 in1019.3 mb 0.00 in0.0 mm 0.00 in0.0 mm 0.00 in0.0 mm
02:32 AM 30.0°F-1.1°C 27.7°F-2.4°C 91% 11.0 mph W17.7 kmh W -- 30.10 in1019.3 mb 0.00 in0.0 mm 0.00 in0.0 mm 0.00 in0.0 mm
02:33 AM 30.0°F-1.1°C 27.7°F-2.4°C 91% 16.0 mph NW25.7 kmh NW -- 30.10 in1019.3 mb 0.00 in0.0 mm 0.00 in0.0 mm 0.00 in0.0 mm
02:34 AM 30.0°F-1.1°C 27.7°F-2.4°C 91% 13.0 mph WNW20.9 kmh WNW -- 30.10 in1019.3 mb 0.00 in0.0 mm 0.00 in0.0 mm 0.00 in0.0 mm
02:35 AM 30.0°F-1.1°C 27.7°F-2.4°C 91% 15.0 mph NNW24.1 kmh NNW -- 30.10 in1019.3 mb 0.00 in0.0 mm 0.00 in0.0 mm 0.00 in0.0 mm
02:36 AM 30.0°F-1.1°C 27.7°F-2.4°C 91% 13.0 mph WNW20.9 kmh WNW -- 30.10 in1019.3 mb 0.00 in0.0 mm 0.00 in0.0 mm 0.00 in0.0 mm
02:37 AM 30.0°F-1.1°C 27.7°F-2.4°C 91% 18.0 mph 29.0 kmh -- 30.10 in1019.3 mb 0.00 in0.0 mm 0.00 in0.0 mm 0.00 in0.0 mm
02:38 AM 29.8°F-1.2°C 27.5°F-2.5°C 91% 15.0 mph WNW24.1 kmh WNW -- 30.10 in1019.3 mb 0.00 in0.0 mm 0.00 in0.0 mm 0.00 in0.0 mm
02:40 AM 29.8°F-1.2°C 27.5°F-2.5°C 91% 17.0 mph W27.4 kmh W -- 30.10 in1019.3 mb 0.00 in0.0 mm 0.00 in0.0 mm 0.00 in0.0 mm
02:41 AM 29.8°F-1.2°C 28.0°F-2.2°C 93% 13.0 mph NW20.9 kmh NW -- 30.10 in1019.3 mb 0.00 in0.0 mm 0.00 in0.0 mm 0.00 in0.0 mm
02:42 AM 29.6°F-1.3°C 27.9°F-2.3°C 93% 12.0 mph WNW19.3 kmh WNW -- 30.10 in1019.3 mb 0.00 in0.0 mm 0.00 in0.0 mm 0.00 in0.0 mm
02:44 AM 29.6°F-1.3°C 27.9°F-2.3°C 93% 13.0 mph NW20.9 kmh NW -- 30.09 in1019.0 mb 0.00 in0.0 mm 0.00 in0.0 mm 0.00 in0.0 mm
02:45 AM 29.6°F-1.3°C 27.9°F-2.3°C 93% 13.0 mph WNW20.9 kmh WNW -- 30.09 in1019.0 mb 0.00 in0.0 mm 0.00 in0.0 mm 0.00 in0.0 mm
02:47 AM 29.6°F-1.3°C 27.9°F-2.3°C 93% 14.0 mph W22.5 kmh W -- 30.10 in1019.3 mb 0.00 in0.0 mm 0.00 in0.0 mm 0.00 in0.0 mm
02:48 AM 29.6°F-1.3°C 27.9°F-2.3°C 93% 12.0 mph NW19.3 kmh NW -- 30.10 in1019.3 mb 0.00 in0.0 mm 0.00 in0.0 mm 0.00 in0.0 mm
02:49 AM 29.5°F-1.4°C 27.7°F-2.4°C 93% 12.0 mph WNW19.3 kmh WNW -- 30.09 in1019.0 mb 0.00 in0.0 mm 0.00 in0.0 mm 0.00 in0.0 mm
02:50 AM 29.5°F-1.4°C 27.7°F-2.4°C 93% 8.0 mph WNW12.9 kmh WNW -- 30.09 in1019.0 mb 0.00 in0.0 mm 0.00 in0.0 mm 0.00 in0.0 mm
02:51 AM 29.5°F-1.4°C 27.7°F-2.4°C 93% 15.0 mph NW24.1 kmh NW -- 30.09 in1019.0 mb 0.00 in0.0 mm 0.00 in0.0 mm 0.00 in0.0 mm
02:52 AM 29.5°F-1.4°C 27.7°F-2.4°C 93% 12.0 mph WNW19.3 kmh WNW -- 30.09 in1019.0 mb 0.00 in0.0 mm 0.00 in0.0 mm 0.00 in0.0 mm
02:53 AM 29.5°F-1.4°C 27.7°F-2.4°C 93% 12.0 mph NNW19.3 kmh NNW -- 30.09 in1019.0 mb 0.00 in0.0 mm 0.00 in0.0 mm 0.00 in0.0 mm
02:54 AM 29.5°F-1.4°C 27.7°F-2.4°C 93% 11.0 mph NW17.7 kmh NW -- 30.09 in1019.0 mb 0.00 in0.0 mm 0.00 in0.0 mm 0.00 in0.0 mm
02:55 AM 29.5°F-1.4°C 27.7°F-2.4°C 93% 11.0 mph W17.7 kmh W -- 30.09 in1019.0 mb 0.00 in0.0 mm 0.00 in0.0 mm 0.00 in0.0 mm
02:56 AM 29.5°F-1.4°C 27.7°F-2.4°C 93% 7.0 mph NNW11.3 kmh NNW -- 30.09 in1019.0 mb 0.00 in0.0 mm 0.00 in0.0 mm 0.00 in0.0 mm
02:57 AM 29.5°F-1.4°C 27.7°F-2.4°C 93% 13.0 mph WNW20.9 kmh WNW -- 30.09 in1019.0 mb 0.00 in0.0 mm 0.00 in0.0 mm 0.00 in0.0 mm
02:58 AM 29.2°F-1.6°C 27.3°F-2.6°C 93% 13.0 mph NNW20.9 kmh NNW -- 30.09 in1019.0 mb 0.00 in0.0 mm 0.00 in0.0 mm 0.00 in0.0 mm
02:59 AM 29.2°F-1.6°C 27.3°F-2.6°C 93% 14.0 mph NW22.5 kmh NW -- 30.09 in1019.0 mb 0.00 in0.0 mm 0.00 in0.0 mm 0.00 in0.0 mm
03:00 AM 29.2°F-1.6°C 27.3°F-2.6°C 93% 11.0 mph WNW17.7 kmh WNW -- 30.09 in1019.0 mb 0.00 in0.0 mm 0.00 in0.0 mm 0.00 in0.0 mm
03:01 AM 29.2°F-1.6°C 27.3°F-2.6°C 93% 11.0 mph 17.7 kmh -- 30.09 in1019.0 mb 0.00 in0.0 mm 0.00 in0.0 mm 0.00 in0.0 mm
03:02 AM 29.2°F-1.6°C 27.3°F-2.6°C 93% 12.0 mph WNW19.3 kmh WNW -- 30.09 in1019.0 mb 0.00 in0.0 mm 0.00 in0.0 mm 0.00 in0.0 mm
03:03 AM 29.2°F-1.6°C 27.3°F-2.6°C 93% 13.0 mph NNW20.9 kmh NNW -- 30.09 in1019.0 mb 0.00 in0.0 mm 0.00 in0.0 mm 0.00 in0.0 mm
03:04 AM 29.2°F-1.6°C 27.3°F-2.6°C 93% 12.0 mph NW19.3 kmh NW -- 30.09 in1019.0 mb 0.00 in0.0 mm 0.00 in0.0 mm 0.00 in0.0 mm
03:05 AM 29.2°F-1.6°C 27.3°F-2.6°C 93% 13.0 mph NW20.9 kmh NW -- 30.09 in1019.0 mb 0.00 in0.0 mm 0.00 in0.0 mm 0.00 in0.0 mm
03:06 AM 29.2°F-1.6°C 27.3°F-2.6°C 93% 15.0 mph WNW24.1 kmh WNW -- 30.09 in1019.0 mb 0.00 in0.0 mm 0.00 in0.0 mm 0.00 in0.0 mm
03:07 AM 29.2°F-1.6°C 27.3°F-2.6°C 93% 10.0 mph NW16.1 kmh NW -- 30.09 in1019.0 mb 0.00 in0.0 mm 0.00 in0.0 mm 0.00 in0.0 mm
03:08 AM 29.2°F-1.6°C 27.8°F-2.3°C 95% 12.0 mph W19.3 kmh W -- 30.09 in1019.0 mb 0.00 in0.0 mm 0.00 in0.0 mm 0.00 in0.0 mm
03:09 AM 29.2°F-1.6°C 27.8°F-2.3°C 95% 17.0 mph NW27.4 kmh NW -- 30.09 in1019.0 mb 0.00 in0.0 mm 0.00 in0.0 mm 0.00 in0.0 mm
03:10 AM 29.2°F-1.6°C 27.8°F-2.3°C 95% 13.0 mph WNW20.9 kmh WNW -- 30.09 in1019.0 mb 0.00 in0.0 mm 0.00 in0.0 mm 0.00 in0.0 mm
03:11 AM 29.2°F-1.6°C 27.8°F-2.3°C 95% 9.0 mph NW14.5 kmh NW -- 30.09 in1019.0 mb 0.00 in0.0 mm 0.00 in0.0 mm 0.00 in0.0 mm
03:12 AM 29.2°F-1.6°C 27.8°F-2.3°C 95% 11.0 mph WNW17.7 kmh WNW -- 30.09 in1019.0 mb 0.00 in0.0 mm 0.00 in0.0 mm 0.00 in0.0 mm
03:13 AM 29.2°F-1.6°C 27.8°F-2.3°C 95% 15.0 mph NW24.1 kmh NW -- 30.09 in1019.0 mb 0.00 in0.0 mm 0.00 in0.0 mm 0.00 in0.0 mm
03:15 AM 29.5°F-1.4°C 28.2°F-2.1°C 95% 18.0 mph NNW29.0 kmh NNW -- 30.09 in1019.0 mb 0.00 in0.0 mm 0.00 in0.0 mm 0.00 in0.0 mm
03:16 AM 29.5°F-1.4°C 28.2°F-2.1°C 95% 17.0 mph W27.4 kmh W -- 30.09 in1019.0 mb 0.00 in0.0 mm 0.00 in0.0 mm 0.00 in0.0 mm
03:17 AM 29.5°F-1.4°C 28.2°F-2.1°C 95% 11.0 mph NW17.7 kmh NW -- 30.09 in1019.0 mb 0.00 in0.0 mm 0.00 in0.0 mm 0.00 in0.0 mm
03:18 AM 29.5°F-1.4°C 28.2°F-2.1°C 95% 13.0 mph WNW20.9 kmh WNW -- 30.09 in1019.0 mb 0.00 in0.0 mm 0.00 in0.0 mm 0.00 in0.0 mm
03:19 AM 29.5°F-1.4°C 28.2°F-2.1°C 95% 13.0 mph NW20.9 kmh NW -- 30.10 in1019.3 mb 0.00 in0.0 mm 0.00 in0.0 mm 0.00 in0.0 mm
03:20 AM 29.5°F-1.4°C 28.2°F-2.1°C 95% 12.0 mph WNW19.3 kmh WNW -- 30.09 in1019.0 mb 0.00 in0.0 mm 0.00 in0.0 mm 0.00 in0.0 mm
03:21 AM 29.5°F-1.4°C 28.2°F-2.1°C 95% 13.0 mph WNW20.9 kmh WNW -- 30.09 in1019.0 mb 0.00 in0.0 mm 0.00 in0.0 mm 0.00 in0.0 mm
03:22 AM 29.5°F-1.4°C 28.2°F-2.1°C 95% 10.0 mph NW16.1 kmh NW -- 30.09 in1019.0 mb 0.00 in0.0 mm 0.00 in0.0 mm 0.00 in0.0 mm
03:23 AM 29.5°F-1.4°C 28.2°F-2.1°C 95% 14.0 mph NNW22.5 kmh NNW -- 30.09 in1019.0 mb 0.00 in0.0 mm 0.00 in0.0 mm 0.00 in0.0 mm
03:24 AM 29.5°F-1.4°C 28.2°F-2.1°C 95% 10.0 mph W16.1 kmh W -- 30.09 in1019.0 mb 0.00 in0.0 mm 0.00 in0.0 mm 0.00 in0.0 mm
03:25 AM 29.5°F-1.4°C 28.2°F-2.1°C 95% 12.0 mph NNW19.3 kmh NNW -- 30.09 in1019.0 mb 0.00 in0.0 mm 0.00 in0.0 mm 0.00 in0.0 mm
03:26 AM 29.5°F-1.4°C 28.2°F-2.1°C 95% 11.0 mph NNW17.7 kmh NNW -- 30.09 in1019.0 mb 0.00 in0.0 mm 0.00 in0.0 mm 0.00 in0.0 mm
03:27 AM 29.5°F-1.4°C 28.2°F-2.1°C 95% 16.0 mph W25.7 kmh W -- 30.09 in1019.0 mb 0.00 in0.0 mm 0.00 in0.0 mm 0.00 in0.0 mm
03:28 AM 29.5°F-1.4°C 28.2°F-2.1°C 95% 9.0 mph W14.5 kmh W -- 30.09 in1019.0 mb 0.00 in0.0 mm 0.00 in0.0 mm 0.00 in0.0 mm
03:29 AM 29.5°F-1.4°C 28.2°F-2.1°C 95% 15.0 mph WNW24.1 kmh WNW -- 30.09 in1019.0 mb 0.00 in0.0 mm 0.00 in0.0 mm 0.00 in0.0 mm
03:30 AM 29.5°F-1.4°C 28.2°F-2.1°C 95% 10.0 mph NW16.1 kmh NW -- 30.09 in1019.0 mb 0.00 in0.0 mm 0.00 in0.0 mm 0.00 in0.0 mm
03:31 AM 29.5°F-1.4°C 28.2°F-2.1°C 95% 16.0 mph WNW25.7 kmh WNW -- 30.09 in1019.0 mb 0.00 in0.0 mm 0.00 in0.0 mm 0.00 in0.0 mm
03:32 AM 29.5°F-1.4°C 28.2°F-2.1°C 95% 12.0 mph W19.3 kmh W -- 30.09 in1019.0 mb 0.00 in0.0 mm 0.00 in0.0 mm 0.00 in0.0 mm
03:34 AM 29.5°F-1.4°C 28.2°F-2.1°C 95% 16.0 mph NW25.7 kmh NW -- 30.09 in1019.0 mb 0.00 in0.0 mm 0.00 in0.0 mm 0.00 in0.0 mm
03:35 AM 29.2°F-1.6°C 27.8°F-2.3°C 95% 14.0 mph WNW22.5 kmh WNW -- 30.09 in1019.0 mb 0.00 in0.0 mm 0.00 in0.0 mm 0.00 in0.0 mm
03:36 AM 29.2°F-1.6°C 27.8°F-2.3°C 95% 16.0 mph NW25.7 kmh NW -- 30.09 in1019.0 mb 0.00 in0.0 mm 0.00 in0.0 mm 0.00 in0.0 mm
03:37 AM 29.2°F-1.6°C 27.8°F-2.3°C 95% 19.0 mph W30.6 kmh W -- 30.09 in1019.0 mb 0.00 in0.0 mm 0.00 in0.0 mm 0.00 in0.0 mm
03:38 AM 29.2°F-1.6°C 27.8°F-2.3°C 95% 14.0 mph NW22.5 kmh NW -- 30.09 in1019.0 mb 0.00 in0.0 mm 0.00 in0.0 mm 0.00 in0.0 mm
03:39 AM 29.2°F-1.6°C 27.8°F-2.3°C 95% 13.0 mph NW20.9 kmh NW -- 30.09 in1019.0 mb 0.00 in0.0 mm 0.00 in0.0 mm 0.00 in0.0 mm
03:40 AM 29.2°F-1.6°C 27.8°F-2.3°C 95% 17.0 mph NNW27.4 kmh NNW -- 30.09 in1019.0 mb 0.00 in0.0 mm 0.00 in0.0 mm 0.00 in0.0 mm
03:41 AM 29.2°F-1.6°C 27.8°F-2.3°C 95% 15.0 mph NW24.1 kmh NW -- 30.09 in1019.0 mb 0.00 in0.0 mm 0.00 in0.0 mm 0.00 in0.0 mm
03:42 AM 29.2°F-1.6°C 27.8°F-2.3°C 95% 16.0 mph WNW25.7 kmh WNW -- 30.09 in1019.0 mb 0.00 in0.0 mm 0.00 in0.0 mm 0.00 in0.0 mm
03:43 AM 29.2°F-1.6°C 27.8°F-2.3°C 95% 19.0 mph NNW30.6 kmh NNW -- 30.08 in1018.6 mb 0.00 in0.0 mm 0.00 in0.0 mm 0.00 in0.0 mm
03:44 AM 29.1°F-1.6°C 27.8°F-2.3°C 95% 18.0 mph NNW29.0 kmh NNW -- 30.09 in1019.0 mb 0.00 in0.0 mm 0.00 in0.0 mm 0.00 in0.0 mm
03:45 AM 29.1°F-1.6°C 27.8°F-2.3°C 95% 12.0 mph NW19.3 kmh NW -- 30.08 in1018.6 mb 0.00 in0.0 mm 0.00 in0.0 mm 0.00 in0.0 mm
03:46 AM 29.1°F-1.6°C 27.8°F-2.3°C 95% 15.0 mph NW24.1 kmh NW -- 30.09 in1019.0 mb 0.00 in0.0 mm 0.00 in0.0 mm 0.00 in0.0 mm
03:47 AM 29.1°F-1.6°C 27.8°F-2.3°C 95% 15.0 mph W24.1 kmh W -- 30.08 in1018.6 mb 0.00 in0.0 mm 0.00 in0.0 mm 0.00 in0.0 mm
03:48 AM 29.1°F-1.6°C 28.1°F-2.2°C 96% 13.0 mph W20.9 kmh W -- 30.09 in1019.0 mb 0.00 in0.0 mm 0.00 in0.0 mm 0.00 in0.0 mm
03:49 AM 29.1°F-1.6°C 28.1°F-2.2°C 96% 10.0 mph WNW16.1 kmh WNW -- 30.09 in1019.0 mb 0.00 in0.0 mm 0.00 in0.0 mm 0.00 in0.0 mm
03:50 AM 28.8°F-1.8°C 27.7°F-2.4°C 96% 10.0 mph WSW16.1 kmh WSW -- 30.09 in1019.0 mb 0.00 in0.0 mm 0.00 in0.0 mm 0.00 in0.0 mm
03:51 AM 28.8°F-1.8°C 27.7°F-2.4°C 96% 17.0 mph WNW27.4 kmh WNW -- 30.09 in1019.0 mb 0.00 in0.0 mm 0.00 in0.0 mm 0.00 in0.0 mm
03:52 AM 28.8°F-1.8°C 27.7°F-2.4°C 96% 19.0 mph W30.6 kmh W -- 30.09 in1019.0 mb 0.00 in0.0 mm 0.00 in0.0 mm 0.00 in0.0 mm
03:53 AM 28.8°F-1.8°C 27.7°F-2.4°C 96% 18.0 mph NW29.0 kmh NW -- 30.09 in1019.0 mb 0.00 in0.0 mm 0.00 in0.0 mm 0.00 in0.0 mm
03:54 AM 28.7°F-1.8°C 27.7°F-2.4°C 96% 18.0 mph WNW29.0 kmh WNW -- 30.09 in1019.0 mb 0.00 in0.0 mm 0.00 in0.0 mm 0.00 in0.0 mm
03:55 AM 28.7°F-1.8°C 27.7°F-2.4°C 96% 22.0 mph NW35.4 kmh NW -- 30.09 in1019.0 mb 0.00 in0.0 mm 0.00 in0.0 mm 0.00 in0.0 mm
03:56 AM 28.7°F-1.8°C 27.7°F-2.4°C 96% 12.0 mph W19.3 kmh W -- 30.09 in1019.0 mb 0.00 in0.0 mm 0.00 in0.0 mm 0.00 in0.0 mm
03:57 AM 28.7°F-1.8°C 27.7°F-2.4°C 96% 15.0 mph WNW24.1 kmh WNW -- 30.09 in1019.0 mb 0.00 in0.0 mm 0.00 in0.0 mm 0.00 in0.0 mm
03:58 AM 28.7°F-1.8°C 27.7°F-2.4°C 96% 17.0 mph NW27.4 kmh NW -- 30.09 in1019.0 mb 0.00 in0.0 mm 0.00 in0.0 mm 0.00 in0.0 mm
03:59 AM 28.7°F-1.8°C 27.7°F-2.4°C 96% 19.0 mph NNW30.6 kmh NNW -- 30.09 in1019.0 mb 0.00 in0.0 mm 0.00 in0.0 mm 0.00 in0.0 mm
04:00 AM 28.7°F-1.8°C 27.7°F-2.4°C 96% 17.0 mph NNW27.4 kmh NNW -- 30.09 in1019.0 mb 0.00 in0.0 mm 0.00 in0.0 mm 0.00 in0.0 mm
04:01 AM 28.7°F-1.8°C 27.7°F-2.4°C 96% 15.0 mph WNW24.1 kmh WNW -- 30.09 in1019.0 mb 0.00 in0.0 mm 0.00 in0.0 mm 0.00 in0.0 mm
04:02 AM 28.7°F-1.8°C 27.7°F-2.4°C 96% 17.0 mph WNW27.4 kmh WNW -- 30.08 in1018.6 mb 0.00 in0.0 mm 0.00 in0.0 mm 0.00 in0.0 mm
04:03 AM 28.7°F-1.8°C 27.7°F-2.4°C 96% 18.0 mph NW29.0 kmh NW -- 30.09 in1019.0 mb 0.00 in0.0 mm 0.00 in0.0 mm 0.00 in0.0 mm
04:04 AM 28.7°F-1.8°C 27.7°F-2.4°C 96% 23.0 mph NW37.0 kmh NW -- 30.09 in1019.0 mb 0.00 in0.0 mm 0.00 in0.0 mm 0.00 in0.0 mm
04:05 AM 28.7°F-1.8°C 27.7°F-2.4°C 96% 19.0 mph NW30.6 kmh NW -- 30.09 in1019.0 mb 0.00 in0.0 mm 0.00 in0.0 mm 0.00 in0.0 mm
04:06 AM 28.7°F-1.8°C 27.7°F-2.4°C 96% 16.0 mph WNW25.7 kmh WNW -- 30.09 in1019.0 mb 0.00 in0.0 mm 0.00 in0.0 mm 0.00 in0.0 mm
04:07 AM 28.7°F-1.8°C 28.3°F-2.1°C 98% 22.0 mph NW35.4 kmh NW -- 30.09 in1019.0 mb 0.00 in0.0 mm 0.00 in0.0 mm 0.00 in0.0 mm
04:08 AM 28.7°F-1.8°C 28.3°F-2.1°C 98% 13.0 mph WNW20.9 kmh WNW -- 30.09 in1019.0 mb 0.00 in0.0 mm 0.00 in0.0 mm 0.00 in0.0 mm
04:09 AM 28.7°F-1.8°C 28.3°F-2.1°C 98% 19.0 mph NW30.6 kmh NW -- 30.09 in1019.0 mb 0.00 in0.0 mm 0.00 in0.0 mm 0.00 in0.0 mm
04:10 AM 28.7°F-1.8°C 28.3°F-2.1°C 98% 12.0 mph NW19.3 kmh NW -- 30.09 in1019.0 mb 0.00 in0.0 mm 0.00 in0.0 mm 0.00 in0.0 mm
04:11 AM 28.7°F-1.8°C 28.3°F-2.1°C 98% 16.0 mph NW25.7 kmh NW -- 30.09 in1019.0 mb 0.00 in0.0 mm 0.00 in0.0 mm 0.00 in0.0 mm
04:12 AM 28.7°F-1.8°C 28.3°F-2.1°C 98% 20.0 mph NNW32.2 kmh NNW -- 30.09 in1019.0 mb 0.00 in0.0 mm 0.00 in0.0 mm 0.00 in0.0 mm
04:13 AM 28.7°F-1.8°C 28.3°F-2.1°C 98% 18.0 mph WNW29.0 kmh WNW -- 30.09 in1019.0 mb 0.00 in0.0 mm 0.00 in0.0 mm 0.00 in0.0 mm
04:14 AM 28.7°F-1.8°C 28.3°F-2.1°C 98% 13.0 mph NW20.9 kmh NW -- 30.09 in1019.0 mb 0.00 in0.0 mm 0.00 in0.0 mm 0.00 in0.0 mm
04:16 AM 28.7°F-1.8°C 27.7°F-2.4°C 96% 19.0 mph WNW30.6 kmh WNW -- 30.09 in1019.0 mb 0.00 in0.0 mm 0.00 in0.0 mm 0.00 in0.0 mm
04:17 AM 28.7°F-1.8°C 27.7°F-2.4°C 96% 18.0 mph NW29.0 kmh NW -- 30.09 in1019.0 mb 0.00 in0.0 mm 0.00 in0.0 mm 0.00 in0.0 mm
04:18 AM 28.7°F-1.8°C 27.7°F-2.4°C 96% 13.0 mph NNW20.9 kmh NNW -- 30.09 in1019.0 mb 0.00 in0.0 mm 0.00 in0.0 mm 0.00 in0.0 mm
04:19 AM 28.7°F-1.8°C 27.7°F-2.4°C 96% 12.0 mph NW19.3 kmh NW -- 30.09 in1019.0 mb 0.00 in0.0 mm 0.00 in0.0 mm 0.00 in0.0 mm
04:20 AM 28.7°F-1.8°C 27.7°F-2.4°C 96% 18.0 mph 29.0 kmh -- 30.09 in1019.0 mb 0.00 in0.0 mm 0.00 in0.0 mm 0.00 in0.0 mm
04:21 AM 28.7°F-1.8°C 27.7°F-2.4°C 96% 13.0 mph NNW20.9 kmh NNW -- 30.09 in1019.0 mb 0.00 in0.0 mm 0.00 in0.0 mm 0.00 in0.0 mm
04:22 AM 28.7°F-1.8°C 27.7°F-2.4°C 96% 13.0 mph NW20.9 kmh NW -- 30.09 in1019.0 mb 0.00 in0.0 mm 0.00 in0.0 mm 0.00 in0.0 mm
04:23 AM 28.7°F-1.8°C 27.5°F-2.5°C 95% 19.0 mph NNW30.6 kmh NNW -- 30.09 in1019.0 mb 0.00 in0.0 mm 0.00 in0.0 mm 0.00 in0.0 mm
04:24 AM 28.7°F-1.8°C 27.5°F-2.5°C 95% 15.0 mph NW24.1 kmh NW -- 30.08 in1018.6 mb 0.00 in0.0 mm 0.00 in0.0 mm 0.00 in0.0 mm
04:25 AM 28.7°F-1.8°C 27.5°F-2.5°C 95% 19.0 mph W30.6 kmh W -- 30.09 in1019.0 mb 0.00 in0.0 mm 0.00 in0.0 mm 0.00 in0.0 mm
04:26 AM 28.7°F-1.8°C 27.5°F-2.5°C 95% 16.0 mph WNW25.7 kmh WNW -- 30.09 in1019.0 mb 0.00 in0.0 mm 0.00 in0.0 mm 0.00 in0.0 mm
04:27 AM 28.7°F-1.8°C 27.5°F-2.5°C 95% 10.0 mph WNW16.1 kmh WNW -- 30.09 in1019.0 mb 0.00 in0.0 mm 0.00 in0.0 mm 0.00 in0.0 mm
04:28 AM 28.7°F-1.8°C 27.5°F-2.5°C 95% 21.0 mph NNW33.8 kmh NNW -- 30.09 in1019.0 mb 0.00 in0.0 mm 0.00 in0.0 mm 0.00 in0.0 mm
04:29 AM 28.7°F-1.8°C 27.5°F-2.5°C 95% 21.0 mph W33.8 kmh W -- 30.09 in1019.0 mb 0.00 in0.0 mm 0.00 in0.0 mm 0.00 in0.0 mm
04:30 AM 28.7°F-1.8°C 27.5°F-2.5°C 95% 10.0 mph WNW16.1 kmh WNW -- 30.09 in1019.0 mb 0.00 in0.0 mm 0.00 in0.0 mm 0.00 in0.0 mm
04:31 AM 28.7°F-1.8°C 27.5°F-2.5°C 95% 12.0 mph WNW19.3 kmh WNW -- 30.09 in1019.0 mb 0.00 in0.0 mm 0.00 in0.0 mm 0.00 in0.0 mm
04:32 AM 28.7°F-1.8°C 27.5°F-2.5°C 95% 17.0 mph NW27.4 kmh NW -- 30.08 in1018.6 mb 0.00 in0.0 mm 0.00 in0.0 mm 0.00 in0.0 mm
04:33 AM 28.7°F-1.8°C 27.5°F-2.5°C 95% 15.0 mph WNW24.1 kmh WNW -- 30.08 in1018.6 mb 0.00 in0.0 mm 0.00 in0.0 mm 0.00 in0.0 mm
04:34 AM 28.7°F-1.8°C 27.5°F-2.5°C 95% 15.0 mph NNW24.1 kmh NNW -- 30.08 in1018.6 mb 0.00 in0.0 mm 0.00 in0.0 mm 0.00 in0.0 mm
04:35 AM 28.7°F-1.8°C 27.5°F-2.5°C 95% 12.0 mph WNW19.3 kmh WNW -- 30.09 in1019.0 mb 0.00 in0.0 mm 0.00 in0.0 mm 0.00 in0.0 mm
04:36 AM 28.7°F-1.8°C 27.5°F-2.5°C 95% 17.0 mph NNW27.4 kmh NNW -- 30.09 in1019.0 mb 0.00 in0.0 mm 0.00 in0.0 mm 0.00 in0.0 mm
04:37 AM 28.7°F-1.8°C 27.5°F-2.5°C 95% 13.0 mph W20.9 kmh W -- 30.09 in1019.0 mb 0.00 in0.0 mm 0.00 in0.0 mm 0.00 in0.0 mm
04:38 AM 28.6°F-1.9°C 27.3°F-2.6°C 95% 11.0 mph NW17.7 kmh NW -- 30.09 in1019.0 mb 0.00 in0.0 mm 0.00 in0.0 mm 0.00 in0.0 mm
04:39 AM 28.6°F-1.9°C 27.3°F-2.6°C 95% 18.0 mph NNW29.0 kmh NNW -- 30.09 in1019.0 mb 0.00 in0.0 mm 0.00 in0.0 mm 0.00 in0.0 mm
04:40 AM 28.6°F-1.9°C 27.3°F-2.6°C 95% 20.0 mph NNW32.2 kmh NNW -- 30.09 in1019.0 mb 0.00 in0.0 mm 0.00 in0.0 mm 0.00 in0.0 mm
04:41 AM 28.6°F-1.9°C 27.3°F-2.6°C 95% 21.0 mph NNW33.8 kmh NNW -- 30.08 in1018.6 mb 0.00 in0.0 mm 0.00 in0.0 mm 0.00 in0.0 mm
04:42 AM 28.6°F-1.9°C 27.3°F-2.6°C 95% 19.0 mph W30.6 kmh W -- 30.09 in1019.0 mb 0.00 in0.0 mm 0.00 in0.0 mm 0.00 in0.0 mm
04:43 AM 28.6°F-1.9°C 27.3°F-2.6°C 95% 16.0 mph WNW25.7 kmh WNW -- 30.09 in1019.0 mb 0.00 in0.0 mm 0.00 in0.0 mm 0.00 in0.0 mm
04:44 AM 28.6°F-1.9°C 26.8°F-2.9°C 93% 17.0 mph NNW27.4 kmh NNW -- 30.09 in1019.0 mb 0.00 in0.0 mm 0.00 in0.0 mm 0.00 in0.0 mm
04:45 AM 28.6°F-1.9°C 26.8°F-2.9°C 93% 20.0 mph NNW32.2 kmh NNW -- 30.09 in1019.0 mb 0.00 in0.0 mm 0.00 in0.0 mm 0.00 in0.0 mm
04:46 AM 28.6°F-1.9°C 26.8°F-2.9°C 93% 13.0 mph NNW20.9 kmh NNW -- 30.09 in1019.0 mb 0.00 in0.0 mm 0.00 in0.0 mm 0.00 in0.0 mm
04:47 AM 28.6°F-1.9°C 26.8°F-2.9°C 93% 20.0 mph W32.2 kmh W -- 30.08 in1018.6 mb 0.00 in0.0 mm 0.00 in0.0 mm 0.00 in0.0 mm
04:48 AM 28.6°F-1.9°C 26.8°F-2.9°C 93% 17.0 mph NNW27.4 kmh NNW -- 30.09 in1019.0 mb 0.00 in0.0 mm 0.00 in0.0 mm 0.00 in0.0 mm
04:49 AM 28.6°F-1.9°C 26.8°F-2.9°C 93% 9.0 mph WNW14.5 kmh WNW -- 30.09 in1019.0 mb 0.00 in0.0 mm 0.00 in0.0 mm 0.00 in0.0 mm
04:50 AM 28.6°F-1.9°C 26.8°F-2.9°C 93% 12.0 mph W19.3 kmh W -- 30.09 in1019.0 mb 0.00 in0.0 mm 0.00 in0.0 mm 0.00 in0.0 mm
04:51 AM 28.6°F-1.9°C 26.8°F-2.9°C 93% 14.0 mph NW22.5 kmh NW -- 30.09 in1019.0 mb 0.00 in0.0 mm 0.00 in0.0 mm 0.00 in0.0 mm
04:52 AM 28.3°F-2.1°C 26.4°F-3.1°C 93% 18.0 mph NW29.0 kmh NW -- 30.09 in1019.0 mb 0.00 in0.0 mm 0.00 in0.0 mm 0.00 in0.0 mm
04:53 AM 28.3°F-2.1°C 25.9°F-3.4°C 91% 15.0 mph WNW24.1 kmh WNW -- 30.09 in1019.0 mb 0.00 in0.0 mm 0.00 in0.0 mm 0.00 in0.0 mm
04:54 AM 28.6°F-1.9°C 26.3°F-3.2°C 91% 15.0 mph WNW24.1 kmh WNW -- 30.09 in1019.0 mb 0.00 in0.0 mm 0.00 in0.0 mm 0.00 in0.0 mm
04:55 AM 28.6°F-1.9°C 26.3°F-3.2°C 91% 7.0 mph W11.3 kmh W -- 30.09 in1019.0 mb 0.00 in0.0 mm 0.00 in0.0 mm 0.00 in0.0 mm
04:56 AM 28.6°F-1.9°C 26.3°F-3.2°C 91% 12.0 mph WNW19.3 kmh WNW -- 30.09 in1019.0 mb 0.00 in0.0 mm 0.00 in0.0 mm 0.00 in0.0 mm
04:57 AM 28.6°F-1.9°C 26.3°F-3.2°C 91% 9.0 mph NW14.5 kmh NW -- 30.10 in1019.3 mb 0.00 in0.0 mm 0.00 in0.0 mm 0.00 in0.0 mm
04:58 AM 28.6°F-1.9°C 26.3°F-3.2°C 91% 13.0 mph NW20.9 kmh NW -- 30.10 in1019.3 mb 0.00 in0.0 mm 0.00 in0.0 mm 0.00 in0.0 mm
04:59 AM 28.6°F-1.9°C 26.3°F-3.2°C 91% 10.0 mph NW16.1 kmh NW -- 30.10 in1019.3 mb 0.00 in0.0 mm 0.00 in0.0 mm 0.00 in0.0 mm
05:00 AM 28.6°F-1.9°C 26.3°F-3.2°C 91% 8.0 mph WNW12.9 kmh WNW -- 30.10 in1019.3 mb 0.00 in0.0 mm 0.00 in0.0 mm 0.00 in0.0 mm
05:01 AM 28.6°F-1.9°C 26.3°F-3.2°C 91% 11.0 mph NW17.7 kmh NW -- 30.10 in1019.3 mb 0.00 in0.0 mm 0.00 in0.0 mm 0.00 in0.0 mm
05:02 AM 28.6°F-1.9°C 26.3°F-3.2°C 91% 12.0 mph NW19.3 kmh NW -- 30.10 in1019.3 mb 0.00 in0.0 mm 0.00 in0.0 mm 0.00 in0.0 mm
05:03 AM 28.6°F-1.9°C 26.3°F-3.2°C 91% 8.0 mph W12.9 kmh W -- 30.10 in1019.3 mb 0.00 in0.0 mm 0.00 in0.0 mm 0.00 in0.0 mm
05:04 AM 28.6°F-1.9°C 26.3°F-3.2°C 91% 11.0 mph WNW17.7 kmh WNW -- 30.10 in1019.3 mb 0.00 in0.0 mm 0.00 in0.0 mm 0.00 in0.0 mm
05:05 AM 28.6°F-1.9°C 26.3°F-3.2°C 91% 8.0 mph WNW12.9 kmh WNW -- 30.10 in1019.3 mb 0.00 in0.0 mm 0.00 in0.0 mm 0.00 in0.0 mm
05:06 AM 28.6°F-1.9°C 26.3°F-3.2°C 91% 10.0 mph WNW16.1 kmh WNW -- 30.10 in1019.3 mb 0.00 in0.0 mm 0.00 in0.0 mm 0.00 in0.0 mm
05:07 AM 28.7°F-1.8°C 26.4°F-3.1°C 91% 10.0 mph NNW16.1 kmh NNW -- 30.10 in1019.3 mb 0.00 in0.0 mm 0.00 in0.0 mm 0.00 in0.0 mm
05:08 AM 28.7°F-1.8°C 26.4°F-3.1°C 91% 8.0 mph NW12.9 kmh NW -- 30.10 in1019.3 mb 0.00 in0.0 mm 0.00 in0.0 mm 0.00 in0.0 mm
05:10 AM 28.7°F-1.8°C 26.4°F-3.1°C 91% 10.0 mph WNW16.1 kmh WNW -- 30.10 in1019.3 mb 0.00 in0.0 mm 0.00 in0.0 mm 0.00 in0.0 mm
05:11 AM 28.7°F-1.8°C 26.4°F-3.1°C 91% 12.0 mph WNW19.3 kmh WNW -- 30.10 in1019.3 mb 0.00 in0.0 mm 0.00 in0.0 mm 0.00 in0.0 mm
05:12 AM 28.7°F-1.8°C 26.4°F-3.1°C 91% 8.0 mph W12.9 kmh W -- 30.10 in1019.3 mb 0.00 in0.0 mm 0.00 in0.0 mm 0.00 in0.0 mm
05:13 AM 28.7°F-1.8°C 26.4°F-3.1°C 91% 10.0 mph WNW16.1 kmh WNW -- 30.10 in1019.3 mb 0.00 in0.0 mm 0.00 in0.0 mm 0.00 in0.0 mm
05:14 AM 28.7°F-1.8°C 26.4°F-3.1°C 91% 11.0 mph NW17.7 kmh NW -- 30.10 in1019.3 mb 0.00 in0.0 mm 0.00 in0.0 mm 0.00 in0.0 mm
05:15 AM 28.7°F-1.8°C 26.4°F-3.1°C 91% 15.0 mph WNW24.1 kmh WNW -- 30.10 in1019.3 mb 0.00 in0.0 mm 0.00 in0.0 mm 0.00 in0.0 mm
05:16 AM 28.7°F-1.8°C 26.4°F-3.1°C 91% 10.0 mph WNW16.1 kmh WNW -- 30.10 in1019.3 mb 0.00 in0.0 mm 0.00 in0.0 mm 0.00 in0.0 mm
05:17 AM 28.7°F-1.8°C 26.4°F-3.1°C 91% 10.0 mph NNW16.1 kmh NNW -- 30.10 in1019.3 mb 0.00 in0.0 mm 0.00 in0.0 mm 0.00 in0.0 mm
05:18 AM 28.6°F-1.9°C 26.8°F-2.9°C 93% 11.0 mph NW17.7 kmh NW -- 30.10 in1019.3 mb 0.00 in0.0 mm 0.00 in0.0 mm 0.00 in0.0 mm
05:19 AM 28.6°F-1.9°C 26.8°F-2.9°C 93% 11.0 mph WNW17.7 kmh WNW -- 30.10 in1019.3 mb 0.00 in0.0 mm 0.00 in0.0 mm 0.00 in0.0 mm
05:20 AM 28.6°F-1.9°C 26.8°F-2.9°C 93% 7.0 mph NNW11.3 kmh NNW -- 30.10 in1019.3 mb 0.00 in0.0 mm 0.00 in0.0 mm 0.00 in0.0 mm
05:21 AM 28.3°F-2.1°C 26.4°F-3.1°C 93% 8.0 mph NW12.9 kmh NW -- 30.10 in1019.3 mb 0.00 in0.0 mm 0.00 in0.0 mm 0.00 in0.0 mm
05:22 AM 28.3°F-2.1°C 26.4°F-3.1°C 93% 9.0 mph WNW14.5 kmh WNW -- 30.10 in1019.3 mb 0.00 in0.0 mm 0.00 in0.0 mm 0.00 in0.0 mm
05:23 AM 28.3°F-2.1°C 26.4°F-3.1°C 93% 10.0 mph WNW16.1 kmh WNW -- 30.10 in1019.3 mb 0.00 in0.0 mm 0.00 in0.0 mm 0.00 in0.0 mm
05:24 AM 28.2°F-2.1°C 26.4°F-3.1°C 93% 12.0 mph WNW19.3 kmh WNW -- 30.10 in1019.3 mb 0.00 in0.0 mm 0.00 in0.0 mm 0.00 in0.0 mm
05:25 AM 28.2°F-2.1°C 26.4°F-3.1°C 93% 9.0 mph WNW14.5 kmh WNW -- 30.10 in1019.3 mb 0.00 in0.0 mm 0.00 in0.0 mm 0.00 in0.0 mm
05:26 AM 28.2°F-2.1°C 26.4°F-3.1°C 93% 8.0 mph WNW12.9 kmh WNW -- 30.10 in1019.3 mb 0.00 in0.0 mm 0.00 in0.0 mm 0.00 in0.0 mm
05:27 AM 28.2°F-2.1°C 26.4°F-3.1°C 93% 12.0 mph WNW19.3 kmh WNW -- 30.10 in1019.3 mb 0.00 in0.0 mm 0.00 in0.0 mm 0.00 in0.0 mm
05:28 AM 28.2°F-2.1°C 26.4°F-3.1°C 93% 12.0 mph NW19.3 kmh NW -- 30.10 in1019.3 mb 0.00 in0.0 mm 0.00 in0.0 mm 0.00 in0.0 mm
05:29 AM 28.2°F-2.1°C 26.4°F-3.1°C 93% 13.0 mph WNW20.9 kmh WNW -- 30.10 in1019.3 mb 0.00 in0.0 mm 0.00 in0.0 mm 0.00 in0.0 mm
05:30 AM 28.2°F-2.1°C 26.4°F-3.1°C 93% 10.0 mph WNW16.1 kmh WNW -- 30.10 in1019.3 mb 0.00 in0.0 mm 0.00 in0.0 mm 0.00 in0.0 mm
05:31 AM 28.2°F-2.1°C 26.4°F-3.1°C 93% 11.0 mph NW17.7 kmh NW -- 30.10 in1019.3 mb 0.00 in0.0 mm 0.00 in0.0 mm 0.00 in0.0 mm
05:32 AM 28.2°F-2.1°C 26.4°F-3.1°C 93% 9.0 mph W14.5 kmh W -- 30.10 in1019.3 mb 0.00 in0.0 mm 0.00 in0.0 mm 0.00 in0.0 mm
05:33 AM 28.2°F-2.1°C 26.4°F-3.1°C 93% 10.0 mph WNW16.1 kmh WNW -- 30.10 in1019.3 mb 0.00 in0.0 mm 0.00 in0.0 mm 0.00 in0.0 mm
05:34 AM 27.9°F-2.3°C 26.6°F-3.0°C 95% 11.0 mph WNW17.7 kmh WNW -- 30.10 in1019.3 mb 0.00 in0.0 mm 0.00 in0.0 mm 0.00 in0.0 mm
05:35 AM 27.9°F-2.3°C 26.6°F-3.0°C 95% 10.0 mph NNW16.1 kmh NNW -- 30.10 in1019.3 mb 0.00 in0.0 mm 0.00 in0.0 mm 0.00 in0.0 mm
05:36 AM 27.9°F-2.3°C 26.6°F-3.0°C 95% 11.0 mph NW17.7 kmh NW -- 30.10 in1019.3 mb 0.00 in0.0 mm 0.00 in0.0 mm 0.00 in0.0 mm
05:37 AM 27.9°F-2.3°C 26.6°F-3.0°C 95% 13.0 mph NW20.9 kmh NW -- 30.10 in1019.3 mb 0.00 in0.0 mm 0.00 in0.0 mm 0.00 in0.0 mm
05:38 AM 27.9°F-2.3°C 26.6°F-3.0°C 95% 16.0 mph W25.7 kmh W -- 30.10 in1019.3 mb 0.00 in0.0 mm 0.00 in0.0 mm 0.00 in0.0 mm
05:39 AM 27.9°F-2.3°C 26.6°F-3.0°C 95% 16.0 mph NW25.7 kmh NW -- 30.10 in1019.3 mb 0.00 in0.0 mm 0.00 in0.0 mm 0.00 in0.0 mm
05:42 AM 27.9°F-2.3°C 26.6°F-3.0°C 95% 8.0 mph NW12.9 kmh NW -- 30.10 in1019.3 mb 0.00 in0.0 mm 0.00 in0.0 mm 0.00 in0.0 mm
05:43 AM 27.9°F-2.3°C 26.6°F-3.0°C 95% 12.0 mph WNW19.3 kmh WNW -- 30.10 in1019.3 mb 0.00 in0.0 mm 0.00 in0.0 mm 0.00 in0.0 mm
05:44 AM 27.9°F-2.3°C 26.6°F-3.0°C 95% 17.0 mph W27.4 kmh W -- 30.10 in1019.3 mb 0.00 in0.0 mm 0.00 in0.0 mm 0.00 in0.0 mm
05:45 AM 27.9°F-2.3°C 26.6°F-3.0°C 95% 17.0 mph WNW27.4 kmh WNW -- 30.10 in1019.3 mb 0.00 in0.0 mm 0.00 in0.0 mm 0.00 in0.0 mm
05:46 AM 27.9°F-2.3°C 26.6°F-3.0°C 95% 12.0 mph NNW19.3 kmh NNW -- 30.11 in1019.6 mb 0.00 in0.0 mm 0.00 in0.0 mm 0.00 in0.0 mm
05:47 AM 27.9°F-2.3°C 26.6°F-3.0°C 95% 13.0 mph WNW20.9 kmh WNW -- 30.10 in1019.3 mb 0.00 in0.0 mm 0.00 in0.0 mm 0.00 in0.0 mm
05:48 AM 27.9°F-2.3°C 26.6°F-3.0°C 95% 17.0 mph NW27.4 kmh NW -- 30.11 in1019.6 mb 0.00 in0.0 mm 0.00 in0.0 mm 0.00 in0.0 mm
05:49 AM 27.9°F-2.3°C 26.6°F-3.0°C 95% 22.0 mph NW35.4 kmh NW -- 30.10 in1019.3 mb 0.00 in0.0 mm 0.00 in0.0 mm 0.00 in0.0 mm
05:50 AM 27.9°F-2.3°C 26.6°F-3.0°C 95% 15.0 mph NW24.1 kmh NW -- 30.11 in1019.6 mb 0.00 in0.0 mm 0.00 in0.0 mm 0.00 in0.0 mm
05:51 AM 27.9°F-2.3°C 26.6°F-3.0°C 95% 15.0 mph NNW24.1 kmh NNW -- 30.10 in1019.3 mb 0.00 in0.0 mm 0.00 in0.0 mm 0.00 in0.0 mm
05:52 AM 27.9°F-2.3°C 26.6°F-3.0°C 95% 17.0 mph NW27.4 kmh NW -- 30.10 in1019.3 mb 0.00 in0.0 mm 0.00 in0.0 mm 0.00 in0.0 mm
05:54 AM 27.9°F-2.3°C 26.6°F-3.0°C 95% 19.0 mph WNW30.6 kmh WNW -- 30.10 in1019.3 mb 0.00 in0.0 mm 0.00 in0.0 mm 0.00 in0.0 mm
05:55 AM 27.9°F-2.3°C 26.6°F-3.0°C 95% 15.0 mph NW24.1 kmh NW -- 30.10 in1019.3 mb 0.00 in0.0 mm 0.00 in0.0 mm 0.00 in0.0 mm
05:56 AM 27.9°F-2.3°C 26.6°F-3.0°C 95% 18.0 mph NW29.0 kmh NW -- 30.10 in1019.3 mb 0.00 in0.0 mm 0.00 in0.0 mm 0.00 in0.0 mm
05:57 AM 27.9°F-2.3°C 26.6°F-3.0°C 95% 19.0 mph NW30.6 kmh NW -- 30.10 in1019.3 mb 0.00 in0.0 mm 0.00 in0.0 mm 0.00 in0.0 mm
05:58 AM 27.9°F-2.3°C 26.6°F-3.0°C 95% 15.0 mph W24.1 kmh W -- 30.11 in1019.6 mb 0.00 in0.0 mm 0.00 in0.0 mm 0.00 in0.0 mm
05:59 AM 27.9°F-2.3°C 26.1°F-3.3°C 93% 16.0 mph NNW25.7 kmh NNW -- 30.10 in1019.3 mb 0.00 in0.0 mm 0.00 in0.0 mm 0.00 in0.0 mm
06:00 AM 27.9°F-2.3°C 26.1°F-3.3°C 93% 16.0 mph WNW25.7 kmh WNW -- 30.10 in1019.3 mb 0.00 in0.0 mm 0.00 in0.0 mm 0.00 in0.0 mm
06:01 AM 27.9°F-2.3°C 26.1°F-3.3°C 93% 15.0 mph NNW24.1 kmh NNW -- 30.10 in1019.3 mb 0.00 in0.0 mm 0.00 in0.0 mm 0.00 in0.0 mm
06:02 AM 27.9°F-2.3°C 26.1°F-3.3°C 93% 17.0 mph WNW27.4 kmh WNW -- 30.10 in1019.3 mb 0.00 in0.0 mm 0.00 in0.0 mm 0.00 in0.0 mm
06:03 AM 27.9°F-2.3°C 26.1°F-3.3°C 93% 21.0 mph NW33.8 kmh NW -- 30.10 in1019.3 mb 0.00 in0.0 mm 0.00 in0.0 mm 0.00 in0.0 mm
06:04 AM 27.9°F-2.3°C 26.1°F-3.3°C 93% 21.0 mph WNW33.8 kmh WNW -- 30.10 in1019.3 mb 0.00 in0.0 mm 0.00 in0.0 mm 0.00 in0.0 mm
06:05 AM 27.9°F-2.3°C 25.5°F-3.6°C 91% 11.0 mph NNW17.7 kmh NNW -- 30.10 in1019.3 mb 0.00 in0.0 mm 0.00 in0.0 mm 0.00 in0.0 mm
06:06 AM 27.9°F-2.3°C 25.5°F-3.6°C 91% 16.0 mph NW25.7 kmh NW -- 30.10 in1019.3 mb 0.00 in0.0 mm 0.00 in0.0 mm 0.00 in0.0 mm
06:07 AM 27.8°F-2.3°C 25.5°F-3.6°C 91% 18.0 mph NW29.0 kmh NW -- 30.10 in1019.3 mb 0.00 in0.0 mm 0.00 in0.0 mm 0.00 in0.0 mm
06:08 AM 27.8°F-2.3°C 25.5°F-3.6°C 91% 17.0 mph NNW27.4 kmh NNW -- 30.10 in1019.3 mb 0.00 in0.0 mm 0.00 in0.0 mm 0.00 in0.0 mm
06:09 AM 27.8°F-2.3°C 25.5°F-3.6°C 91% 22.0 mph WNW35.4 kmh WNW -- 30.10 in1019.3 mb 0.00 in0.0 mm 0.00 in0.0 mm 0.00 in0.0 mm
06:10 AM 27.8°F-2.3°C 25.5°F-3.6°C 91% 18.0 mph NNW29.0 kmh NNW -- 30.10 in1019.3 mb 0.00 in0.0 mm 0.00 in0.0 mm 0.00 in0.0 mm
06:11 AM 27.8°F-2.3°C 25.5°F-3.6°C 91% 18.0 mph NW29.0 kmh NW -- 30.10 in1019.3 mb 0.00 in0.0 mm 0.00 in0.0 mm 0.00 in0.0 mm
06:12 AM 27.8°F-2.3°C 25.5°F-3.6°C 91% 15.0 mph NNW24.1 kmh NNW -- 30.10 in1019.3 mb 0.00 in0.0 mm 0.00 in0.0 mm 0.00 in0.0 mm
06:13 AM 27.8°F-2.3°C 25.5°F-3.6°C 91% 22.0 mph NW35.4 kmh NW -- 30.11 in1019.6 mb 0.00 in0.0 mm 0.00 in0.0 mm 0.00 in0.0 mm
06:14 AM 27.8°F-2.3°C 25.5°F-3.6°C 91% 21.0 mph NNW33.8 kmh NNW -- 30.11 in1019.6 mb 0.00 in0.0 mm 0.00 in0.0 mm 0.00 in0.0 mm
06:15 AM 27.6°F-2.4°C 25.4°F-3.7°C 91% 15.0 mph NW24.1 kmh NW -- 30.10 in1019.3 mb 0.00 in0.0 mm 0.00 in0.0 mm 0.00 in0.0 mm
06:16 AM 27.6°F-2.4°C 25.4°F-3.7°C 91% 19.0 mph NW30.6 kmh NW -- 30.10 in1019.3 mb 0.00 in0.0 mm 0.00 in0.0 mm 0.00 in0.0 mm
06:18 AM 27.6°F-2.4°C 25.4°F-3.7°C 91% 15.0 mph WNW24.1 kmh WNW -- 30.10 in1019.3 mb 0.00 in0.0 mm 0.00 in0.0 mm 0.00 in0.0 mm
06:19 AM 27.6°F-2.4°C 25.4°F-3.7°C 91% 15.0 mph NNW24.1 kmh NNW -- 30.10 in1019.3 mb 0.00 in0.0 mm 0.00 in0.0 mm 0.00 in0.0 mm
06:20 AM 27.6°F-2.4°C 25.4°F-3.7°C 91% 21.0 mph WNW33.8 kmh WNW -- 30.10 in1019.3 mb 0.00 in0.0 mm 0.00 in0.0 mm 0.00 in0.0 mm
06:21 AM 27.6°F-2.4°C 25.4°F-3.7°C 91% 16.0 mph NNW25.7 kmh NNW -- 30.11 in1019.6 mb 0.00 in0.0 mm 0.00 in0.0 mm 0.00 in0.0 mm
06:22 AM 27.6°F-2.4°C 25.4°F-3.7°C 91% 17.0 mph WNW27.4 kmh WNW -- 30.11 in1019.6 mb 0.00 in0.0 mm 0.00 in0.0 mm 0.00 in0.0 mm
06:23 AM 27.6°F-2.4°C 25.4°F-3.7°C 91% 16.0 mph W25.7 kmh W -- 30.10 in1019.3 mb 0.00 in0.0 mm 0.00 in0.0 mm 0.00 in0.0 mm
06:24 AM 27.6°F-2.4°C 25.4°F-3.7°C 91% 20.0 mph WNW32.2 kmh WNW -- 30.10 in1019.3 mb 0.00 in0.0 mm 0.00 in0.0 mm 0.00 in0.0 mm
06:25 AM 27.5°F-2.5°C 25.2°F-3.8°C 91% 15.0 mph WNW24.1 kmh WNW -- 30.11 in1019.6 mb 0.00 in0.0 mm 0.00 in0.0 mm 0.00 in0.0 mm
06:26 AM 27.5°F-2.5°C 25.2°F-3.8°C 91% 19.0 mph W30.6 kmh W -- 30.10 in1019.3 mb 0.00 in0.0 mm 0.00 in0.0 mm 0.00 in0.0 mm
06:27 AM 27.5°F-2.5°C 25.2°F-3.8°C 91% 13.0 mph NNW20.9 kmh NNW -- 30.10 in1019.3 mb 0.00 in0.0 mm 0.00 in0.0 mm 0.00 in0.0 mm
06:28 AM 27.5°F-2.5°C 25.2°F-3.8°C 91% 13.0 mph WNW20.9 kmh WNW -- 30.10 in1019.3 mb 0.00 in0.0 mm 0.00 in0.0 mm 0.00 in0.0 mm
06:29 AM 27.5°F-2.5°C 25.2°F-3.8°C 91% 16.0 mph NW25.7 kmh NW -- 30.10 in1019.3 mb 0.00 in0.0 mm 0.00 in0.0 mm 0.00 in0.0 mm
06:30 AM 27.3°F-2.6°C 25.0°F-3.9°C 91% 19.0 mph NW30.6 kmh NW -- 30.10 in1019.3 mb 0.00 in0.0 mm 0.00 in0.0 mm 0.00 in0.0 mm
06:31 AM 27.3°F-2.6°C 25.0°F-3.9°C 91% 16.0 mph NW25.7 kmh NW -- 30.11 in1019.6 mb 0.00 in0.0 mm 0.00 in0.0 mm 0.00 in0.0 mm
06:32 AM 27.3°F-2.6°C 25.0°F-3.9°C 91% 13.0 mph NNW20.9 kmh NNW -- 30.11 in1019.6 mb 0.00 in0.0 mm 0.00 in0.0 mm 0.00 in0.0 mm
06:33 AM 27.3°F-2.6°C 25.0°F-3.9°C 91% 16.0 mph WNW25.7 kmh WNW -- 30.10 in1019.3 mb 0.00 in0.0 mm 0.00 in0.0 mm 0.00 in0.0 mm
06:34 AM 27.3°F-2.6°C 25.0°F-3.9°C 91% 18.0 mph WNW29.0 kmh WNW -- 30.10 in1019.3 mb 0.00 in0.0 mm 0.00 in0.0 mm 0.00 in0.0 mm
06:35 AM 27.3°F-2.6°C 25.0°F-3.9°C 91% 16.0 mph WNW25.7 kmh WNW -- 30.11 in1019.6 mb 0.00 in0.0 mm 0.00 in0.0 mm 0.00 in0.0 mm
06:36 AM 27.3°F-2.6°C 25.0°F-3.9°C 91% 14.0 mph NW22.5 kmh NW -- 30.10 in1019.3 mb 0.00 in0.0 mm 0.00 in0.0 mm 0.00 in0.0 mm
06:37 AM 27.3°F-2.6°C 25.0°F-3.9°C 91% 13.0 mph NW20.9 kmh NW -- 30.10 in1019.3 mb 0.00 in0.0 mm 0.00 in0.0 mm 0.00 in0.0 mm
06:38 AM 27.3°F-2.6°C 25.0°F-3.9°C 91% 15.0 mph WNW24.1 kmh WNW -- 30.10 in1019.3 mb 0.00 in0.0 mm 0.00 in0.0 mm 0.00 in0.0 mm
06:39 AM 27.3°F-2.6°C 25.0°F-3.9°C 91% 12.0 mph W19.3 kmh W -- 30.10 in1019.3 mb 0.00 in0.0 mm 0.00 in0.0 mm 0.00 in0.0 mm
06:40 AM 27.3°F-2.6°C 25.0°F-3.9°C 91% 13.0 mph NNW20.9 kmh NNW -- 30.10 in1019.3 mb 0.00 in0.0 mm 0.00 in0.0 mm 0.00 in0.0 mm
06:41 AM 27.3°F-2.6°C 25.0°F-3.9°C 91% 16.0 mph WNW25.7 kmh WNW -- 30.10 in1019.3 mb 0.00 in0.0 mm 0.00 in0.0 mm 0.00 in0.0 mm
06:42 AM 27.3°F-2.6°C 25.0°F-3.9°C 91% 15.0 mph NNW24.1 kmh NNW -- 30.10 in1019.3 mb 0.00 in0.0 mm 0.00 in0.0 mm 0.00 in0.0 mm
06:43 AM 27.3°F-2.6°C 25.0°F-3.9°C 91% 20.0 mph W32.2 kmh W -- 30.10 in1019.3 mb 0.00 in0.0 mm 0.00 in0.0 mm 0.00 in0.0 mm
06:44 AM 27.3°F-2.6°C 25.0°F-3.9°C 91% 16.0 mph W25.7 kmh W -- 30.10 in1019.3 mb 0.00 in0.0 mm 0.00 in0.0 mm 0.00 in0.0 mm
06:45 AM 27.3°F-2.6°C 25.0°F-3.9°C 91% 17.0 mph NNW27.4 kmh NNW -- 30.10 in1019.3 mb 0.00 in0.0 mm 0.00 in0.0 mm 0.00 in0.0 mm
06:46 AM 27.3°F-2.6°C 25.0°F-3.9°C 91% 19.0 mph NNW30.6 kmh NNW -- 30.11 in1019.6 mb 0.00 in0.0 mm 0.00 in0.0 mm 0.00 in0.0 mm
06:47 AM 27.3°F-2.6°C 25.0°F-3.9°C 91% 13.0 mph W20.9 kmh W -- 30.10 in1019.3 mb 0.00 in0.0 mm 0.00 in0.0 mm 0.00 in0.0 mm
06:48 AM 27.3°F-2.6°C 25.0°F-3.9°C 91% 17.0 mph NW27.4 kmh NW -- 30.10 in1019.3 mb 0.00 in0.0 mm 0.00 in0.0 mm 0.00 in0.0 mm
06:50 AM 27.3°F-2.6°C 25.0°F-3.9°C 91% 15.0 mph NW24.1 kmh NW -- 30.10 in1019.3 mb 0.00 in0.0 mm 0.00 in0.0 mm 0.00 in0.0 mm
06:51 AM 27.3°F-2.6°C 25.0°F-3.9°C 91% 17.0 mph NW27.4 kmh NW -- 30.10 in1019.3 mb 0.00 in0.0 mm 0.00 in0.0 mm 0.00 in0.0 mm
06:52 AM 27.3°F-2.6°C 25.5°F-3.6°C 93% 16.0 mph NW25.7 kmh NW -- 30.10 in1019.3 mb 0.00 in0.0 mm 0.00 in0.0 mm 0.00 in0.0 mm
06:53 AM 27.1°F-2.7°C 25.4°F-3.7°C 93% 17.0 mph NW27.4 kmh NW -- 30.11 in1019.6 mb 0.00 in0.0 mm 0.00 in0.0 mm 0.00 in0.0 mm
06:54 AM 27.1°F-2.7°C 25.4°F-3.7°C 93% 18.0 mph NNW29.0 kmh NNW -- 30.11 in1019.6 mb 0.00 in0.0 mm 0.00 in0.0 mm 0.00 in0.0 mm
06:55 AM 27.1°F-2.7°C 25.4°F-3.7°C 93% 18.0 mph NW29.0 kmh NW -- 30.11 in1019.6 mb 0.00 in0.0 mm 0.00 in0.0 mm 0.00 in0.0 mm
06:56 AM 27.1°F-2.7°C 25.4°F-3.7°C 93% 17.0 mph NW27.4 kmh NW -- 30.10 in1019.3 mb 0.00 in0.0 mm 0.00 in0.0 mm 0.00 in0.0 mm
06:57 AM 27.1°F-2.7°C 25.4°F-3.7°C 93% 18.0 mph WNW29.0 kmh WNW -- 30.11 in1019.6 mb 0.00 in0.0 mm 0.00 in0.0 mm 0.00 in0.0 mm
06:58 AM 27.1°F-2.7°C 25.4°F-3.7°C 93% 17.0 mph WNW27.4 kmh WNW -- 30.10 in1019.3 mb 0.00 in0.0 mm 0.00 in0.0 mm 0.00 in0.0 mm
06:59 AM 27.1°F-2.7°C 25.4°F-3.7°C 93% 11.0 mph WNW17.7 kmh WNW -- 30.11 in1019.6 mb 0.00 in0.0 mm 0.00 in0.0 mm 0.00 in0.0 mm
07:00 AM 27.1°F-2.7°C 25.4°F-3.7°C 93% 21.0 mph WNW33.8 kmh WNW -- 30.11 in1019.6 mb 0.00 in0.0 mm 0.00 in0.0 mm 0.00 in0.0 mm
07:01 AM 27.1°F-2.7°C 24.8°F-4.0°C 91% 14.0 mph WNW22.5 kmh WNW -- 30.11 in1019.6 mb 0.00 in0.0 mm 0.00 in0.0 mm 0.00 in0.0 mm
07:02 AM 27.1°F-2.7°C 24.8°F-4.0°C 91% 18.0 mph WNW29.0 kmh WNW -- 30.11 in1019.6 mb 0.00 in0.0 mm 0.00 in0.0 mm 0.00 in0.0 mm
07:03 AM 27.1°F-2.7°C 24.8°F-4.0°C 91% 14.0 mph NW22.5 kmh NW -- 30.11 in1019.6 mb 0.00 in0.0 mm 0.00 in0.0 mm 0.00 in0.0 mm
07:04 AM 27.1°F-2.7°C 24.8°F-4.0°C 91% 17.0 mph NW27.4 kmh NW -- 30.10 in1019.3 mb 0.00 in0.0 mm 0.00 in0.0 mm 0.00 in0.0 mm
07:05 AM 27.1°F-2.7°C 24.8°F-4.0°C 91% 16.0 mph NW25.7 kmh NW -- 30.11 in1019.6 mb 0.00 in0.0 mm 0.00 in0.0 mm 0.00 in0.0 mm
07:06 AM 27.1°F-2.7°C 24.8°F-4.0°C 91% 19.0 mph WNW30.6 kmh WNW -- 30.11 in1019.6 mb 0.00 in0.0 mm 0.00 in0.0 mm 0.00 in0.0 mm
07:07 AM 27.1°F-2.7°C 24.8°F-4.0°C 91% 13.0 mph W20.9 kmh W -- 30.11 in1019.6 mb 0.00 in0.0 mm 0.00 in0.0 mm 0.00 in0.0 mm
07:08 AM 27.1°F-2.7°C 24.6°F-4.1°C 90% 20.0 mph NW32.2 kmh NW -- 30.11 in1019.6 mb 0.00 in0.0 mm 0.00 in0.0 mm 0.00 in0.0 mm
07:09 AM 27.1°F-2.7°C 24.6°F-4.1°C 90% 16.0 mph NW25.7 kmh NW -- 30.11 in1019.6 mb 0.00 in0.0 mm 0.00 in0.0 mm 0.00 in0.0 mm
07:10 AM 27.1°F-2.7°C 24.6°F-4.1°C 90% 19.0 mph NW30.6 kmh NW -- 30.11 in1019.6 mb 0.00 in0.0 mm 0.00 in0.0 mm 0.00 in0.0 mm
07:11 AM 27.1°F-2.7°C 24.0°F-4.4°C 88% 18.0 mph NW29.0 kmh NW -- 30.11 in1019.6 mb 0.00 in0.0 mm 0.00 in0.0 mm 0.00 in0.0 mm
07:12 AM 27.1°F-2.7°C 24.0°F-4.4°C 88% 17.0 mph W27.4 kmh W -- 30.11 in1019.6 mb 0.00 in0.0 mm 0.00 in0.0 mm 0.00 in0.0 mm
07:13 AM 27.1°F-2.7°C 24.0°F-4.4°C 88% 15.0 mph WNW24.1 kmh WNW -- 30.11 in1019.6 mb 0.00 in0.0 mm 0.00 in0.0 mm 0.00 in0.0 mm
07:14 AM 27.1°F-2.7°C 24.0°F-4.4°C 88% 12.0 mph NW19.3 kmh NW -- 30.11 in1019.6 mb 0.00 in0.0 mm 0.00 in0.0 mm 0.00 in0.0 mm
07:15 AM 27.1°F-2.7°C 24.0°F-4.4°C 88% 14.0 mph WNW22.5 kmh WNW -- 30.11 in1019.6 mb 0.00 in0.0 mm 0.00 in0.0 mm 0.00 in0.0 mm
07:16 AM 27.1°F-2.7°C 24.0°F-4.4°C 88% 22.0 mph W35.4 kmh W -- 30.11 in1019.6 mb 0.00 in0.0 mm 0.00 in0.0 mm 0.00 in0.0 mm
07:17 AM 27.1°F-2.7°C 23.5°F-4.7°C 86% 21.0 mph NW33.8 kmh NW -- 30.11 in1019.6 mb 0.00 in0.0 mm 0.00 in0.0 mm 0.00 in0.0 mm
07:18 AM 27.1°F-2.7°C 23.5°F-4.7°C 86% 13.0 mph NW20.9 kmh NW -- 30.11 in1019.6 mb 0.00 in0.0 mm 0.00 in0.0 mm 0.00 in0.0 mm
07:19 AM 27.1°F-2.7°C 23.5°F-4.7°C 86% 18.0 mph WNW29.0 kmh WNW -- 30.11 in1019.6 mb 0.00 in0.0 mm 0.00 in0.0 mm 0.00 in0.0 mm
07:20 AM 27.3°F-2.6°C 23.6°F-4.7°C 86% 16.0 mph WNW25.7 kmh WNW -- 30.11 in1019.6 mb 0.00 in0.0 mm 0.00 in0.0 mm 0.00 in0.0 mm
07:21 AM 27.3°F-2.6°C 23.6°F-4.7°C 86% 18.0 mph W29.0 kmh W -- 30.11 in1019.6 mb 0.00 in0.0 mm 0.00 in0.0 mm 0.00 in0.0 mm
07:22 AM 27.3°F-2.6°C 23.6°F-4.7°C 86% 18.0 mph WNW29.0 kmh WNW -- 30.11 in1019.6 mb 0.00 in0.0 mm 0.00 in0.0 mm 0.00 in0.0 mm
07:23 AM 27.3°F-2.6°C 23.6°F-4.7°C 86% 19.0 mph W30.6 kmh W -- 30.11 in1019.6 mb 0.00 in0.0 mm 0.00 in0.0 mm 0.00 in0.0 mm
07:24 AM 27.3°F-2.6°C 23.6°F-4.7°C 86% 15.0 mph NNE24.1 kmh NNE -- 30.11 in1019.6 mb 0.00 in0.0 mm 0.00 in0.0 mm 0.00 in0.0 mm
07:25 AM 27.3°F-2.6°C 23.6°F-4.7°C 86% 15.0 mph NW24.1 kmh NW -- 30.11 in1019.6 mb 0.00 in0.0 mm 0.00 in0.0 mm 0.00 in0.0 mm
07:26 AM 27.3°F-2.6°C 23.6°F-4.7°C 86% 19.0 mph NW30.6 kmh NW -- 30.11 in1019.6 mb 0.00 in0.0 mm 0.00 in0.0 mm 0.00 in0.0 mm
07:27 AM 27.3°F-2.6°C 23.6°F-4.7°C 86% 21.0 mph W33.8 kmh W -- 30.11 in1019.6 mb 0.00 in0.0 mm 0.00 in0.0 mm 0.00 in0.0 mm
07:28 AM 27.5°F-2.5°C 23.8°F-4.6°C 86% 21.0 mph NW33.8 kmh NW -- 30.11 in1019.6 mb 0.00 in0.0 mm 0.00 in0.0 mm 0.00 in0.0 mm
07:29 AM 27.6°F-2.4°C 23.7°F-4.6°C 85% 16.0 mph NNW25.7 kmh NNW -- 30.11 in1019.6 mb 0.00 in0.0 mm 0.00 in0.0 mm 0.00 in0.0 mm
07:30 AM 27.6°F-2.4°C 23.7°F-4.6°C 85% 19.0 mph NNW30.6 kmh NNW -- 30.10 in1019.3 mb 0.00 in0.0 mm 0.00 in0.0 mm 0.00 in0.0 mm
07:31 AM 27.8°F-2.3°C 23.9°F-4.5°C 85% 17.0 mph WNW27.4 kmh WNW -- 30.11 in1019.6 mb 0.00 in0.0 mm 0.00 in0.0 mm 0.00 in0.0 mm
07:32 AM 27.8°F-2.3°C 23.9°F-4.5°C 85% 20.0 mph NW32.2 kmh NW -- 30.11 in1019.6 mb 0.00 in0.0 mm 0.00 in0.0 mm 0.00 in0.0 mm
07:33 AM 27.9°F-2.3°C 23.9°F-4.5°C 85% 17.0 mph NNW27.4 kmh NNW -- 30.11 in1019.6 mb 0.00 in0.0 mm 0.00 in0.0 mm 0.00 in0.0 mm
07:34 AM 27.9°F-2.3°C 23.9°F-4.5°C 85% 18.0 mph NNW29.0 kmh NNW -- 30.11 in1019.6 mb 0.00 in0.0 mm 0.00 in0.0 mm 0.00 in0.0 mm
07:35 AM 27.9°F-2.3°C 23.9°F-4.5°C 85% 21.0 mph W33.8 kmh W -- 30.11 in1019.6 mb 0.00 in0.0 mm 0.00 in0.0 mm 0.00 in0.0 mm
07:36 AM 27.9°F-2.3°C 23.9°F-4.5°C 85% 15.0 mph WNW24.1 kmh WNW -- 30.10 in1019.3 mb 0.00 in0.0 mm 0.00 in0.0 mm 0.00 in0.0 mm
07:37 AM 27.9°F-2.3°C 23.3°F-4.8°C 83% 21.0 mph NW33.8 kmh NW -- 30.11 in1019.6 mb 0.00 in0.0 mm 0.00 in0.0 mm 0.00 in0.0 mm
07:38 AM 28.2°F-2.1°C 23.7°F-4.6°C 83% 19.0 mph NNW30.6 kmh NNW -- 30.11 in1019.6 mb 0.00 in0.0 mm 0.00 in0.0 mm 0.00 in0.0 mm
07:39 AM 28.2°F-2.1°C 23.7°F-4.6°C 83% 23.0 mph NW37.0 kmh NW -- 30.11 in1019.6 mb 0.00 in0.0 mm 0.00 in0.0 mm 0.00 in0.0 mm
07:40 AM 28.3°F-2.1°C 23.7°F-4.6°C 83% 22.0 mph WNW35.4 kmh WNW -- 30.11 in1019.6 mb 0.00 in0.0 mm 0.00 in0.0 mm 0.00 in0.0 mm
07:41 AM 28.3°F-2.1°C 23.7°F-4.6°C 83% 17.0 mph W27.4 kmh W -- 30.11 in1019.6 mb 0.00 in0.0 mm 0.00 in0.0 mm 0.00 in0.0 mm
07:42 AM 28.3°F-2.1°C 23.1°F-4.9°C 81% 18.0 mph NW29.0 kmh NW -- 30.11 in1019.6 mb 0.00 in0.0 mm 0.00 in0.0 mm 0.00 in0.0 mm
07:43 AM 28.6°F-1.9°C 23.4°F-4.8°C 81% 18.0 mph NW29.0 kmh NW -- 30.11 in1019.6 mb 0.00 in0.0 mm 0.00 in0.0 mm 0.00 in0.0 mm
07:44 AM 28.6°F-1.9°C 23.4°F-4.8°C 81% 16.0 mph WNW25.7 kmh WNW -- 30.11 in1019.6 mb 0.00 in0.0 mm 0.00 in0.0 mm 0.00 in0.0 mm
07:45 AM 28.6°F-1.9°C 23.4°F-4.8°C 81% 25.0 mph NW40.2 kmh NW -- 30.11 in1019.6 mb 0.00 in0.0 mm 0.00 in0.0 mm 0.00 in0.0 mm
07:46 AM 28.6°F-1.9°C 23.4°F-4.8°C 81% 20.0 mph WNW32.2 kmh WNW -- 30.11 in1019.6 mb 0.00 in0.0 mm 0.00 in0.0 mm 0.00 in0.0 mm
07:47 AM 28.6°F-1.9°C 23.4°F-4.8°C 81% 13.0 mph NNW20.9 kmh NNW -- 30.11 in1019.6 mb 0.00 in0.0 mm 0.00 in0.0 mm 0.00 in0.0 mm
07:48 AM 28.6°F-1.9°C 23.4°F-4.8°C 81% 18.0 mph W29.0 kmh W -- 30.12 in1020.0 mb 0.00 in0.0 mm 0.00 in0.0 mm 0.00 in0.0 mm
07:49 AM 28.6°F-1.9°C 23.4°F-4.8°C 81% 22.0 mph WNW35.4 kmh WNW -- 30.11 in1019.6 mb 0.00 in0.0 mm 0.00 in0.0 mm 0.00 in0.0 mm
07:50 AM 28.6°F-1.9°C 23.4°F-4.8°C 81% 22.0 mph W35.4 kmh W -- 30.12 in1020.0 mb 0.00 in0.0 mm 0.00 in0.0 mm 0.00 in0.0 mm
07:51 AM 28.7°F-1.8°C 23.6°F-4.7°C 81% 16.0 mph NNW25.7 kmh NNW -- 30.11 in1019.6 mb 0.00 in0.0 mm 0.00 in0.0 mm 0.00 in0.0 mm
07:52 AM 28.7°F-1.8°C 23.6°F-4.7°C 81% 18.0 mph NW29.0 kmh NW -- 30.12 in1020.0 mb 0.00 in0.0 mm 0.00 in0.0 mm 0.00 in0.0 mm
07:53 AM 28.7°F-1.8°C 23.3°F-4.8°C 80% 20.0 mph NW32.2 kmh NW -- 30.12 in1020.0 mb 0.00 in0.0 mm 0.00 in0.0 mm 0.00 in0.0 mm
07:54 AM 28.7°F-1.8°C 23.3°F-4.8°C 80% 23.0 mph NW37.0 kmh NW -- 30.12 in1020.0 mb 0.00 in0.0 mm 0.00 in0.0 mm 0.00 in0.0 mm
07:55 AM 28.7°F-1.8°C 23.0°F-5.0°C 79% 22.0 mph WNW35.4 kmh WNW -- 30.12 in1020.0 mb 0.00 in0.0 mm 0.00 in0.0 mm 0.00 in0.0 mm
07:56 AM 28.7°F-1.8°C 23.0°F-5.0°C 79% 16.0 mph W25.7 kmh W -- 30.12 in1020.0 mb 0.00 in0.0 mm 0.00 in0.0 mm 0.00 in0.0 mm
07:57 AM 28.8°F-1.8°C 23.0°F-5.0°C 79% 20.0 mph WNW32.2 kmh WNW -- 30.12 in1020.0 mb 0.00 in0.0 mm 0.00 in0.0 mm 0.00 in0.0 mm
07:58 AM 28.8°F-1.8°C 23.0°F-5.0°C 79% 13.0 mph NW20.9 kmh NW -- 30.12 in1020.0 mb 0.00 in0.0 mm 0.00 in0.0 mm 0.00 in0.0 mm
07:59 AM 28.8°F-1.8°C 23.0°F-5.0°C 79% 17.0 mph NW27.4 kmh NW -- 30.12 in1020.0 mb 0.00 in0.0 mm 0.00 in0.0 mm 0.00 in0.0 mm
08:00 AM 28.8°F-1.8°C 23.0°F-5.0°C 79% 18.0 mph NW29.0 kmh NW -- 30.12 in1020.0 mb 0.00 in0.0 mm 0.00 in0.0 mm 0.00 in0.0 mm
08:01 AM 28.8°F-1.8°C 23.0°F-5.0°C 79% 13.0 mph NNW20.9 kmh NNW -- 30.12 in1020.0 mb 0.00 in0.0 mm 0.00 in0.0 mm 0.00 in0.0 mm
08:02 AM 29.1°F-1.6°C 23.3°F-4.8°C 79% 13.0 mph NNW20.9 kmh NNW -- 30.12 in1020.0 mb 0.00 in0.0 mm 0.00 in0.0 mm 0.00 in0.0 mm
08:03 AM 29.1°F-1.6°C 23.3°F-4.8°C 79% 19.0 mph NNW30.6 kmh NNW -- 30.12 in1020.0 mb 0.00 in0.0 mm 0.00 in0.0 mm 0.00 in0.0 mm
08:04 AM 29.1°F-1.6°C 23.3°F-4.8°C 79% 14.0 mph NNW22.5 kmh NNW -- 30.12 in1020.0 mb 0.00 in0.0 mm 0.00 in0.0 mm 0.00 in0.0 mm
08:05 AM 29.1°F-1.6°C 23.3°F-4.8°C 79% 13.0 mph NNW20.9 kmh NNW -- 30.12 in1020.0 mb 0.00 in0.0 mm 0.00 in0.0 mm 0.00 in0.0 mm
08:06 AM 29.2°F-1.6°C 23.3°F-4.8°C 79% 15.0 mph NNW24.1 kmh NNW -- 30.12 in1020.0 mb 0.00 in0.0 mm 0.00 in0.0 mm 0.00 in0.0 mm
08:07 AM 29.2°F-1.6°C 23.3°F-4.8°C 79% 18.0 mph NW29.0 kmh NW -- 30.12 in1020.0 mb 0.00 in0.0 mm 0.00 in0.0 mm 0.00 in0.0 mm
08:08 AM 29.5°F-1.4°C 23.7°F-4.6°C 79% 15.0 mph NW24.1 kmh NW -- 30.12 in1020.0 mb 0.00 in0.0 mm 0.00 in0.0 mm 0.00 in0.0 mm
08:09 AM 29.5°F-1.4°C 23.4°F-4.8°C 78% 18.0 mph WNW29.0 kmh WNW -- 30.13 in1020.3 mb 0.00 in0.0 mm 0.00 in0.0 mm 0.00 in0.0 mm
08:10 AM 29.5°F-1.4°C 23.4°F-4.8°C 78% 19.0 mph NW30.6 kmh NW -- 30.13 in1020.3 mb 0.00 in0.0 mm 0.00 in0.0 mm 0.00 in0.0 mm
08:11 AM 29.5°F-1.4°C 23.4°F-4.8°C 78% 20.0 mph WNW32.2 kmh WNW -- 30.13 in1020.3 mb 0.00 in0.0 mm 0.00 in0.0 mm 0.00 in0.0 mm
08:12 AM 29.5°F-1.4°C 23.4°F-4.8°C 78% 13.0 mph NNW20.9 kmh NNW -- 30.13 in1020.3 mb 0.00 in0.0 mm 0.00 in0.0 mm 0.00 in0.0 mm
08:13 AM 29.5°F-1.4°C 23.4°F-4.8°C 78% 15.0 mph WNW24.1 kmh WNW -- 30.13 in1020.3 mb 0.00 in0.0 mm 0.00 in0.0 mm 0.00 in0.0 mm
08:14 AM 29.5°F-1.4°C 23.4°F-4.8°C 78% 17.0 mph NNW27.4 kmh NNW -- 30.13 in1020.3 mb 0.00 in0.0 mm 0.00 in0.0 mm 0.00 in0.0 mm
08:15 AM 29.5°F-1.4°C 23.4°F-4.8°C 78% 13.0 mph NW20.9 kmh NW -- 30.13 in1020.3 mb 0.00 in0.0 mm 0.00 in0.0 mm 0.00 in0.0 mm
08:17 AM 29.5°F-1.4°C 22.8°F-5.1°C 76% 18.0 mph NW29.0 kmh NW -- 30.13 in1020.3 mb 0.00 in0.0 mm 0.00 in0.0 mm 0.00 in0.0 mm
08:18 AM 29.6°F-1.3°C 22.9°F-5.1°C 76% 19.0 mph NW30.6 kmh NW -- 30.13 in1020.3 mb 0.00 in0.0 mm 0.00 in0.0 mm 0.00 in0.0 mm
08:19 AM 29.6°F-1.3°C 22.9°F-5.1°C 76% 16.0 mph NNW25.7 kmh NNW -- 30.13 in1020.3 mb 0.00 in0.0 mm 0.00 in0.0 mm 0.00 in0.0 mm
08:20 AM 29.6°F-1.3°C 22.9°F-5.1°C 76% 19.0 mph NNW30.6 kmh NNW -- 30.13 in1020.3 mb 0.00 in0.0 mm 0.00 in0.0 mm 0.00 in0.0 mm
08:21 AM 29.8°F-1.2°C 23.1°F-4.9°C 76% 15.0 mph NW24.1 kmh NW -- 30.13 in1020.3 mb 0.00 in0.0 mm 0.00 in0.0 mm 0.00 in0.0 mm
08:22 AM 29.8°F-1.2°C 23.1°F-4.9°C 76% 17.0 mph NNW27.4 kmh NNW -- 30.13 in1020.3 mb 0.00 in0.0 mm 0.00 in0.0 mm 0.00 in0.0 mm
08:23 AM 29.8°F-1.2°C 23.1°F-4.9°C 76% 17.0 mph WNW27.4 kmh WNW -- 30.13 in1020.3 mb 0.00 in0.0 mm 0.00 in0.0 mm 0.00 in0.0 mm
08:24 AM 29.6°F-1.3°C 22.9°F-5.1°C 76% 22.0 mph NNW35.4 kmh NNW -- 30.13 in1020.3 mb 0.00 in0.0 mm 0.00 in0.0 mm 0.00 in0.0 mm
08:25 AM 29.6°F-1.3°C 22.9°F-5.1°C 76% 21.0 mph NNW33.8 kmh NNW -- 30.13 in1020.3 mb 0.00 in0.0 mm 0.00 in0.0 mm 0.00 in0.0 mm
08:27 AM 29.6°F-1.3°C 22.9°F-5.1°C 76% 22.0 mph W35.4 kmh W -- 30.13 in1020.3 mb 0.00 in0.0 mm 0.00 in0.0 mm 0.00 in0.0 mm
08:28 AM 29.6°F-1.3°C 22.9°F-5.1°C 76% 17.0 mph NW27.4 kmh NW -- 30.13 in1020.3 mb 0.00 in0.0 mm 0.00 in0.0 mm 0.00 in0.0 mm
08:29 AM 29.6°F-1.3°C 22.9°F-5.1°C 76% 23.0 mph NW37.0 kmh NW -- 30.13 in1020.3 mb 0.00 in0.0 mm 0.00 in0.0 mm 0.00 in0.0 mm
08:30 AM 29.6°F-1.3°C 22.9°F-5.1°C 76% 20.0 mph NNW32.2 kmh NNW -- 30.13 in1020.3 mb 0.00 in0.0 mm 0.00 in0.0 mm 0.00 in0.0 mm
08:31 AM 29.6°F-1.3°C 22.9°F-5.1°C 76% 17.0 mph NNW27.4 kmh NNW -- 30.13 in1020.3 mb 0.00 in0.0 mm 0.00 in0.0 mm 0.00 in0.0 mm
08:32 AM 29.6°F-1.3°C 22.9°F-5.1°C 76% 20.0 mph NNW32.2 kmh NNW -- 30.13 in1020.3 mb 0.00 in0.0 mm 0.00 in0.0 mm 0.00 in0.0 mm
08:33 AM 29.6°F-1.3°C 22.9°F-5.1°C 76% 22.0 mph NNW35.4 kmh NNW -- 30.13 in1020.3 mb 0.00 in0.0 mm 0.00 in0.0 mm 0.00 in0.0 mm
08:34 AM 29.8°F-1.2°C 23.1°F-4.9°C 76% 18.0 mph NNW29.0 kmh NNW -- 30.13 in1020.3 mb 0.00 in0.0 mm 0.00 in0.0 mm 0.00 in0.0 mm
08:35 AM 29.8°F-1.2°C 23.1°F-4.9°C 76% 21.0 mph NW33.8 kmh NW -- 30.14 in1020.7 mb 0.00 in0.0 mm 0.00 in0.0 mm 0.00 in0.0 mm
08:36 AM 29.8°F-1.2°C 23.1°F-4.9°C 76% 19.0 mph WNW30.6 kmh WNW -- 30.14 in1020.7 mb 0.00 in0.0 mm 0.00 in0.0 mm 0.00 in0.0 mm
08:37 AM 29.8°F-1.2°C 23.1°F-4.9°C 76% 20.0 mph NNW32.2 kmh NNW -- 30.13 in1020.3 mb 0.00 in0.0 mm 0.00 in0.0 mm 0.00 in0.0 mm
08:38 AM 29.8°F-1.2°C 23.1°F-4.9°C 76% 19.0 mph WNW30.6 kmh WNW -- 30.13 in1020.3 mb 0.00 in0.0 mm 0.00 in0.0 mm 0.00 in0.0 mm
08:39 AM 29.8°F-1.2°C 23.1°F-4.9°C 76% 23.0 mph NW37.0 kmh NW -- 30.14 in1020.7 mb 0.00 in0.0 mm 0.00 in0.0 mm 0.00 in0.0 mm
08:40 AM 29.8°F-1.2°C 23.1°F-4.9°C 76% 20.0 mph WNW32.2 kmh WNW -- 30.13 in1020.3 mb 0.00 in0.0 mm 0.00 in0.0 mm 0.00 in0.0 mm
08:41 AM 30.0°F-1.1°C 23.3°F-4.8°C 76% 16.0 mph NNW25.7 kmh NNW -- 30.14 in1020.7 mb 0.00 in0.0 mm 0.00 in0.0 mm 0.00 in0.0 mm
08:42 AM 30.1°F-1.1°C 23.3°F-4.8°C 76% 22.0 mph WNW35.4 kmh WNW -- 30.14 in1020.7 mb 0.00 in0.0 mm 0.00 in0.0 mm 0.00 in0.0 mm
08:43 AM 30.1°F-1.1°C 23.0°F-5.0°C 75% 18.0 mph WNW29.0 kmh WNW -- 30.14 in1020.7 mb 0.00 in0.0 mm 0.00 in0.0 mm 0.00 in0.0 mm
08:44 AM 30.1°F-1.1°C 23.0°F-5.0°C 75% 22.0 mph NW35.4 kmh NW -- 30.14 in1020.7 mb 0.00 in0.0 mm 0.00 in0.0 mm 0.00 in0.0 mm
08:46 AM 30.1°F-1.1°C 23.0°F-5.0°C 75% 18.0 mph WNW29.0 kmh WNW -- 30.14 in1020.7 mb 0.00 in0.0 mm 0.00 in0.0 mm 0.00 in0.0 mm
08:47 AM 30.1°F-1.1°C 23.0°F-5.0°C 75% 15.0 mph NNW24.1 kmh NNW -- 30.14 in1020.7 mb 0.00 in0.0 mm 0.00 in0.0 mm 0.00 in0.0 mm
08:48 AM 30.3°F-0.9°C 23.3°F-4.8°C 75% 16.0 mph WNW25.7 kmh WNW -- 30.14 in1020.7 mb 0.00 in0.0 mm 0.00 in0.0 mm 0.00 in0.0 mm
08:49 AM 30.3°F-0.9°C 23.3°F-4.8°C 75% 20.0 mph NW32.2 kmh NW -- 30.14 in1020.7 mb 0.00 in0.0 mm 0.00 in0.0 mm 0.00 in0.0 mm
08:50 AM 30.3°F-0.9°C 23.3°F-4.8°C 75% 22.0 mph NNW35.4 kmh NNW -- 30.14 in1020.7 mb 0.00 in0.0 mm 0.00 in0.0 mm 0.00 in0.0 mm
08:51 AM 30.3°F-0.9°C 23.3°F-4.8°C 75% 25.0 mph NNW40.2 kmh NNW -- 30.13 in1020.3 mb 0.00 in0.0 mm 0.00 in0.0 mm 0.00 in0.0 mm
08:52 AM 30.1°F-1.1°C 23.0°F-5.0°C 75% 23.0 mph NW37.0 kmh NW -- 30.13 in1020.3 mb 0.00 in0.0 mm 0.00 in0.0 mm 0.00 in0.0 mm
08:53 AM 30.3°F-0.9°C 23.3°F-4.8°C 75% 22.0 mph WNW35.4 kmh WNW -- 30.13 in1020.3 mb 0.00 in0.0 mm 0.00 in0.0 mm 0.00 in0.0 mm
08:54 AM 30.5°F-0.8°C 23.5°F-4.7°C 75% 18.0 mph NW29.0 kmh NW -- 30.13 in1020.3 mb 0.00 in0.0 mm 0.00 in0.0 mm 0.00 in0.0 mm
08:55 AM 30.7°F-0.7°C 23.7°F-4.6°C 75% 21.0 mph NW33.8 kmh NW -- 30.13 in1020.3 mb 0.00 in0.0 mm 0.00 in0.0 mm 0.00 in0.0 mm
08:56 AM 30.7°F-0.7°C 23.7°F-4.6°C 75% 11.0 mph NW17.7 kmh NW -- 30.14 in1020.7 mb 0.00 in0.0 mm 0.00 in0.0 mm 0.00 in0.0 mm
08:57 AM 30.7°F-0.7°C 23.7°F-4.6°C 75% 17.0 mph NW27.4 kmh NW -- 30.13 in1020.3 mb 0.00 in0.0 mm 0.00 in0.0 mm 0.00 in0.0 mm
08:58 AM 30.8°F-0.7°C 23.3°F-4.8°C 74% 21.0 mph W33.8 kmh W -- 30.13 in1020.3 mb 0.00 in0.0 mm 0.00 in0.0 mm 0.00 in0.0 mm
08:59 AM 30.8°F-0.7°C 23.3°F-4.8°C 74% 16.0 mph NW25.7 kmh NW -- 30.13 in1020.3 mb 0.00 in0.0 mm 0.00 in0.0 mm 0.00 in0.0 mm
09:00 AM 31.1°F-0.5°C 23.7°F-4.6°C 74% 12.0 mph NW19.3 kmh NW -- 30.13 in1020.3 mb 0.00 in0.0 mm 0.00 in0.0 mm 0.00 in0.0 mm
09:01 AM 31.1°F-0.5°C 23.7°F-4.6°C 74% 18.0 mph NNW29.0 kmh NNW -- 30.13 in1020.3 mb 0.00 in0.0 mm 0.00 in0.0 mm 0.00 in0.0 mm
09:02 AM 31.1°F-0.5°C 23.7°F-4.6°C 74% 19.0 mph NW30.6 kmh NW -- 30.13 in1020.3 mb 0.00 in0.0 mm 0.00 in0.0 mm 0.00 in0.0 mm
09:03 AM 30.8°F-0.7°C 23.3°F-4.8°C 74% 27.0 mph 43.5 kmh -- 30.13 in1020.3 mb 0.00 in0.0 mm 0.00 in0.0 mm 0.00 in0.0 mm
09:04 AM 30.5°F-0.8°C 22.8°F-5.1°C 73% 20.0 mph NW32.2 kmh NW -- 30.13 in1020.3 mb 0.00 in0.0 mm 0.00 in0.0 mm 0.00 in0.0 mm
09:05 AM 30.5°F-0.8°C 22.8°F-5.1°C 73% 21.0 mph NNW33.8 kmh NNW -- 30.13 in1020.3 mb 0.00 in0.0 mm 0.00 in0.0 mm 0.00 in0.0 mm
09:06 AM 30.7°F-0.7°C 23.0°F-5.0°C 73% 16.0 mph NW25.7 kmh NW -- 30.13 in1020.3 mb 0.00 in0.0 mm 0.00 in0.0 mm 0.00 in0.0 mm
09:07 AM 30.7°F-0.7°C 23.0°F-5.0°C 73% 19.0 mph WNW30.6 kmh WNW -- 30.13 in1020.3 mb 0.00 in0.0 mm 0.00 in0.0 mm 0.00 in0.0 mm
09:08 AM 30.7°F-0.7°C 23.0°F-5.0°C 73% 23.0 mph NW37.0 kmh NW -- 30.13 in1020.3 mb 0.00 in0.0 mm 0.00 in0.0 mm 0.00 in0.0 mm
09:09 AM 30.7°F-0.7°C 23.0°F-5.0°C 73% 22.0 mph NW35.4 kmh NW -- 30.14 in1020.7 mb 0.00 in0.0 mm 0.00 in0.0 mm 0.00 in0.0 mm
09:10 AM 30.7°F-0.7°C 23.0°F-5.0°C 73% 17.0 mph NW27.4 kmh NW -- 30.14 in1020.7 mb 0.00 in0.0 mm 0.00 in0.0 mm 0.00 in0.0 mm
09:11 AM 30.8°F-0.7°C 23.0°F-5.0°C 73% 20.0 mph NW32.2 kmh NW -- 30.13 in1020.3 mb 0.00 in0.0 mm 0.00 in0.0 mm 0.00 in0.0 mm
09:12 AM 31.2°F-0.4°C 23.5°F-4.7°C 73% 19.0 mph NW30.6 kmh NW -- 30.14 in1020.7 mb 0.00 in0.0 mm 0.00 in0.0 mm 0.00 in0.0 mm
09:13 AM 31.5°F-0.3°C 23.0°F-5.0°C 71% 23.0 mph NW37.0 kmh NW -- 30.13 in1020.3 mb 0.00 in0.0 mm 0.00 in0.0 mm 0.00 in0.0 mm
09:14 AM 31.5°F-0.3°C 23.0°F-5.0°C 71% 19.0 mph WNW30.6 kmh WNW -- 30.13 in1020.3 mb 0.00 in0.0 mm 0.00 in0.0 mm 0.00 in0.0 mm
09:15 AM 31.5°F-0.3°C 22.7°F-5.2°C 70% 20.0 mph NNW32.2 kmh NNW -- 30.13 in1020.3 mb 0.00 in0.0 mm 0.00 in0.0 mm 0.00 in0.0 mm
09:16 AM 31.5°F-0.3°C 22.7°F-5.2°C 70% 18.0 mph WNW29.0 kmh WNW -- 30.13 in1020.3 mb 0.00 in0.0 mm 0.00 in0.0 mm 0.00 in0.0 mm
09:17 AM 31.7°F-0.2°C 22.9°F-5.1°C 70% 15.0 mph NW24.1 kmh NW -- 30.13 in1020.3 mb 0.00 in0.0 mm 0.00 in0.0 mm 0.00 in0.0 mm
09:18 AM 31.9°F-0.1°C 23.0°F-5.0°C 70% 23.0 mph NNW37.0 kmh NNW -- 30.13 in1020.3 mb 0.00 in0.0 mm 0.00 in0.0 mm 0.00 in0.0 mm
09:19 AM 31.7°F-0.2°C 22.5°F-5.3°C 69% 19.0 mph NW30.6 kmh NW -- 30.14 in1020.7 mb 0.00 in0.0 mm 0.00 in0.0 mm 0.00 in0.0 mm
09:20 AM 31.6°F-0.2°C 22.5°F-5.3°C 69% 18.0 mph W29.0 kmh W -- 30.14 in1020.7 mb 0.00 in0.0 mm 0.00 in0.0 mm 0.00 in0.0 mm
09:21 AM 31.7°F-0.2°C 22.5°F-5.3°C 69% 21.0 mph NNW33.8 kmh NNW -- 30.14 in1020.7 mb 0.00 in0.0 mm 0.00 in0.0 mm 0.00 in0.0 mm
09:22 AM 31.9°F-0.1°C 22.7°F-5.2°C 69% 23.0 mph WNW37.0 kmh WNW -- 30.14 in1020.7 mb 0.00 in0.0 mm 0.00 in0.0 mm 0.00 in0.0 mm
09:23 AM 31.7°F-0.2°C 22.5°F-5.3°C 69% 18.0 mph NW29.0 kmh NW -- 30.14 in1020.7 mb 0.00 in0.0 mm 0.00 in0.0 mm 0.00 in0.0 mm
09:24 AM 31.7°F-0.2°C 22.5°F-5.3°C 69% 14.0 mph WNW22.5 kmh WNW -- 30.14 in1020.7 mb 0.00 in0.0 mm 0.00 in0.0 mm 0.00 in0.0 mm
09:25 AM 31.7°F-0.2°C 22.5°F-5.3°C 69% 20.0 mph WNW32.2 kmh WNW -- 30.14 in1020.7 mb 0.00 in0.0 mm 0.00 in0.0 mm 0.00 in0.0 mm
09:26 AM 31.9°F-0.1°C 22.7°F-5.2°C 69% 13.0 mph NW20.9 kmh NW -- 30.14 in1020.7 mb 0.00 in0.0 mm 0.00 in0.0 mm 0.00 in0.0 mm
09:27 AM 31.7°F-0.2°C 22.5°F-5.3°C 69% 18.0 mph WNW29.0 kmh WNW -- 30.13 in1020.3 mb 0.00 in0.0 mm 0.00 in0.0 mm 0.00 in0.0 mm
09:28 AM 31.7°F-0.2°C 22.5°F-5.3°C 69% 17.0 mph WNW27.4 kmh WNW -- 30.14 in1020.7 mb 0.00 in0.0 mm 0.00 in0.0 mm 0.00 in0.0 mm
09:29 AM 31.7°F-0.2°C 22.5°F-5.3°C 69% 16.0 mph 25.7 kmh -- 30.13 in1020.3 mb 0.00 in0.0 mm 0.00 in0.0 mm 0.00 in0.0 mm
09:30 AM 31.7°F-0.2°C 22.5°F-5.3°C 69% 19.0 mph NW30.6 kmh NW -- 30.14 in1020.7 mb 0.00 in0.0 mm 0.00 in0.0 mm 0.00 in0.0 mm
09:31 AM 31.7°F-0.2°C 22.2°F-5.4°C 68% 17.0 mph NNW27.4 kmh NNW -- 30.14 in1020.7 mb 0.00 in0.0 mm 0.00 in0.0 mm 0.00 in0.0 mm
09:32 AM 31.9°F-0.1°C 22.3°F-5.4°C 68% 15.0 mph NW24.1 kmh NW -- 30.14 in1020.7 mb 0.00 in0.0 mm 0.00 in0.0 mm 0.00 in0.0 mm
09:33 AM 31.9°F-0.1°C 22.3°F-5.4°C 68% 13.0 mph WNW20.9 kmh WNW -- 30.13 in1020.3 mb 0.00 in0.0 mm 0.00 in0.0 mm 0.00 in0.0 mm
09:34 AM 32.4°F0.2°C 22.9°F-5.1°C 68% 16.0 mph NW25.7 kmh NW -- 30.14 in1020.7 mb 0.00 in0.0 mm 0.00 in0.0 mm 0.00 in0.0 mm
09:35 AM 32.5°F0.3°C 21.9°F-5.6°C 65% 11.0 mph WNW17.7 kmh WNW -- 30.14 in1020.7 mb 0.00 in0.0 mm 0.00 in0.0 mm 0.00 in0.0 mm
09:36 AM 32.5°F0.3°C 21.9°F-5.6°C 65% 16.0 mph NW25.7 kmh NW -- 30.14 in1020.7 mb 0.00 in0.0 mm 0.00 in0.0 mm 0.00 in0.0 mm
09:37 AM 32.5°F0.3°C 21.9°F-5.6°C 65% 19.0 mph NNW30.6 kmh NNW -- 30.13 in1020.3 mb 0.00 in0.0 mm 0.00 in0.0 mm 0.00 in0.0 mm
09:38 AM 32.5°F0.3°C 21.9°F-5.6°C 65% 22.0 mph WNW35.4 kmh WNW -- 30.14 in1020.7 mb 0.00 in0.0 mm 0.00 in0.0 mm 0.00 in0.0 mm
09:39 AM 32.5°F0.3°C 21.9°F-5.6°C 65% 15.0 mph NW24.1 kmh NW -- 30.14 in1020.7 mb 0.00 in0.0 mm 0.00 in0.0 mm 0.00 in0.0 mm
09:40 AM 32.6°F0.3°C 21.9°F-5.6°C 65% 19.0 mph NW30.6 kmh NW -- 30.14 in1020.7 mb 0.00 in0.0 mm 0.00 in0.0 mm 0.00 in0.0 mm
09:41 AM 32.6°F0.3°C 21.9°F-5.6°C 65% 17.0 mph W27.4 kmh W -- 30.14 in1020.7 mb 0.00 in0.0 mm 0.00 in0.0 mm 0.00 in0.0 mm
09:42 AM 32.9°F0.5°C 22.3°F-5.4°C 65% 17.0 mph NW27.4 kmh NW -- 30.14 in1020.7 mb 0.00 in0.0 mm 0.00 in0.0 mm 0.00 in0.0 mm
09:43 AM 32.9°F0.5°C 22.3°F-5.4°C 65% 17.0 mph W27.4 kmh W -- 30.14 in1020.7 mb 0.00 in0.0 mm 0.00 in0.0 mm 0.00 in0.0 mm
09:44 AM 32.9°F0.5°C 21.5°F-5.8°C 63% 22.0 mph NW35.4 kmh NW -- 30.14 in1020.7 mb 0.00 in0.0 mm 0.00 in0.0 mm 0.00 in0.0 mm
09:45 AM 32.6°F0.3°C 21.2°F-6.0°C 63% 16.0 mph WNW25.7 kmh WNW -- 30.14 in1020.7 mb 0.00 in0.0 mm 0.00 in0.0 mm 0.00 in0.0 mm
09:46 AM 32.9°F0.5°C 21.5°F-5.8°C 63% 21.0 mph W33.8 kmh W -- 30.14 in1020.7 mb 0.00 in0.0 mm 0.00 in0.0 mm 0.00 in0.0 mm
09:47 AM 33.0°F0.6°C 21.7°F-5.7°C 63% 16.0 mph WNW25.7 kmh WNW -- 30.14 in1020.7 mb 0.00 in0.0 mm 0.00 in0.0 mm 0.00 in0.0 mm
09:48 AM 33.2°F0.7°C 21.9°F-5.6°C 63% 12.0 mph NNW19.3 kmh NNW -- 30.14 in1020.7 mb 0.00 in0.0 mm 0.00 in0.0 mm 0.00 in0.0 mm
09:49 AM 33.2°F0.7°C 21.9°F-5.6°C 63% 16.0 mph WNW25.7 kmh WNW -- 30.14 in1020.7 mb 0.00 in0.0 mm 0.00 in0.0 mm 0.00 in0.0 mm
09:50 AM 33.2°F0.7°C 21.9°F-5.6°C 63% 13.0 mph W20.9 kmh W -- 30.14 in1020.7 mb 0.00 in0.0 mm 0.00 in0.0 mm 0.00 in0.0 mm
09:51 AM 33.2°F0.7°C 21.9°F-5.6°C 63% 16.0 mph WNW25.7 kmh WNW -- 30.15 in1021.0 mb 0.00 in0.0 mm 0.00 in0.0 mm 0.00 in0.0 mm
09:52 AM 33.2°F0.7°C 21.9°F-5.6°C 63% 20.0 mph W32.2 kmh W -- 30.15 in1021.0 mb 0.00 in0.0 mm 0.00 in0.0 mm 0.00 in0.0 mm
09:53 AM 33.2°F0.7°C 21.9°F-5.6°C 63% 15.0 mph W24.1 kmh W -- 30.14 in1020.7 mb 0.00 in0.0 mm 0.00 in0.0 mm 0.00 in0.0 mm
09:54 AM 33.4°F0.8°C 22.1°F-5.5°C 63% 19.0 mph WNW30.6 kmh WNW -- 30.15 in1021.0 mb 0.00 in0.0 mm 0.00 in0.0 mm 0.00 in0.0 mm
09:55 AM 33.0°F0.6°C 21.7°F-5.7°C 63% 13.0 mph W20.9 kmh W -- 30.14 in1020.7 mb 0.00 in0.0 mm 0.00 in0.0 mm 0.00 in0.0 mm
09:56 AM 33.0°F0.6°C 21.7°F-5.7°C 63% 13.0 mph WNW20.9 kmh WNW -- 30.14 in1020.7 mb 0.00 in0.0 mm 0.00 in0.0 mm 0.00 in0.0 mm
09:57 AM 33.2°F0.7°C 21.9°F-5.6°C 63% 13.0 mph NNW20.9 kmh NNW -- 30.14 in1020.7 mb 0.00 in0.0 mm 0.00 in0.0 mm 0.00 in0.0 mm
09:58 AM 33.5°F0.8°C 22.1°F-5.5°C 63% 10.0 mph WNW16.1 kmh WNW -- 30.15 in1021.0 mb 0.00 in0.0 mm 0.00 in0.0 mm 0.00 in0.0 mm
09:59 AM 34.0°F1.1°C 22.6°F-5.2°C 63% 12.0 mph NNW19.3 kmh NNW -- 30.15 in1021.0 mb 0.00 in0.0 mm 0.00 in0.0 mm 0.00 in0.0 mm
10:00 AM 34.5°F1.4°C 23.1°F-4.9°C 63% 12.0 mph W19.3 kmh W -- 30.15 in1021.0 mb 0.00 in0.0 mm 0.00 in0.0 mm 0.00 in0.0 mm
10:01 AM 34.5°F1.4°C 23.1°F-4.9°C 63% 13.0 mph W20.9 kmh W -- 30.15 in1021.0 mb 0.00 in0.0 mm 0.00 in0.0 mm 0.00 in0.0 mm
10:02 AM 34.5°F1.4°C 23.1°F-4.9°C 63% 10.0 mph NW16.1 kmh NW -- 30.15 in1021.0 mb 0.00 in0.0 mm 0.00 in0.0 mm 0.00 in0.0 mm
10:03 AM 34.9°F1.6°C 23.4°F-4.8°C 63% 6.0 mph WNW9.7 kmh WNW -- 30.15 in1021.0 mb 0.00 in0.0 mm 0.00 in0.0 mm 0.00 in0.0 mm
10:04 AM 35.0°F1.7°C 23.6°F-4.7°C 63% 11.0 mph NW17.7 kmh NW -- 30.15 in1021.0 mb 0.00 in0.0 mm 0.00 in0.0 mm 0.00 in0.0 mm
10:05 AM 34.7°F1.5°C 23.3°F-4.8°C 63% 16.0 mph NW25.7 kmh NW -- 30.15 in1021.0 mb 0.00 in0.0 mm 0.00 in0.0 mm 0.00 in0.0 mm
10:06 AM 34.7°F1.5°C 23.3°F-4.8°C 63% 13.0 mph NNW20.9 kmh NNW -- 30.15 in1021.0 mb 0.00 in0.0 mm 0.00 in0.0 mm 0.00 in0.0 mm
10:07 AM 34.7°F1.5°C 23.3°F-4.8°C 63% 15.0 mph W24.1 kmh W -- 30.15 in1021.0 mb 0.00 in0.0 mm 0.00 in0.0 mm 0.00 in0.0 mm
10:08 AM 34.5°F1.4°C 23.1°F-4.9°C 63% 13.0 mph W20.9 kmh W -- 30.15 in1021.0 mb 0.00 in0.0 mm 0.00 in0.0 mm 0.00 in0.0 mm
10:09 AM 34.2°F1.2°C 22.7°F-5.2°C 63% 15.0 mph W24.1 kmh W -- 30.15 in1021.0 mb 0.00 in0.0 mm 0.00 in0.0 mm 0.00 in0.0 mm
10:10 AM 34.0°F1.1°C 22.6°F-5.2°C 63% 12.0 mph WNW19.3 kmh WNW -- 30.15 in1021.0 mb 0.00 in0.0 mm 0.00 in0.0 mm 0.00 in0.0 mm
10:11 AM 33.8°F1.0°C 22.4°F-5.3°C 63% 15.0 mph NW24.1 kmh NW -- 30.15 in1021.0 mb 0.00 in0.0 mm 0.00 in0.0 mm 0.00 in0.0 mm
10:12 AM 33.4°F0.8°C 22.1°F-5.5°C 63% 12.0 mph W19.3 kmh W -- 30.15 in1021.0 mb 0.00 in0.0 mm 0.00 in0.0 mm 0.00 in0.0 mm
10:13 AM 33.2°F0.7°C 21.9°F-5.6°C 63% 13.0 mph NW20.9 kmh NW -- 30.15 in1021.0 mb 0.00 in0.0 mm 0.00 in0.0 mm 0.00 in0.0 mm
10:14 AM 33.4°F0.8°C 22.1°F-5.5°C 63% 12.0 mph NW19.3 kmh NW -- 30.15 in1021.0 mb 0.00 in0.0 mm 0.00 in0.0 mm 0.00 in0.0 mm
10:15 AM 33.8°F1.0°C 22.4°F-5.3°C 63% 15.0 mph NW24.1 kmh NW -- 30.15 in1021.0 mb 0.00 in0.0 mm 0.00 in0.0 mm 0.00 in0.0 mm
10:16 AM 34.0°F1.1°C 22.6°F-5.2°C 63% 11.0 mph WNW17.7 kmh WNW -- 30.15 in1021.0 mb 0.00 in0.0 mm 0.00 in0.0 mm 0.00 in0.0 mm
10:17 AM 34.2°F1.2°C 22.7°F-5.2°C 63% 9.0 mph NNW14.5 kmh NNW -- 30.15 in1021.0 mb 0.00 in0.0 mm 0.00 in0.0 mm 0.00 in0.0 mm
10:18 AM 34.2°F1.2°C 22.7°F-5.2°C 63% 11.0 mph WNW17.7 kmh WNW -- 30.15 in1021.0 mb 0.00 in0.0 mm 0.00 in0.0 mm 0.00 in0.0 mm
10:19 AM 34.7°F1.5°C 23.3°F-4.8°C 63% 12.0 mph NW19.3 kmh NW -- 30.15 in1021.0 mb 0.00 in0.0 mm 0.00 in0.0 mm 0.00 in0.0 mm
10:20 AM 34.9°F1.6°C 23.4°F-4.8°C 63% 13.0 mph NNW20.9 kmh NNW -- 30.15 in1021.0 mb 0.00 in0.0 mm 0.00 in0.0 mm 0.00 in0.0 mm
10:21 AM 35.1°F1.7°C 23.6°F-4.7°C 63% 10.0 mph NW16.1 kmh NW -- 30.15 in1021.0 mb 0.00 in0.0 mm 0.00 in0.0 mm 0.00 in0.0 mm
10:22 AM 35.1°F1.7°C 23.6°F-4.7°C 63% 9.0 mph WNW14.5 kmh WNW -- 30.15 in1021.0 mb 0.00 in0.0 mm 0.00 in0.0 mm 0.00 in0.0 mm
10:23 AM 35.0°F1.7°C 22.8°F-5.1°C 61% 16.0 mph NW25.7 kmh NW -- 30.15 in1021.0 mb 0.00 in0.0 mm 0.00 in0.0 mm 0.00 in0.0 mm
10:24 AM 34.2°F1.2°C 22.0°F-5.6°C 61% 17.0 mph WNW27.4 kmh WNW -- 30.15 in1021.0 mb 0.00 in0.0 mm 0.00 in0.0 mm 0.00 in0.0 mm
10:25 AM 34.2°F1.2°C 22.0°F-5.6°C 61% 9.0 mph NNW14.5 kmh NNW -- 30.16 in1021.3 mb 0.00 in0.0 mm 0.00 in0.0 mm 0.00 in0.0 mm
10:26 AM 34.2°F1.2°C 22.0°F-5.6°C 61% 14.0 mph WNW22.5 kmh WNW -- 30.16 in1021.3 mb 0.00 in0.0 mm 0.00 in0.0 mm 0.00 in0.0 mm
10:27 AM 34.2°F1.2°C 22.0°F-5.6°C 61% 13.0 mph WNW20.9 kmh WNW -- 30.16 in1021.3 mb 0.00 in0.0 mm 0.00 in0.0 mm 0.00 in0.0 mm
10:28 AM 34.0°F1.1°C 21.8°F-5.7°C 61% 20.0 mph NW32.2 kmh NW -- 30.16 in1021.3 mb 0.00 in0.0 mm 0.00 in0.0 mm 0.00 in0.0 mm
10:29 AM 34.2°F1.2°C 22.7°F-5.2°C 63% 9.0 mph W14.5 kmh W -- 30.16 in1021.3 mb 0.00 in0.0 mm 0.00 in0.0 mm 0.00 in0.0 mm
10:30 AM 34.9°F1.6°C 23.4°F-4.8°C 63% 6.0 mph NW9.7 kmh NW -- 30.15 in1021.0 mb 0.00 in0.0 mm 0.00 in0.0 mm 0.00 in0.0 mm
10:31 AM 35.1°F1.7°C 22.8°F-5.1°C 61% 11.0 mph NW17.7 kmh NW -- 30.15 in1021.0 mb 0.00 in0.0 mm 0.00 in0.0 mm 0.00 in0.0 mm
10:32 AM 35.0°F1.7°C 22.8°F-5.1°C 61% 13.0 mph WNW20.9 kmh WNW -- 30.15 in1021.0 mb 0.00 in0.0 mm 0.00 in0.0 mm 0.00 in0.0 mm
10:33 AM 35.0°F1.7°C 22.8°F-5.1°C 61% 7.0 mph NNW11.3 kmh NNW -- 30.16 in1021.3 mb 0.00 in0.0 mm 0.00 in0.0 mm 0.00 in0.0 mm
10:34 AM 35.4°F1.9°C 23.2°F-4.9°C 61% 8.0 mph W12.9 kmh W -- 30.16 in1021.3 mb 0.00 in0.0 mm 0.00 in0.0 mm 0.00 in0.0 mm
10:35 AM 35.9°F2.2°C 23.7°F-4.6°C 61% 6.0 mph W9.7 kmh W -- 30.16 in1021.3 mb 0.00 in0.0 mm 0.00 in0.0 mm 0.00 in0.0 mm
10:36 AM 36.5°F2.5°C 23.8°F-4.6°C 60% 7.0 mph NNW11.3 kmh NNW -- 30.16 in1021.3 mb 0.00 in0.0 mm 0.00 in0.0 mm 0.00 in0.0 mm
10:37 AM 36.9°F2.7°C 23.7°F-4.6°C 59% 6.0 mph WNW9.7 kmh WNW -- 30.16 in1021.3 mb 0.00 in0.0 mm 0.00 in0.0 mm 0.00 in0.0 mm
10:38 AM 36.9°F2.7°C 23.3°F-4.8°C 58% 7.0 mph NNW11.3 kmh NNW -- 30.16 in1021.3 mb 0.00 in0.0 mm 0.00 in0.0 mm 0.00 in0.0 mm
10:39 AM 37.0°F2.8°C 22.6°F-5.2°C 56% 10.0 mph NW16.1 kmh NW -- 30.16 in1021.3 mb 0.00 in0.0 mm 0.00 in0.0 mm 0.00 in0.0 mm
10:40 AM 37.0°F2.8°C 22.6°F-5.2°C 56% 10.0 mph WNW16.1 kmh WNW -- 30.16 in1021.3 mb 0.00 in0.0 mm 0.00 in0.0 mm 0.00 in0.0 mm
10:41 AM 37.0°F2.8°C 22.6°F-5.2°C 56% 6.0 mph W9.7 kmh W -- 30.15 in1021.0 mb 0.00 in0.0 mm 0.00 in0.0 mm 0.00 in0.0 mm
10:42 AM 37.4°F3.0°C 23.0°F-5.0°C 56% 7.0 mph 11.3 kmh -- 30.15 in1021.0 mb 0.00 in0.0 mm 0.00 in0.0 mm 0.00 in0.0 mm
10:43 AM 37.5°F3.1°C 22.7°F-5.2°C 55% 14.0 mph NW22.5 kmh NW -- 30.16 in1021.3 mb 0.00 in0.0 mm 0.00 in0.0 mm 0.00 in0.0 mm
10:44 AM 37.2°F2.9°C 22.8°F-5.1°C 56% 9.0 mph NNW14.5 kmh NNW -- 30.16 in1021.3 mb 0.00 in0.0 mm 0.00 in0.0 mm 0.00 in0.0 mm
10:45 AM 37.2°F2.9°C 22.8°F-5.1°C 56% 10.0 mph WNW16.1 kmh WNW -- 30.16 in1021.3 mb 0.00 in0.0 mm 0.00 in0.0 mm 0.00 in0.0 mm
10:46 AM 37.0°F2.8°C 22.6°F-5.2°C 56% 8.0 mph NW12.9 kmh NW -- 30.16 in1021.3 mb 0.00 in0.0 mm 0.00 in0.0 mm 0.00 in0.0 mm
10:47 AM 37.4°F3.0°C 23.0°F-5.0°C 56% 6.0 mph WNW9.7 kmh WNW -- 30.16 in1021.3 mb 0.00 in0.0 mm 0.00 in0.0 mm 0.00 in0.0 mm
10:48 AM 37.7°F3.2°C 23.3°F-4.8°C 56% 7.0 mph WNW11.3 kmh WNW -- 30.16 in1021.3 mb 0.00 in0.0 mm 0.00 in0.0 mm 0.00 in0.0 mm
10:49 AM 37.5°F3.1°C 22.7°F-5.2°C 55% 10.0 mph NW16.1 kmh NW -- 30.16 in1021.3 mb 0.00 in0.0 mm 0.00 in0.0 mm 0.00 in0.0 mm
10:50 AM 37.2°F2.9°C 22.4°F-5.3°C 55% 14.0 mph NW22.5 kmh NW -- 30.16 in1021.3 mb 0.00 in0.0 mm 0.00 in0.0 mm 0.00 in0.0 mm
10:51 AM 37.4°F3.0°C 23.0°F-5.0°C 56% 8.0 mph W12.9 kmh W -- 30.16 in1021.3 mb 0.00 in0.0 mm 0.00 in0.0 mm 0.00 in0.0 mm
10:52 AM 37.5°F3.1°C 23.1°F-4.9°C 56% 10.0 mph NNW16.1 kmh NNW -- 30.16 in1021.3 mb 0.00 in0.0 mm 0.00 in0.0 mm 0.00 in0.0 mm
10:53 AM 37.8°F3.2°C 22.9°F-5.1°C 55% 7.0 mph 11.3 kmh -- 30.16 in1021.3 mb 0.00 in0.0 mm 0.00 in0.0 mm 0.00 in0.0 mm
10:54 AM 37.8°F3.2°C 22.9°F-5.1°C 55% 13.0 mph NW20.9 kmh NW -- 30.16 in1021.3 mb 0.00 in0.0 mm 0.00 in0.0 mm 0.00 in0.0 mm
10:55 AM 37.8°F3.2°C 22.9°F-5.1°C 55% 7.0 mph NNW11.3 kmh NNW -- 30.16 in1021.3 mb 0.00 in0.0 mm 0.00 in0.0 mm 0.00 in0.0 mm
10:56 AM 37.8°F3.2°C 22.9°F-5.1°C 55% 7.0 mph W11.3 kmh W -- 30.16 in1021.3 mb 0.00 in0.0 mm 0.00 in0.0 mm 0.00 in0.0 mm
10:57 AM 37.8°F3.2°C 22.9°F-5.1°C 55% 6.0 mph W9.7 kmh W -- 30.16 in1021.3 mb 0.00 in0.0 mm 0.00 in0.0 mm 0.00 in0.0 mm
10:58 AM 37.4°F3.0°C 22.5°F-5.3°C 55% 16.0 mph W25.7 kmh W -- 30.16 in1021.3 mb 0.00 in0.0 mm 0.00 in0.0 mm 0.00 in0.0 mm
10:59 AM 37.4°F3.0°C 22.5°F-5.3°C 55% 13.0 mph W20.9 kmh W -- 30.16 in1021.3 mb 0.00 in0.0 mm 0.00 in0.0 mm 0.00 in0.0 mm
11:00 AM 37.2°F2.9°C 22.4°F-5.3°C 55% 12.0 mph NNW19.3 kmh NNW -- 30.16 in1021.3 mb 0.00 in0.0 mm 0.00 in0.0 mm 0.00 in0.0 mm
11:01 AM 37.2°F2.9°C 22.4°F-5.3°C 55% 12.0 mph WNW19.3 kmh WNW -- 30.16 in1021.3 mb 0.00 in0.0 mm 0.00 in0.0 mm 0.00 in0.0 mm
11:02 AM 37.4°F3.0°C 22.5°F-5.3°C 55% 12.0 mph WNW19.3 kmh WNW -- 30.16 in1021.3 mb 0.00 in0.0 mm 0.00 in0.0 mm 0.00 in0.0 mm
11:03 AM 37.4°F3.0°C 22.5°F-5.3°C 55% 16.0 mph WNW25.7 kmh WNW -- 30.16 in1021.3 mb 0.00 in0.0 mm 0.00 in0.0 mm 0.00 in0.0 mm
11:04 AM 37.0°F2.8°C 22.2°F-5.4°C 55% 10.0 mph NNW16.1 kmh NNW -- 30.16 in1021.3 mb 0.00 in0.0 mm 0.00 in0.0 mm 0.00 in0.0 mm
11:05 AM 36.9°F2.7°C 22.0°F-5.6°C 55% 7.0 mph NW11.3 kmh NW -- 30.16 in1021.3 mb 0.00 in0.0 mm 0.00 in0.0 mm 0.00 in0.0 mm
11:06 AM 36.7°F2.6°C 21.9°F-5.6°C 55% 12.0 mph WNW19.3 kmh WNW -- 30.16 in1021.3 mb 0.00 in0.0 mm 0.00 in0.0 mm 0.00 in0.0 mm
11:07 AM 35.9°F2.2°C 21.2°F-6.0°C 55% 15.0 mph NNW24.1 kmh NNW -- 30.16 in1021.3 mb 0.00 in0.0 mm 0.00 in0.0 mm 0.00 in0.0 mm
11:08 AM 35.5°F1.9°C 20.7°F-6.3°C 55% 13.0 mph NNW20.9 kmh NNW -- 30.16 in1021.3 mb 0.00 in0.0 mm 0.00 in0.0 mm 0.00 in0.0 mm
11:09 AM 35.1°F1.7°C 20.8°F-6.2°C 56% 17.0 mph NNW27.4 kmh NNW -- 30.16 in1021.3 mb 0.00 in0.0 mm 0.00 in0.0 mm 0.00 in0.0 mm
11:10 AM 35.4°F1.9°C 21.1°F-6.1°C 56% 10.0 mph NW16.1 kmh NW -- 30.16 in1021.3 mb 0.00 in0.0 mm 0.00 in0.0 mm 0.00 in0.0 mm
11:11 AM 35.7°F2.1°C 21.4°F-5.9°C 56% 11.0 mph NW17.7 kmh NW -- 30.16 in1021.3 mb 0.00 in0.0 mm 0.00 in0.0 mm 0.00 in0.0 mm
11:12 AM 35.9°F2.2°C 21.6°F-5.8°C 56% 17.0 mph WNW27.4 kmh WNW -- 30.16 in1021.3 mb 0.00 in0.0 mm 0.00 in0.0 mm 0.00 in0.0 mm
11:13 AM 35.9°F2.2°C 21.6°F-5.8°C 56% 13.0 mph NNW20.9 kmh NNW -- 30.16 in1021.3 mb 0.00 in0.0 mm 0.00 in0.0 mm 0.00 in0.0 mm
11:14 AM 35.5°F1.9°C 21.1°F-6.1°C 56% 15.0 mph WNW24.1 kmh WNW -- 30.16 in1021.3 mb 0.00 in0.0 mm 0.00 in0.0 mm 0.00 in0.0 mm
11:15 AM 35.4°F1.9°C 20.7°F-6.3°C 55% 15.0 mph NNW24.1 kmh NNW -- 30.16 in1021.3 mb 0.00 in0.0 mm 0.00 in0.0 mm 0.00 in0.0 mm
11:16 AM 35.4°F1.9°C 20.7°F-6.3°C 55% 12.0 mph WNW19.3 kmh WNW -- 30.16 in1021.3 mb 0.00 in0.0 mm 0.00 in0.0 mm 0.00 in0.0 mm
11:17 AM 35.1°F1.7°C 20.3°F-6.5°C 55% 13.0 mph NNW20.9 kmh NNW -- 30.16 in1021.3 mb 0.00 in0.0 mm 0.00 in0.0 mm 0.00 in0.0 mm
11:18 AM 35.4°F1.9°C 20.7°F-6.3°C 55% 8.0 mph WNW12.9 kmh WNW -- 30.16 in1021.3 mb 0.00 in0.0 mm 0.00 in0.0 mm 0.00 in0.0 mm
11:19 AM 35.5°F1.9°C 20.7°F-6.3°C 55% 13.0 mph NW20.9 kmh NW -- 30.16 in1021.3 mb 0.00 in0.0 mm 0.00 in0.0 mm 0.00 in0.0 mm
11:20 AM 35.4°F1.9°C 21.9°F-5.6°C 58% 6.0 mph W9.7 kmh W -- 30.16 in1021.3 mb 0.00 in0.0 mm 0.00 in0.0 mm 0.00 in0.0 mm
11:21 AM 35.4°F1.9°C 21.9°F-5.6°C 58% 9.0 mph W14.5 kmh W -- 30.16 in1021.3 mb 0.00 in0.0 mm 0.00 in0.0 mm 0.00 in0.0 mm
11:22 AM 35.5°F1.9°C 21.9°F-5.6°C 58% 8.0 mph NW12.9 kmh NW -- 30.16 in1021.3 mb 0.00 in0.0 mm 0.00 in0.0 mm 0.00 in0.0 mm
11:23 AM 35.7°F2.1°C 22.3°F-5.4°C 58% 11.0 mph W17.7 kmh W -- 30.16 in1021.3 mb 0.00 in0.0 mm 0.00 in0.0 mm 0.00 in0.0 mm
11:24 AM 35.7°F2.1°C 22.3°F-5.4°C 58% 10.0 mph W16.1 kmh W -- 30.16 in1021.3 mb 0.00 in0.0 mm 0.00 in0.0 mm 0.00 in0.0 mm
11:25 AM 35.7°F2.1°C 21.4°F-5.9°C 56% 11.0 mph WNW17.7 kmh WNW -- 30.16 in1021.3 mb 0.00 in0.0 mm 0.00 in0.0 mm 0.00 in0.0 mm
11:26 AM 35.7°F2.1°C 21.4°F-5.9°C 56% 13.0 mph WNW20.9 kmh WNW -- 30.16 in1021.3 mb 0.00 in0.0 mm 0.00 in0.0 mm 0.00 in0.0 mm
11:27 AM 35.9°F2.2°C 21.2°F-6.0°C 55% 10.0 mph WNW16.1 kmh WNW -- 30.16 in1021.3 mb 0.00 in0.0 mm 0.00 in0.0 mm 0.00 in0.0 mm
11:28 AM 35.7°F2.1°C 21.0°F-6.1°C 55% 9.0 mph WNW14.5 kmh WNW -- 30.17 in1021.7 mb 0.00 in0.0 mm 0.00 in0.0 mm 0.00 in0.0 mm
11:29 AM 35.4°F1.9°C 21.1°F-6.1°C 56% 10.0 mph WNW16.1 kmh WNW -- 30.16 in1021.3 mb 0.00 in0.0 mm 0.00 in0.0 mm 0.00 in0.0 mm
11:30 AM 35.1°F1.7°C 21.6°F-5.8°C 58% 11.0 mph NNW17.7 kmh NNW -- 30.16 in1021.3 mb 0.00 in0.0 mm 0.00 in0.0 mm 0.00 in0.0 mm
11:31 AM 35.1°F1.7°C 21.6°F-5.8°C 58% 11.0 mph W17.7 kmh W -- 30.16 in1021.3 mb 0.00 in0.0 mm 0.00 in0.0 mm 0.00 in0.0 mm
11:32 AM 35.4°F1.9°C 21.9°F-5.6°C 58% 13.0 mph WNW20.9 kmh WNW -- 30.16 in1021.3 mb 0.00 in0.0 mm 0.00 in0.0 mm 0.00 in0.0 mm
11:33 AM 35.9°F2.2°C 21.6°F-5.8°C 56% 10.0 mph NW16.1 kmh NW -- 30.16 in1021.3 mb 0.00 in0.0 mm 0.00 in0.0 mm 0.00 in0.0 mm
11:34 AM 36.1°F2.3°C 21.4°F-5.9°C 55% 12.0 mph NNE19.3 kmh NNE -- 30.16 in1021.3 mb 0.00 in0.0 mm 0.00 in0.0 mm 0.00 in0.0 mm
11:35 AM 36.5°F2.5°C 21.7°F-5.7°C 55% 12.0 mph WNW19.3 kmh WNW -- 30.16 in1021.3 mb 0.00 in0.0 mm 0.00 in0.0 mm 0.00 in0.0 mm
11:36 AM 37.0°F2.8°C 21.8°F-5.7°C 54% 10.0 mph NW16.1 kmh NW -- 30.17 in1021.7 mb 0.00 in0.0 mm 0.00 in0.0 mm 0.00 in0.0 mm
11:37 AM 37.4°F3.0°C 22.1°F-5.5°C 54% 9.0 mph WNW14.5 kmh WNW -- 30.17 in1021.7 mb 0.00 in0.0 mm 0.00 in0.0 mm 0.00 in0.0 mm
11:38 AM 37.8°F3.2°C 22.0°F-5.6°C 53% 11.0 mph NW17.7 kmh NW -- 30.16 in1021.3 mb 0.00 in0.0 mm 0.00 in0.0 mm 0.00 in0.0 mm
11:39 AM 38.0°F3.3°C 22.2°F-5.4°C 53% 11.0 mph NW17.7 kmh NW -- 30.16 in1021.3 mb 0.00 in0.0 mm 0.00 in0.0 mm 0.00 in0.0 mm
11:40 AM 37.4°F3.0°C 21.6°F-5.8°C 53% 9.0 mph W14.5 kmh W -- 30.16 in1021.3 mb 0.00 in0.0 mm 0.00 in0.0 mm 0.00 in0.0 mm
11:41 AM 37.5°F3.1°C 21.8°F-5.7°C 53% 11.0 mph W17.7 kmh W -- 30.16 in1021.3 mb 0.00 in0.0 mm 0.00 in0.0 mm 0.00 in0.0 mm
11:42 AM 37.5°F3.1°C 21.8°F-5.7°C 53% 13.0 mph NW20.9 kmh NW -- 30.16 in1021.3 mb 0.00 in0.0 mm 0.00 in0.0 mm 0.00 in0.0 mm
11:43 AM 37.7°F3.2°C 22.9°F-5.1°C 55% 12.0 mph WNW19.3 kmh WNW -- 30.16 in1021.3 mb 0.00 in0.0 mm 0.00 in0.0 mm 0.00 in0.0 mm
11:44 AM 37.8°F3.2°C 22.9°F-5.1°C 55% 11.0 mph NW17.7 kmh NW -- 30.16 in1021.3 mb 0.00 in0.0 mm 0.00 in0.0 mm 0.00 in0.0 mm
11:45 AM 38.2°F3.4°C 23.2°F-4.9°C 55% 7.0 mph NNW11.3 kmh NNW -- 30.16 in1021.3 mb 0.00 in0.0 mm 0.00 in0.0 mm 0.00 in0.0 mm
11:46 AM 38.0°F3.3°C 22.2°F-5.4°C 53% 16.0 mph NW25.7 kmh NW -- 30.17 in1021.7 mb 0.00 in0.0 mm 0.00 in0.0 mm 0.00 in0.0 mm
11:47 AM 37.8°F3.2°C 22.0°F-5.6°C 53% 12.0 mph NW19.3 kmh NW -- 30.16 in1021.3 mb 0.00 in0.0 mm 0.00 in0.0 mm 0.00 in0.0 mm
11:48 AM 37.7°F3.2°C 22.0°F-5.6°C 53% 12.0 mph NW19.3 kmh NW -- 30.17 in1021.7 mb 0.00 in0.0 mm 0.00 in0.0 mm 0.00 in0.0 mm
11:49 AM 37.8°F3.2°C 22.4°F-5.3°C 54% 10.0 mph NW16.1 kmh NW -- 30.16 in1021.3 mb 0.00 in0.0 mm 0.00 in0.0 mm 0.00 in0.0 mm
11:50 AM 38.4°F3.6°C 23.1°F-4.9°C 54% 10.0 mph NW16.1 kmh NW -- 30.17 in1021.7 mb 0.00 in0.0 mm 0.00 in0.0 mm 0.00 in0.0 mm
11:51 AM 38.4°F3.6°C 22.7°F-5.2°C 53% 12.0 mph NW19.3 kmh NW -- 30.16 in1021.3 mb 0.00 in0.0 mm 0.00 in0.0 mm 0.00 in0.0 mm
11:52 AM 38.2°F3.4°C 22.3°F-5.4°C 53% 8.0 mph 12.9 kmh -- 30.17 in1021.7 mb 0.00 in0.0 mm 0.00 in0.0 mm 0.00 in0.0 mm
11:53 AM 38.4°F3.6°C 22.7°F-5.2°C 53% 13.0 mph NNW20.9 kmh NNW -- 30.16 in1021.3 mb 0.00 in0.0 mm 0.00 in0.0 mm 0.00 in0.0 mm
11:54 AM 38.4°F3.6°C 22.7°F-5.2°C 53% 8.0 mph NW12.9 kmh NW -- 30.17 in1021.7 mb 0.00 in0.0 mm 0.00 in0.0 mm 0.00 in0.0 mm
11:55 AM 39.0°F3.9°C 23.6°F-4.7°C 54% 8.0 mph NNW12.9 kmh NNW -- 30.16 in1021.3 mb 0.00 in0.0 mm 0.00 in0.0 mm 0.00 in0.0 mm
11:56 AM 39.0°F3.9°C 23.2°F-4.9°C 53% 15.0 mph NNW24.1 kmh NNW -- 30.16 in1021.3 mb 0.00 in0.0 mm 0.00 in0.0 mm 0.00 in0.0 mm
11:57 AM 38.7°F3.7°C 22.8°F-5.1°C 53% 16.0 mph 25.7 kmh -- 30.16 in1021.3 mb 0.00 in0.0 mm 0.00 in0.0 mm 0.00 in0.0 mm
11:58 AM 38.4°F3.6°C 22.7°F-5.2°C 53% 16.0 mph 25.7 kmh -- 30.16 in1021.3 mb 0.00 in0.0 mm 0.00 in0.0 mm 0.00 in0.0 mm
11:59 AM 38.4°F3.6°C 23.1°F-4.9°C 54% 8.0 mph NNW12.9 kmh NNW -- 30.16 in1021.3 mb 0.00 in0.0 mm 0.00 in0.0 mm 0.00 in0.0 mm
12:00 PM 38.0°F3.3°C 21.2°F-6.0°C 51% 11.0 mph NW17.7 kmh NW -- 30.16 in1021.3 mb 0.00 in0.0 mm 0.00 in0.0 mm 0.00 in0.0 mm
12:01 PM 37.2°F2.9°C 21.5°F-5.8°C 53% 16.0 mph NW25.7 kmh NW -- 30.16 in1021.3 mb 0.00 in0.0 mm 0.00 in0.0 mm 0.00 in0.0 mm
12:02 PM 36.9°F2.7°C 20.2°F-6.6°C 51% 15.0 mph NNW24.1 kmh NNW -- 30.16 in1021.3 mb 0.00 in0.0 mm 0.00 in0.0 mm 0.00 in0.0 mm
12:03 PM 36.9°F2.7°C 20.2°F-6.6°C 51% 12.0 mph NW19.3 kmh NW -- 30.17 in1021.7 mb 0.00 in0.0 mm 0.00 in0.0 mm 0.00 in0.0 mm
12:04 PM 36.9°F2.7°C 20.2°F-6.6°C 51% 13.0 mph WNW20.9 kmh WNW -- 30.17 in1021.7 mb 0.00 in0.0 mm 0.00 in0.0 mm 0.00 in0.0 mm
12:05 PM 37.2°F2.9°C 20.1°F-6.6°C 50% 11.0 mph NW17.7 kmh NW -- 30.16 in1021.3 mb 0.00 in0.0 mm 0.00 in0.0 mm 0.00 in0.0 mm
12:06 PM 37.5°F3.1°C 20.9°F-6.2°C 51% 9.0 mph WNW14.5 kmh WNW -- 30.16 in1021.3 mb 0.00 in0.0 mm 0.00 in0.0 mm 0.00 in0.0 mm
12:07 PM 37.8°F3.2°C 21.1°F-6.1°C 51% 11.0 mph NNW17.7 kmh NNW -- 30.16 in1021.3 mb 0.00 in0.0 mm 0.00 in0.0 mm 0.00 in0.0 mm
12:08 PM 38.2°F3.4°C 22.8°F-5.1°C 54% 10.0 mph NNW16.1 kmh NNW -- 30.16 in1021.3 mb 0.00 in0.0 mm 0.00 in0.0 mm 0.00 in0.0 mm
12:09 PM 38.4°F3.6°C 23.1°F-4.9°C 54% 9.0 mph W14.5 kmh W -- 30.17 in1021.7 mb 0.00 in0.0 mm 0.00 in0.0 mm 0.00 in0.0 mm
12:10 PM 39.0°F3.9°C 23.2°F-4.9°C 53% 13.0 mph WNW20.9 kmh WNW -- 30.17 in1021.7 mb 0.00 in0.0 mm 0.00 in0.0 mm 0.00 in0.0 mm
12:11 PM 38.7°F3.7°C 21.4°F-5.9°C 50% 9.0 mph WNW14.5 kmh WNW -- 30.17 in1021.7 mb 0.00 in0.0 mm 0.00 in0.0 mm 0.00 in0.0 mm
12:12 PM 38.7°F3.7°C 21.0°F-6.1°C 49% 8.0 mph NW12.9 kmh NW -- 30.17 in1021.7 mb 0.00 in0.0 mm 0.00 in0.0 mm 0.00 in0.0 mm
12:13 PM 39.0°F3.9°C 21.8°F-5.7°C 50% 10.0 mph NW16.1 kmh NW -- 30.16 in1021.3 mb 0.00 in0.0 mm 0.00 in0.0 mm 0.00 in0.0 mm
12:14 PM 39.2°F4.0°C 21.9°F-5.6°C 50% 8.0 mph NNE12.9 kmh NNE -- 30.16 in1021.3 mb 0.00 in0.0 mm 0.00 in0.0 mm 0.00 in0.0 mm
12:15 PM 39.4°F4.1°C 22.6°F-5.2°C 51% 15.0 mph W24.1 kmh W -- 30.16 in1021.3 mb 0.00 in0.0 mm 0.00 in0.0 mm 0.00 in0.0 mm
12:16 PM 39.4°F4.1°C 23.5°F-4.7°C 53% 10.0 mph WNW16.1 kmh WNW -- 30.16 in1021.3 mb 0.00 in0.0 mm 0.00 in0.0 mm 0.00 in0.0 mm
12:17 PM 39.2°F4.0°C 22.4°F-5.3°C 51% 15.0 mph NNW24.1 kmh NNW -- 30.16 in1021.3 mb 0.00 in0.0 mm 0.00 in0.0 mm 0.00 in0.0 mm
12:18 PM 39.2°F4.0°C 21.9°F-5.6°C 50% 8.0 mph W12.9 kmh W -- 30.17 in1021.7 mb 0.00 in0.0 mm 0.00 in0.0 mm 0.00 in0.0 mm
12:19 PM 39.2°F4.0°C 22.4°F-5.3°C 51% 9.0 mph NNW14.5 kmh NNW -- 30.17 in1021.7 mb 0.00 in0.0 mm 0.00 in0.0 mm 0.00 in0.0 mm
12:20 PM 38.7°F3.7°C 23.3°F-4.8°C 54% 17.0 mph NW27.4 kmh NW -- 30.17 in1021.7 mb 0.00 in0.0 mm 0.00 in0.0 mm 0.00 in0.0 mm
12:21 PM 38.4°F3.6°C 23.1°F-4.9°C 54% 14.0 mph WNW22.5 kmh WNW -- 30.17 in1021.7 mb 0.00 in0.0 mm 0.00 in0.0 mm 0.00 in0.0 mm
12:22 PM 38.2°F3.4°C 22.8°F-5.1°C 54% 10.0 mph NNW16.1 kmh NNW -- 30.17 in1021.7 mb 0.00 in0.0 mm 0.00 in0.0 mm 0.00 in0.0 mm
12:23 PM 38.4°F3.6°C 23.1°F-4.9°C 54% 9.0 mph WNW14.5 kmh WNW -- 30.17 in1021.7 mb 0.00 in0.0 mm 0.00 in0.0 mm 0.00 in0.0 mm
12:24 PM 38.4°F3.6°C 23.1°F-4.9°C 54% 12.0 mph NE19.3 kmh NE -- 30.17 in1021.7 mb 0.00 in0.0 mm 0.00 in0.0 mm 0.00 in0.0 mm
12:25 PM 38.7°F3.7°C 22.8°F-5.1°C 53% 10.0 mph NNE16.1 kmh NNE -- 30.16 in1021.3 mb 0.00 in0.0 mm 0.00 in0.0 mm 0.00 in0.0 mm
12:26 PM 39.0°F3.9°C 23.2°F-4.9°C 53% 11.0 mph NNW17.7 kmh NNW -- 30.17 in1021.7 mb 0.00 in0.0 mm 0.00 in0.0 mm 0.00 in0.0 mm
12:27 PM 39.2°F4.0°C 23.3°F-4.8°C 53% 13.0 mph NNW20.9 kmh NNW -- 30.16 in1021.3 mb 0.00 in0.0 mm 0.00 in0.0 mm 0.00 in0.0 mm
12:28 PM 39.4°F4.1°C 23.5°F-4.7°C 53% 7.0 mph WNW11.3 kmh WNW -- 30.17 in1021.7 mb 0.00 in0.0 mm 0.00 in0.0 mm 0.00 in0.0 mm
12:29 PM 39.4°F4.1°C 23.5°F-4.7°C 53% 7.0 mph NNW11.3 kmh NNW -- 30.16 in1021.3 mb 0.00 in0.0 mm 0.00 in0.0 mm 0.00 in0.0 mm
12:30 PM 39.7°F4.3°C 22.9°F-5.1°C 51% 11.0 mph NW17.7 kmh NW -- 30.17 in1021.7 mb 0.00 in0.0 mm 0.00 in0.0 mm 0.00 in0.0 mm
12:31 PM 39.9°F4.4°C 23.1°F-4.9°C 51% 11.0 mph NW17.7 kmh NW -- 30.16 in1021.3 mb 0.00 in0.0 mm 0.00 in0.0 mm 0.00 in0.0 mm
12:32 PM 39.9°F4.4°C 23.1°F-4.9°C 51% 13.0 mph NNW20.9 kmh NNW -- 30.16 in1021.3 mb 0.00 in0.0 mm 0.00 in0.0 mm 0.00 in0.0 mm
12:33 PM 39.5°F4.2°C 22.7°F-5.2°C 51% 7.0 mph W11.3 kmh W -- 30.17 in1021.7 mb 0.00 in0.0 mm 0.00 in0.0 mm 0.00 in0.0 mm
12:35 PM 39.7°F4.3°C 22.9°F-5.1°C 51% 10.0 mph 16.1 kmh -- 30.16 in1021.3 mb 0.00 in0.0 mm 0.00 in0.0 mm 0.00 in0.0 mm
12:36 PM 39.5°F4.2°C 22.3°F-5.4°C 50% 9.0 mph NNW14.5 kmh NNW -- 30.16 in1021.3 mb 0.00 in0.0 mm 0.00 in0.0 mm 0.00 in0.0 mm
12:37 PM 39.5°F4.2°C 22.3°F-5.4°C 50% 12.0 mph WNW19.3 kmh WNW -- 30.16 in1021.3 mb 0.00 in0.0 mm 0.00 in0.0 mm 0.00 in0.0 mm
12:38 PM 39.5°F4.2°C 22.3°F-5.4°C 50% 8.0 mph NW12.9 kmh NW -- 30.16 in1021.3 mb 0.00 in0.0 mm 0.00 in0.0 mm 0.00 in0.0 mm
12:39 PM 39.9°F4.4°C 22.6°F-5.2°C 50% 10.0 mph NNE16.1 kmh NNE -- 30.16 in1021.3 mb 0.00 in0.0 mm 0.00 in0.0 mm 0.00 in0.0 mm
12:40 PM 39.9°F4.4°C 22.6°F-5.2°C 50% 7.0 mph NNW11.3 kmh NNW -- 30.16 in1021.3 mb 0.00 in0.0 mm 0.00 in0.0 mm 0.00 in0.0 mm
12:41 PM 40.0°F4.4°C 22.6°F-5.2°C 50% 16.0 mph NNW25.7 kmh NNW -- 30.16 in1021.3 mb 0.00 in0.0 mm 0.00 in0.0 mm 0.00 in0.0 mm
12:42 PM 39.9°F4.4°C 22.6°F-5.2°C 50% 10.0 mph WNW16.1 kmh WNW -- 30.16 in1021.3 mb 0.00 in0.0 mm 0.00 in0.0 mm 0.00 in0.0 mm
12:43 PM 39.9°F4.4°C 22.6°F-5.2°C 50% 5.0 mph WNW8.0 kmh WNW -- 30.16 in1021.3 mb 0.00 in0.0 mm 0.00 in0.0 mm 0.00 in0.0 mm
12:44 PM 40.2°F4.6°C 23.4°F-4.8°C 51% 11.0 mph WNW17.7 kmh WNW -- 30.16 in1021.3 mb 0.00 in0.0 mm 0.00 in0.0 mm 0.00 in0.0 mm
12:45 PM 40.2°F4.6°C 22.9°F-5.1°C 50% 11.0 mph NW17.7 kmh NW -- 30.16 in1021.3 mb 0.00 in0.0 mm 0.00 in0.0 mm 0.00 in0.0 mm
12:46 PM 40.0°F4.4°C 22.6°F-5.2°C 50% 5.0 mph NNW8.0 kmh NNW -- 30.16 in1021.3 mb 0.00 in0.0 mm 0.00 in0.0 mm 0.00 in0.0 mm
12:47 PM 40.2°F4.6°C 22.9°F-5.1°C 50% 6.0 mph NNW9.7 kmh NNW -- 30.17 in1021.7 mb 0.00 in0.0 mm 0.00 in0.0 mm 0.00 in0.0 mm
12:48 PM 40.5°F4.7°C 23.1°F-4.9°C 50% 10.0 mph 16.1 kmh -- 30.17 in1021.7 mb 0.00 in0.0 mm 0.00 in0.0 mm 0.00 in0.0 mm
12:49 PM 40.7°F4.8°C 23.3°F-4.8°C 50% 6.0 mph NNE9.7 kmh NNE -- 30.17 in1021.7 mb 0.00 in0.0 mm 0.00 in0.0 mm 0.00 in0.0 mm
12:50 PM 40.9°F4.9°C 22.9°F-5.1°C 49% 9.0 mph NNW14.5 kmh NNW -- 30.17 in1021.7 mb 0.00 in0.0 mm 0.00 in0.0 mm 0.00 in0.0 mm
12:51 PM 40.7°F4.8°C 22.8°F-5.1°C 49% 9.0 mph NNE14.5 kmh NNE -- 30.17 in1021.7 mb 0.00 in0.0 mm 0.00 in0.0 mm 0.00 in0.0 mm
12:52 PM 40.5°F4.7°C 22.6°F-5.2°C 49% 5.0 mph NNW8.0 kmh NNW -- 30.17 in1021.7 mb 0.00 in0.0 mm 0.00 in0.0 mm 0.00 in0.0 mm
12:53 PM 40.5°F4.7°C 22.6°F-5.2°C 49% 8.0 mph NNE12.9 kmh NNE -- 30.17 in1021.7 mb 0.00 in0.0 mm 0.00 in0.0 mm 0.00 in0.0 mm
12:54 PM 40.7°F4.8°C 22.8°F-5.1°C 49% 9.0 mph W14.5 kmh W -- 30.16 in1021.3 mb 0.00 in0.0 mm 0.00 in0.0 mm 0.00 in0.0 mm
12:55 PM 41.1°F5.1°C 23.3°F-4.8°C 49% 6.0 mph NNE9.7 kmh NNE -- 30.16 in1021.3 mb 0.00 in0.0 mm 0.00 in0.0 mm 0.00 in0.0 mm
12:56 PM 41.4°F5.2°C 23.4°F-4.8°C 49% 11.0 mph NW17.7 kmh NW -- 30.16 in1021.3 mb 0.00 in0.0 mm 0.00 in0.0 mm 0.00 in0.0 mm
12:57 PM 41.1°F5.1°C 23.3°F-4.8°C 49% 8.0 mph NNW12.9 kmh NNW -- 30.17 in1021.7 mb 0.00 in0.0 mm 0.00 in0.0 mm 0.00 in0.0 mm
12:58 PM 40.7°F4.8°C 22.8°F-5.1°C 49% 13.0 mph WNW20.9 kmh WNW -- 30.17 in1021.7 mb 0.00 in0.0 mm 0.00 in0.0 mm 0.00 in0.0 mm
12:59 PM 40.5°F4.7°C 22.6°F-5.2°C 49% 11.0 mph NW17.7 kmh NW -- 30.17 in1021.7 mb 0.00 in0.0 mm 0.00 in0.0 mm 0.00 in0.0 mm
01:00 PM 39.7°F4.3°C 21.9°F-5.6°C 49% 9.0 mph W14.5 kmh W -- 30.17 in1021.7 mb 0.00 in0.0 mm 0.00 in0.0 mm 0.00 in0.0 mm
01:01 PM 39.7°F4.3°C 21.9°F-5.6°C 49% 11.0 mph NNW17.7 kmh NNW -- 30.17 in1021.7 mb 0.00 in0.0 mm 0.00 in0.0 mm 0.00 in0.0 mm
01:02 PM 39.7°F4.3°C 21.9°F-5.6°C 49% 6.0 mph W9.7 kmh W -- 30.17 in1021.7 mb 0.00 in0.0 mm 0.00 in0.0 mm 0.00 in0.0 mm
01:03 PM 40.5°F4.7°C 22.1°F-5.5°C 48% 4.0 mph WNW6.4 kmh WNW -- 30.17 in1021.7 mb 0.00 in0.0 mm 0.00 in0.0 mm 0.00 in0.0 mm
01:04 PM 40.9°F4.9°C 22.5°F-5.3°C 48% 8.0 mph NNW12.9 kmh NNW -- 30.17 in1021.7 mb 0.00 in0.0 mm 0.00 in0.0 mm 0.00 in0.0 mm
01:05 PM 41.4°F5.2°C 21.9°F-5.6°C 46% 8.0 mph NNW12.9 kmh NNW -- 30.17 in1021.7 mb 0.00 in0.0 mm 0.00 in0.0 mm 0.00 in0.0 mm
01:06 PM 41.9°F5.5°C 22.4°F-5.3°C 46% 9.0 mph WNW14.5 kmh WNW -- 30.17 in1021.7 mb 0.00 in0.0 mm 0.00 in0.0 mm 0.00 in0.0 mm
01:07 PM 41.5°F5.3°C 22.1°F-5.5°C 46% 9.0 mph NW14.5 kmh NW -- 30.17 in1021.7 mb 0.00 in0.0 mm 0.00 in0.0 mm 0.00 in0.0 mm
01:08 PM 41.5°F5.3°C 23.1°F-4.9°C 48% 6.0 mph NNW9.7 kmh NNW -- 30.16 in1021.3 mb 0.00 in0.0 mm 0.00 in0.0 mm 0.00 in0.0 mm
01:09 PM 41.5°F5.3°C 23.1°F-4.9°C 48% 9.0 mph W14.5 kmh W -- 30.17 in1021.7 mb 0.00 in0.0 mm 0.00 in0.0 mm 0.00 in0.0 mm
01:10 PM 41.4°F5.2°C 22.9°F-5.1°C 48% 10.0 mph NW16.1 kmh NW -- 30.17 in1021.7 mb 0.00 in0.0 mm 0.00 in0.0 mm 0.00 in0.0 mm
01:11 PM 40.9°F4.9°C 22.5°F-5.3°C 48% 10.0 mph NW16.1 kmh NW -- 30.17 in1021.7 mb 0.00 in0.0 mm 0.00 in0.0 mm 0.00 in0.0 mm
01:12 PM 40.9°F4.9°C 22.5°F-5.3°C 48% 8.0 mph NW12.9 kmh NW -- 30.17 in1021.7 mb 0.00 in0.0 mm 0.00 in0.0 mm 0.00 in0.0 mm
01:13 PM 40.9°F4.9°C 22.5°F-5.3°C 48% 7.0 mph NNW11.3 kmh NNW -- 30.16 in1021.3 mb 0.00 in0.0 mm 0.00 in0.0 mm 0.00 in0.0 mm
01:14 PM 40.9°F4.9°C 22.9°F-5.1°C 49% 7.0 mph SSW11.3 kmh SSW -- 30.17 in1021.7 mb 0.00 in0.0 mm 0.00 in0.0 mm 0.00 in0.0 mm
01:15 PM 41.7°F5.4°C 23.8°F-4.6°C 49% 15.0 mph NNE24.1 kmh NNE -- 30.16 in1021.3 mb 0.00 in0.0 mm 0.00 in0.0 mm 0.00 in0.0 mm
01:16 PM 41.9°F5.5°C 22.4°F-5.3°C 46% 10.0 mph NW16.1 kmh NW -- 30.16 in1021.3 mb 0.00 in0.0 mm 0.00 in0.0 mm 0.00 in0.0 mm
01:17 PM 41.9°F5.5°C 22.4°F-5.3°C 46% 10.0 mph WNW16.1 kmh WNW -- 30.16 in1021.3 mb 0.00 in0.0 mm 0.00 in0.0 mm 0.00 in0.0 mm
01:18 PM 41.7°F5.4°C 22.3°F-5.4°C 46% 9.0 mph NW14.5 kmh NW -- 30.17 in1021.7 mb 0.00 in0.0 mm 0.00 in0.0 mm 0.00 in0.0 mm
01:19 PM 41.9°F5.5°C 22.4°F-5.3°C 46% 8.0 mph WNW12.9 kmh WNW -- 30.17 in1021.7 mb 0.00 in0.0 mm 0.00 in0.0 mm 0.00 in0.0 mm
01:20 PM 41.7°F5.4°C 22.3°F-5.4°C 46% 9.0 mph WNW14.5 kmh WNW -- 30.17 in1021.7 mb 0.00 in0.0 mm 0.00 in0.0 mm 0.00 in0.0 mm
01:21 PM 41.7°F5.4°C 23.3°F-4.8°C 48% 6.0 mph NW9.7 kmh NW -- 30.17 in1021.7 mb 0.00 in0.0 mm 0.00 in0.0 mm 0.00 in0.0 mm
01:22 PM 42.1°F5.6°C 23.6°F-4.7°C 48% 5.0 mph W8.0 kmh W -- 30.17 in1021.7 mb 0.00 in0.0 mm 0.00 in0.0 mm 0.00 in0.0 mm
01:23 PM 43.2°F6.2°C 23.1°F-4.9°C 45% 6.0 mph WSW9.7 kmh WSW -- 30.16 in1021.3 mb 0.00 in0.0 mm 0.00 in0.0 mm 0.00 in0.0 mm
01:24 PM 43.6°F6.4°C 23.9°F-4.5°C 46% 4.0 mph NW6.4 kmh NW -- 30.17 in1021.7 mb 0.00 in0.0 mm 0.00 in0.0 mm 0.00 in0.0 mm
01:25 PM 43.2°F6.2°C 23.6°F-4.7°C 46% 6.0 mph NNE9.7 kmh NNE -- 30.16 in1021.3 mb 0.00 in0.0 mm 0.00 in0.0 mm 0.00 in0.0 mm
01:26 PM 42.3°F5.7°C 23.8°F-4.6°C 48% 9.0 mph WNW14.5 kmh WNW -- 30.16 in1021.3 mb 0.00 in0.0 mm 0.00 in0.0 mm 0.00 in0.0 mm
01:27 PM 41.5°F5.3°C 23.6°F-4.7°C 49% 5.0 mph NW8.0 kmh NW -- 30.16 in1021.3 mb 0.00 in0.0 mm 0.00 in0.0 mm 0.00 in0.0 mm
01:28 PM 40.5°F4.7°C 23.1°F-4.9°C 50% 8.0 mph 12.9 kmh -- 30.16 in1021.3 mb 0.00 in0.0 mm 0.00 in0.0 mm 0.00 in0.0 mm
01:29 PM 40.0°F4.4°C 23.1°F-4.9°C 51% 3.0 mph NW4.8 kmh NW -- 30.16 in1021.3 mb 0.00 in0.0 mm 0.00 in0.0 mm 0.00 in0.0 mm
01:30 PM 39.7°F4.3°C 22.4°F-5.3°C 50% 7.0 mph 11.3 kmh -- 30.16 in1021.3 mb 0.00 in0.0 mm 0.00 in0.0 mm 0.00 in0.0 mm
01:31 PM 39.9°F4.4°C 22.1°F-5.5°C 49% 9.0 mph NW14.5 kmh NW -- 30.16 in1021.3 mb 0.00 in0.0 mm 0.00 in0.0 mm 0.00 in0.0 mm
01:32 PM 39.9°F4.4°C 22.1°F-5.5°C 49% 11.0 mph NW17.7 kmh NW -- 30.17 in1021.7 mb 0.00 in0.0 mm 0.00 in0.0 mm 0.00 in0.0 mm
01:33 PM 39.7°F4.3°C 21.9°F-5.6°C 49% 9.0 mph WNW14.5 kmh WNW -- 30.17 in1021.7 mb 0.00 in0.0 mm 0.00 in0.0 mm 0.00 in0.0 mm
01:34 PM 39.5°F4.2°C 21.8°F-5.7°C 49% 7.0 mph 11.3 kmh -- 30.16 in1021.3 mb 0.00 in0.0 mm 0.00 in0.0 mm 0.00 in0.0 mm
01:35 PM 39.2°F4.0°C 21.9°F-5.6°C 50% 10.0 mph NNW16.1 kmh NNW -- 30.16 in1021.3 mb 0.00 in0.0 mm 0.00 in0.0 mm 0.00 in0.0 mm
01:36 PM 39.2°F4.0°C 21.9°F-5.6°C 50% 10.0 mph NW16.1 kmh NW -- 30.16 in1021.3 mb 0.00 in0.0 mm 0.00 in0.0 mm 0.00 in0.0 mm
01:37 PM 39.2°F4.0°C 21.9°F-5.6°C 50% 8.0 mph WNW12.9 kmh WNW -- 30.17 in1021.7 mb 0.00 in0.0 mm 0.00 in0.0 mm 0.00 in0.0 mm
01:38 PM 39.0°F3.9°C 22.2°F-5.4°C 51% 7.0 mph NW11.3 kmh NW -- 30.17 in1021.7 mb 0.00 in0.0 mm 0.00 in0.0 mm 0.00 in0.0 mm
01:39 PM 38.7°F3.7°C 21.9°F-5.6°C 51% 5.0 mph NW8.0 kmh NW -- 30.17 in1021.7 mb 0.00 in0.0 mm 0.00 in0.0 mm 0.00 in0.0 mm
01:40 PM 38.7°F3.7°C 21.9°F-5.6°C 51% 5.0 mph WNW8.0 kmh WNW -- 30.16 in1021.3 mb 0.00 in0.0 mm 0.00 in0.0 mm 0.00 in0.0 mm
01:41 PM 38.7°F3.7°C 22.8°F-5.1°C 53% 8.0 mph NW12.9 kmh NW -- 30.16 in1021.3 mb 0.00 in0.0 mm 0.00 in0.0 mm 0.00 in0.0 mm
01:42 PM 38.4°F3.6°C 22.7°F-5.2°C 53% 4.0 mph W6.4 kmh W -- 30.16 in1021.3 mb 0.00 in0.0 mm 0.00 in0.0 mm 0.00 in0.0 mm
01:43 PM 38.4°F3.6°C 22.7°F-5.2°C 53% 8.0 mph NE12.9 kmh NE -- 30.16 in1021.3 mb 0.00 in0.0 mm 0.00 in0.0 mm 0.00 in0.0 mm
01:44 PM 38.2°F3.4°C 22.8°F-5.1°C 54% 7.0 mph NE11.3 kmh NE -- 30.16 in1021.3 mb 0.00 in0.0 mm 0.00 in0.0 mm 0.00 in0.0 mm
01:45 PM 38.0°F3.3°C 22.6°F-5.2°C 54% 8.0 mph NE12.9 kmh NE -- 30.16 in1021.3 mb 0.00 in0.0 mm 0.00 in0.0 mm 0.00 in0.0 mm
01:46 PM 37.8°F3.2°C 22.4°F-5.3°C 54% 4.0 mph NNW6.4 kmh NNW -- 30.16 in1021.3 mb 0.00 in0.0 mm 0.00 in0.0 mm 0.00 in0.0 mm
01:47 PM 37.2°F2.9°C 21.9°F-5.6°C 54% 6.0 mph NNW9.7 kmh NNW -- 30.16 in1021.3 mb 0.00 in0.0 mm 0.00 in0.0 mm 0.00 in0.0 mm
01:48 PM 37.4°F3.0°C 22.1°F-5.5°C 54% 11.0 mph NNW17.7 kmh NNW -- 30.16 in1021.3 mb 0.00 in0.0 mm 0.00 in0.0 mm 0.00 in0.0 mm
01:49 PM 37.4°F3.0°C 22.1°F-5.5°C 54% 13.0 mph NW20.9 kmh NW -- 30.16 in1021.3 mb 0.00 in0.0 mm 0.00 in0.0 mm 0.00 in0.0 mm
01:50 PM 37.2°F2.9°C 21.9°F-5.6°C 54% 7.0 mph NNW11.3 kmh NNW -- 30.16 in1021.3 mb 0.00 in0.0 mm 0.00 in0.0 mm 0.00 in0.0 mm
01:51 PM 37.2°F2.9°C 21.9°F-5.6°C 54% 12.0 mph NNW19.3 kmh NNW -- 30.16 in1021.3 mb 0.00 in0.0 mm 0.00 in0.0 mm 0.00 in0.0 mm
01:52 PM 37.0°F2.8°C 21.3°F-5.9°C 53% 6.0 mph NNW9.7 kmh NNW -- 30.16 in1021.3 mb 0.00 in0.0 mm 0.00 in0.0 mm 0.00 in0.0 mm
01:53 PM 37.0°F2.8°C 21.3°F-5.9°C 53% 7.0 mph WNW11.3 kmh WNW -- 30.16 in1021.3 mb 0.00 in0.0 mm 0.00 in0.0 mm 0.00 in0.0 mm
01:54 PM 37.0°F2.8°C 21.3°F-5.9°C 53% 8.0 mph NNW12.9 kmh NNW -- 30.16 in1021.3 mb 0.00 in0.0 mm 0.00 in0.0 mm 0.00 in0.0 mm
01:55 PM 37.0°F2.8°C 21.3°F-5.9°C 53% 9.0 mph NW14.5 kmh NW -- 30.16 in1021.3 mb 0.00 in0.0 mm 0.00 in0.0 mm 0.00 in0.0 mm
01:56 PM 37.0°F2.8°C 21.8°F-5.7°C 54% 5.0 mph NNW8.0 kmh NNW -- 30.16 in1021.3 mb 0.00 in0.0 mm 0.00 in0.0 mm 0.00 in0.0 mm
01:57 PM 37.0°F2.8°C 21.8°F-5.7°C 54% 8.0 mph NW12.9 kmh NW -- 30.16 in1021.3 mb 0.00 in0.0 mm 0.00 in0.0 mm 0.00 in0.0 mm
01:58 PM 37.0°F2.8°C 21.8°F-5.7°C 54% 7.0 mph 11.3 kmh -- 30.16 in1021.3 mb 0.00 in0.0 mm 0.00 in0.0 mm 0.00 in0.0 mm
01:59 PM 37.0°F2.8°C 21.8°F-5.7°C 54% 6.0 mph NNW9.7 kmh NNW -- 30.16 in1021.3 mb 0.00 in0.0 mm 0.00 in0.0 mm 0.00 in0.0 mm
02:00 PM 37.2°F2.9°C 21.9°F-5.6°C 54% 12.0 mph NNW19.3 kmh NNW -- 30.15 in1021.0 mb 0.00 in0.0 mm 0.00 in0.0 mm 0.00 in0.0 mm
02:01 PM 37.0°F2.8°C 22.2°F-5.4°C 55% 8.0 mph NNW12.9 kmh NNW -- 30.15 in1021.0 mb 0.00 in0.0 mm 0.00 in0.0 mm 0.00 in0.0 mm
02:02 PM 37.0°F2.8°C 21.8°F-5.7°C 54% 8.0 mph NW12.9 kmh NW -- 30.16 in1021.3 mb 0.00 in0.0 mm 0.00 in0.0 mm 0.00 in0.0 mm
02:03 PM 37.0°F2.8°C 21.8°F-5.7°C 54% 9.0 mph NW14.5 kmh NW -- 30.16 in1021.3 mb 0.00 in0.0 mm 0.00 in0.0 mm 0.00 in0.0 mm
02:04 PM 36.9°F2.7°C 21.6°F-5.8°C 54% 9.0 mph WNW14.5 kmh WNW -- 30.16 in1021.3 mb 0.00 in0.0 mm 0.00 in0.0 mm 0.00 in0.0 mm
02:05 PM 36.7°F2.6°C 21.4°F-5.9°C 54% 6.0 mph NW9.7 kmh NW -- 30.16 in1021.3 mb 0.00 in0.0 mm 0.00 in0.0 mm 0.00 in0.0 mm
02:06 PM 36.7°F2.6°C 21.4°F-5.9°C 54% 7.0 mph WNW11.3 kmh WNW -- 30.16 in1021.3 mb 0.00 in0.0 mm 0.00 in0.0 mm 0.00 in0.0 mm
02:07 PM 36.7°F2.6°C 21.9°F-5.6°C 55% 6.0 mph 9.7 kmh -- 30.16 in1021.3 mb 0.00 in0.0 mm 0.00 in0.0 mm 0.00 in0.0 mm
02:08 PM 36.9°F2.7°C 22.0°F-5.6°C 55% 6.0 mph 9.7 kmh -- 30.16 in1021.3 mb 0.00 in0.0 mm 0.00 in0.0 mm 0.00 in0.0 mm
02:09 PM 36.9°F2.7°C 22.0°F-5.6°C 55% 4.0 mph WNW6.4 kmh WNW -- 30.16 in1021.3 mb 0.00 in0.0 mm 0.00 in0.0 mm 0.00 in0.0 mm
02:10 PM 37.0°F2.8°C 22.2°F-5.4°C 55% 8.0 mph NNW12.9 kmh NNW -- 30.15 in1021.0 mb 0.00 in0.0 mm 0.00 in0.0 mm 0.00 in0.0 mm
02:11 PM 37.0°F2.8°C 22.2°F-5.4°C 55% 5.0 mph ENE8.0 kmh ENE -- 30.15 in1021.0 mb 0.00 in0.0 mm 0.00 in0.0 mm 0.00 in0.0 mm
02:12 PM 37.0°F2.8°C 22.2°F-5.4°C 55% 3.0 mph NNW4.8 kmh NNW -- 30.15 in1021.0 mb 0.00 in0.0 mm 0.00 in0.0 mm 0.00 in0.0 mm
02:13 PM 37.4°F3.0°C 22.5°F-5.3°C 55% 7.0 mph WNW11.3 kmh WNW -- 30.15 in1021.0 mb 0.00 in0.0 mm 0.00 in0.0 mm 0.00 in0.0 mm
02:14 PM 37.4°F3.0°C 22.5°F-5.3°C 55% 9.0 mph NNW14.5 kmh NNW -- 30.15 in1021.0 mb 0.00 in0.0 mm 0.00 in0.0 mm 0.00 in0.0 mm
02:15 PM 37.0°F2.8°C 22.2°F-5.4°C 55% 6.0 mph NW9.7 kmh NW -- 30.15 in1021.0 mb 0.00 in0.0 mm 0.00 in0.0 mm 0.00 in0.0 mm
02:16 PM 37.0°F2.8°C 22.2°F-5.4°C 55% 10.0 mph NNW16.1 kmh NNW -- 30.15 in1021.0 mb 0.00 in0.0 mm 0.00 in0.0 mm 0.00 in0.0 mm
02:17 PM 37.0°F2.8°C 22.2°F-5.4°C 55% 6.0 mph W9.7 kmh W -- 30.15 in1021.0 mb 0.00 in0.0 mm 0.00 in0.0 mm 0.00 in0.0 mm
02:18 PM 36.7°F2.6°C 21.9°F-5.6°C 55% 5.0 mph NW8.0 kmh NW -- 30.15 in1021.0 mb 0.00 in0.0 mm 0.00 in0.0 mm 0.00 in0.0 mm
02:19 PM 36.7°F2.6°C 21.9°F-5.6°C 55% 6.0 mph 9.7 kmh -- 30.15 in1021.0 mb 0.00 in0.0 mm 0.00 in0.0 mm 0.00 in0.0 mm
02:20 PM 36.5°F2.5°C 21.7°F-5.7°C 55% 7.0 mph NNW11.3 kmh NNW -- 30.16 in1021.3 mb 0.00 in0.0 mm 0.00 in0.0 mm 0.00 in0.0 mm
02:21 PM 36.5°F2.5°C 21.7°F-5.7°C 55% 11.0 mph NNW17.7 kmh NNW -- 30.15 in1021.0 mb 0.00 in0.0 mm 0.00 in0.0 mm 0.00 in0.0 mm
02:22 PM 36.5°F2.5°C 21.3°F-5.9°C 54% 8.0 mph NW12.9 kmh NW -- 30.15 in1021.0 mb 0.00 in0.0 mm 0.00 in0.0 mm 0.00 in0.0 mm
02:23 PM 36.5°F2.5°C 21.3°F-5.9°C 54% 7.0 mph NNW11.3 kmh NNW -- 30.15 in1021.0 mb 0.00 in0.0 mm 0.00 in0.0 mm 0.00 in0.0 mm
02:24 PM 36.5°F2.5°C 21.3°F-5.9°C 54% 7.0 mph NNW11.3 kmh NNW -- 30.16 in1021.3 mb 0.00 in0.0 mm 0.00 in0.0 mm 0.00 in0.0 mm
02:25 PM 36.5°F2.5°C 20.8°F-6.2°C 53% 5.0 mph NW8.0 kmh NW -- 30.15 in1021.0 mb 0.00 in0.0 mm 0.00 in0.0 mm 0.00 in0.0 mm
02:26 PM 36.5°F2.5°C 20.8°F-6.2°C 53% 5.0 mph NNE8.0 kmh NNE -- 30.15 in1021.0 mb 0.00 in0.0 mm 0.00 in0.0 mm 0.00 in0.0 mm
02:27 PM 36.9°F2.7°C 21.1°F-6.1°C 53% 7.0 mph WNW11.3 kmh WNW -- 30.15 in1021.0 mb 0.00 in0.0 mm 0.00 in0.0 mm 0.00 in0.0 mm
02:28 PM 36.9°F2.7°C 21.6°F-5.8°C 54% 10.0 mph WNW16.1 kmh WNW -- 30.15 in1021.0 mb 0.00 in0.0 mm 0.00 in0.0 mm 0.00 in0.0 mm
02:29 PM 36.7°F2.6°C 21.4°F-5.9°C 54% 8.0 mph WNW12.9 kmh WNW -- 30.15 in1021.0 mb 0.00 in0.0 mm 0.00 in0.0 mm 0.00 in0.0 mm
02:30 PM 36.5°F2.5°C 21.3°F-5.9°C 54% 6.0 mph WNW9.7 kmh WNW -- 30.15 in1021.0 mb 0.00 in0.0 mm 0.00 in0.0 mm 0.00 in0.0 mm
02:31 PM 36.5°F2.5°C 21.3°F-5.9°C 54% 8.0 mph WNW12.9 kmh WNW -- 30.15 in1021.0 mb 0.00 in0.0 mm 0.00 in0.0 mm 0.00 in0.0 mm
02:32 PM 36.5°F2.5°C 21.3°F-5.9°C 54% 6.0 mph W9.7 kmh W -- 30.15 in1021.0 mb 0.00 in0.0 mm 0.00 in0.0 mm 0.00 in0.0 mm
02:33 PM 36.5°F2.5°C 21.7°F-5.7°C 55% 6.0 mph W9.7 kmh W -- 30.15 in1021.0 mb 0.00 in0.0 mm 0.00 in0.0 mm 0.00 in0.0 mm
02:34 PM 36.7°F2.6°C 21.9°F-5.6°C 55% 7.0 mph NW11.3 kmh NW -- 30.15 in1021.0 mb 0.00 in0.0 mm 0.00 in0.0 mm 0.00 in0.0 mm
02:35 PM 36.7°F2.6°C 21.9°F-5.6°C 55% 6.0 mph WNW9.7 kmh WNW -- 30.15 in1021.0 mb 0.00 in0.0 mm 0.00 in0.0 mm 0.00 in0.0 mm
02:36 PM 36.7°F2.6°C 21.9°F-5.6°C 55% 7.0 mph NW11.3 kmh NW -- 30.15 in1021.0 mb 0.00 in0.0 mm 0.00 in0.0 mm 0.00 in0.0 mm
02:37 PM 36.7°F2.6°C 21.9°F-5.6°C 55% 5.0 mph WNW8.0 kmh WNW -- 30.15 in1021.0 mb 0.00 in0.0 mm 0.00 in0.0 mm 0.00 in0.0 mm
02:38 PM 36.7°F2.6°C 21.4°F-5.9°C 54% 8.0 mph WNW12.9 kmh WNW -- 30.15 in1021.0 mb 0.00 in0.0 mm 0.00 in0.0 mm 0.00 in0.0 mm
02:39 PM 36.7°F2.6°C 21.4°F-5.9°C 54% 8.0 mph W12.9 kmh W -- 30.15 in1021.0 mb 0.00 in0.0 mm 0.00 in0.0 mm 0.00 in0.0 mm
02:40 PM 36.5°F2.5°C 20.8°F-6.2°C 53% 13.0 mph NW20.9 kmh NW -- 30.15 in1021.0 mb 0.00 in0.0 mm 0.00 in0.0 mm 0.00 in0.0 mm
02:41 PM 35.7°F2.1°C 21.0°F-6.1°C 55% 10.0 mph WNW16.1 kmh WNW -- 30.15 in1021.0 mb 0.00 in0.0 mm 0.00 in0.0 mm 0.00 in0.0 mm
02:42 PM 35.5°F1.9°C 21.9°F-5.6°C 58% 3.0 mph W4.8 kmh W -- 30.15 in1021.0 mb 0.00 in0.0 mm 0.00 in0.0 mm 0.00 in0.0 mm
02:43 PM 34.7°F1.5°C 22.5°F-5.3°C 61% 3.0 mph W4.8 kmh W -- 30.15 in1021.0 mb 0.00 in0.0 mm 0.00 in0.0 mm 0.00 in0.0 mm
02:44 PM 34.5°F1.4°C 22.3°F-5.4°C 61% 5.0 mph SSW8.0 kmh SSW -- 30.15 in1021.0 mb 0.00 in0.0 mm 0.00 in0.0 mm 0.00 in0.0 mm
02:45 PM 34.5°F1.4°C 23.1°F-4.9°C 63% 3.0 mph SW4.8 kmh SW -- 30.15 in1021.0 mb 0.00 in0.0 mm 0.00 in0.0 mm 0.00 in0.0 mm
02:46 PM 35.0°F1.7°C 23.6°F-4.7°C 63% 11.0 mph NW17.7 kmh NW -- 30.15 in1021.0 mb 0.00 in0.0 mm 0.00 in0.0 mm 0.00 in0.0 mm
02:47 PM 35.1°F1.7°C 23.6°F-4.7°C 63% 11.0 mph NW17.7 kmh NW -- 30.15 in1021.0 mb 0.00 in0.0 mm 0.00 in0.0 mm 0.00 in0.0 mm
02:48 PM 35.1°F1.7°C 23.6°F-4.7°C 63% 8.0 mph W12.9 kmh W -- 30.15 in1021.0 mb 0.00 in0.0 mm 0.00 in0.0 mm 0.00 in0.0 mm
02:49 PM 35.1°F1.7°C 23.6°F-4.7°C 63% 5.0 mph W8.0 kmh W -- 30.15 in1021.0 mb 0.00 in0.0 mm 0.00 in0.0 mm 0.00 in0.0 mm
02:50 PM 35.1°F1.7°C 23.6°F-4.7°C 63% 6.0 mph W9.7 kmh W -- 30.15 in1021.0 mb 0.00 in0.0 mm 0.00 in0.0 mm 0.00 in0.0 mm
02:52 PM 35.4°F1.9°C 23.2°F-4.9°C 61% 7.0 mph W11.3 kmh W -- 30.15 in1021.0 mb 0.00 in0.0 mm 0.00 in0.0 mm 0.00 in0.0 mm
02:53 PM 35.4°F1.9°C 23.2°F-4.9°C 61% 5.0 mph W8.0 kmh W -- 30.15 in1021.0 mb 0.00 in0.0 mm 0.00 in0.0 mm 0.00 in0.0 mm
02:54 PM 35.4°F1.9°C 23.2°F-4.9°C 61% 6.0 mph W9.7 kmh W -- 30.15 in1021.0 mb 0.00 in0.0 mm 0.00 in0.0 mm 0.00 in0.0 mm
02:55 PM 36.1°F2.3°C 23.8°F-4.6°C 61% 5.0 mph WSW8.0 kmh WSW -- 30.15 in1021.0 mb 0.00 in0.0 mm 0.00 in0.0 mm 0.00 in0.0 mm
02:56 PM 36.5°F2.5°C 24.2°F-4.3°C 61% 7.0 mph NNW11.3 kmh NNW -- 30.15 in1021.0 mb 0.00 in0.0 mm 0.00 in0.0 mm 0.00 in0.0 mm
02:57 PM 36.9°F2.7°C 24.5°F-4.2°C 61% 7.0 mph WNW11.3 kmh WNW -- 30.15 in1021.0 mb 0.00 in0.0 mm 0.00 in0.0 mm 0.00 in0.0 mm
02:58 PM 36.9°F2.7°C 24.1°F-4.4°C 60% 5.0 mph NNW8.0 kmh NNW -- 30.15 in1021.0 mb 0.00 in0.0 mm 0.00 in0.0 mm 0.00 in0.0 mm
02:59 PM 36.9°F2.7°C 23.7°F-4.6°C 59% 4.0 mph W6.4 kmh W -- 30.15 in1021.0 mb 0.00 in0.0 mm 0.00 in0.0 mm 0.00 in0.0 mm
03:00 PM 37.2°F2.9°C 23.6°F-4.7°C 58% 11.0 mph WNW17.7 kmh WNW -- 30.15 in1021.0 mb 0.00 in0.0 mm 0.00 in0.0 mm 0.00 in0.0 mm
03:01 PM 37.0°F2.8°C 23.5°F-4.7°C 58% 8.0 mph W12.9 kmh W -- 30.15 in1021.0 mb 0.00 in0.0 mm 0.00 in0.0 mm 0.00 in0.0 mm
03:02 PM 37.0°F2.8°C 23.5°F-4.7°C 58% 8.0 mph WNW12.9 kmh WNW -- 30.15 in1021.0 mb 0.00 in0.0 mm 0.00 in0.0 mm 0.00 in0.0 mm
03:03 PM 37.0°F2.8°C 22.6°F-5.2°C 56% 7.0 mph NNW11.3 kmh NNW -- 30.15 in1021.0 mb 0.00 in0.0 mm 0.00 in0.0 mm 0.00 in0.0 mm
03:04 PM 37.2°F2.9°C 22.8°F-5.1°C 56% 5.0 mph WNW8.0 kmh WNW -- 30.15 in1021.0 mb 0.00 in0.0 mm 0.00 in0.0 mm 0.00 in0.0 mm
03:05 PM 37.5°F3.1°C 23.1°F-4.9°C 56% 6.0 mph NW9.7 kmh NW -- 30.15 in1021.0 mb 0.00 in0.0 mm 0.00 in0.0 mm 0.00 in0.0 mm
03:06 PM 37.8°F3.2°C 22.9°F-5.1°C 55% 5.0 mph W8.0 kmh W -- 30.15 in1021.0 mb 0.00 in0.0 mm 0.00 in0.0 mm 0.00 in0.0 mm
03:07 PM 37.8°F3.2°C 22.9°F-5.1°C 55% 1.0 mph SSW1.6 kmh SSW -- 30.15 in1021.0 mb 0.00 in0.0 mm 0.00 in0.0 mm 0.00 in0.0 mm
03:08 PM 37.0°F2.8°C 23.9°F-4.5°C 59% 4.0 mph WNW6.4 kmh WNW -- 30.15 in1021.0 mb 0.00 in0.0 mm 0.00 in0.0 mm 0.00 in0.0 mm
03:09 PM 37.5°F3.1°C 24.0°F-4.4°C 58% 7.0 mph NE11.3 kmh NE -- 30.15 in1021.0 mb 0.00 in0.0 mm 0.00 in0.0 mm 0.00 in0.0 mm
03:10 PM 38.4°F3.6°C 23.5°F-4.7°C 55% 3.0 mph ENE4.8 kmh ENE -- 30.15 in1021.0 mb 0.00 in0.0 mm 0.00 in0.0 mm 0.00 in0.0 mm
03:11 PM 39.0°F3.9°C 24.0°F-4.4°C 55% 4.0 mph NNW6.4 kmh NNW -- 30.15 in1021.0 mb 0.00 in0.0 mm 0.00 in0.0 mm 0.00 in0.0 mm
03:12 PM 39.5°F4.2°C 24.6°F-4.1°C 55% 15.0 mph NNW24.1 kmh NNW -- 30.14 in1020.7 mb 0.00 in0.0 mm 0.00 in0.0 mm 0.00 in0.0 mm
03:13 PM 39.5°F4.2°C 25.0°F-3.9°C 56% 9.0 mph NW14.5 kmh NW -- 30.15 in1021.0 mb 0.00 in0.0 mm 0.00 in0.0 mm 0.00 in0.0 mm
03:14 PM 39.0°F3.9°C 25.3°F-3.7°C 58% 9.0 mph W14.5 kmh W -- 30.15 in1021.0 mb 0.00 in0.0 mm 0.00 in0.0 mm 0.00 in0.0 mm
03:15 PM 37.8°F3.2°C 25.0°F-3.9°C 60% 6.0 mph NW9.7 kmh NW -- 30.15 in1021.0 mb 0.00 in0.0 mm 0.00 in0.0 mm 0.00 in0.0 mm
03:16 PM 37.0°F2.8°C 24.3°F-4.3°C 60% 4.0 mph W6.4 kmh W -- 30.15 in1021.0 mb 0.00 in0.0 mm 0.00 in0.0 mm 0.00 in0.0 mm
03:17 PM 36.7°F2.6°C 24.3°F-4.3°C 61% 6.0 mph NW9.7 kmh NW -- 30.15 in1021.0 mb 0.00 in0.0 mm 0.00 in0.0 mm 0.00 in0.0 mm
03:19 PM 36.9°F2.7°C 24.5°F-4.2°C 61% 4.0 mph WNW6.4 kmh WNW -- 30.15 in1021.0 mb 0.00 in0.0 mm 0.00 in0.0 mm 0.00 in0.0 mm
03:20 PM 37.2°F2.9°C 24.1°F-4.4°C 59% 6.0 mph NW9.7 kmh NW -- 30.15 in1021.0 mb 0.00 in0.0 mm 0.00 in0.0 mm 0.00 in0.0 mm
03:21 PM 37.7°F3.2°C 24.1°F-4.4°C 58% 5.0 mph 8.0 kmh -- 30.15 in1021.0 mb 0.00 in0.0 mm 0.00 in0.0 mm 0.00 in0.0 mm
03:22 PM 38.0°F3.3°C 23.5°F-4.7°C 56% 3.0 mph 4.8 kmh -- 30.15 in1021.0 mb 0.00 in0.0 mm 0.00 in0.0 mm 0.00 in0.0 mm
03:23 PM 38.7°F3.7°C 23.7°F-4.6°C 55% 2.0 mph NW3.2 kmh NW -- 30.15 in1021.0 mb 0.00 in0.0 mm 0.00 in0.0 mm 0.00 in0.0 mm
03:24 PM 39.4°F4.1°C 24.4°F-4.2°C 55% 2.0 mph WNW3.2 kmh WNW -- 30.15 in1021.0 mb 0.00 in0.0 mm 0.00 in0.0 mm 0.00 in0.0 mm
03:25 PM 40.2°F4.6°C 24.8°F-4.0°C 54% 8.0 mph NNW12.9 kmh NNW -- 30.15 in1021.0 mb 0.00 in0.0 mm 0.00 in0.0 mm 0.00 in0.0 mm
03:26 PM 40.2°F4.6°C 24.3°F-4.3°C 53% 8.0 mph W12.9 kmh W -- 30.15 in1021.0 mb 0.00 in0.0 mm 0.00 in0.0 mm 0.00 in0.0 mm
03:27 PM 40.2°F4.6°C 24.3°F-4.3°C 53% 8.0 mph NNW12.9 kmh NNW -- 30.15 in1021.0 mb 0.00 in0.0 mm 0.00 in0.0 mm 0.00 in0.0 mm
03:28 PM 40.5°F4.7°C 24.5°F-4.2°C 53% 8.0 mph NW12.9 kmh NW -- 30.14 in1020.7 mb 0.00 in0.0 mm 0.00 in0.0 mm 0.00 in0.0 mm
03:29 PM 40.0°F4.4°C 24.0°F-4.4°C 53% 7.0 mph NNW11.3 kmh NNW -- 30.14 in1020.7 mb 0.00 in0.0 mm 0.00 in0.0 mm 0.00 in0.0 mm
03:30 PM 39.4°F4.1°C 24.4°F-4.2°C 55% 6.0 mph NNE9.7 kmh NNE -- 30.15 in1021.0 mb 0.00 in0.0 mm 0.00 in0.0 mm 0.00 in0.0 mm
03:31 PM 38.4°F3.6°C 23.5°F-4.7°C 55% 6.0 mph WNW9.7 kmh WNW -- 30.15 in1021.0 mb 0.00 in0.0 mm 0.00 in0.0 mm 0.00 in0.0 mm
03:32 PM 38.2°F3.4°C 23.2°F-4.9°C 55% 6.0 mph WNW9.7 kmh WNW -- 30.15 in1021.0 mb 0.00 in0.0 mm 0.00 in0.0 mm 0.00 in0.0 mm
03:33 PM 38.0°F3.3°C 23.5°F-4.7°C 56% 7.0 mph WNW11.3 kmh WNW -- 30.15 in1021.0 mb 0.00 in0.0 mm 0.00 in0.0 mm 0.00 in0.0 mm
03:34 PM 38.0°F3.3°C 23.5°F-4.7°C 56% 5.0 mph NW8.0 kmh NW -- 30.15 in1021.0 mb 0.00 in0.0 mm 0.00 in0.0 mm 0.00 in0.0 mm
03:35 PM 38.2°F3.4°C 23.6°F-4.7°C 56% 6.0 mph W9.7 kmh W -- 30.15 in1021.0 mb 0.00 in0.0 mm 0.00 in0.0 mm 0.00 in0.0 mm
03:36 PM 39.4°F4.1°C 24.4°F-4.2°C 55% 5.0 mph NNW8.0 kmh NNW -- 30.15 in1021.0 mb 0.00 in0.0 mm 0.00 in0.0 mm 0.00 in0.0 mm
03:37 PM 39.5°F4.2°C 24.6°F-4.1°C 55% 8.0 mph WNW12.9 kmh WNW -- 30.15 in1021.0 mb 0.00 in0.0 mm 0.00 in0.0 mm 0.00 in0.0 mm
03:38 PM 39.9°F4.4°C 24.4°F-4.2°C 54% 7.0 mph NNW11.3 kmh NNW -- 30.15 in1021.0 mb 0.00 in0.0 mm 0.00 in0.0 mm 0.00 in0.0 mm
03:39 PM 39.9°F4.4°C 24.0°F-4.4°C 53% 9.0 mph NNW14.5 kmh NNW -- 30.15 in1021.0 mb 0.00 in0.0 mm 0.00 in0.0 mm 0.00 in0.0 mm
03:40 PM 39.4°F4.1°C 23.5°F-4.7°C 53% 7.0 mph NW11.3 kmh NW -- 30.15 in1021.0 mb 0.00 in0.0 mm 0.00 in0.0 mm 0.00 in0.0 mm
03:41 PM 39.0°F3.9°C 23.6°F-4.7°C 54% 11.0 mph NNW17.7 kmh NNW -- 30.15 in1021.0 mb 0.00 in0.0 mm 0.00 in0.0 mm 0.00 in0.0 mm
03:42 PM 38.7°F3.7°C 23.7°F-4.6°C 55% 9.0 mph WNW14.5 kmh WNW -- 30.15 in1021.0 mb 0.00 in0.0 mm 0.00 in0.0 mm 0.00 in0.0 mm
03:43 PM 38.7°F3.7°C 23.7°F-4.6°C 55% 7.0 mph WNW11.3 kmh WNW -- 30.15 in1021.0 mb 0.00 in0.0 mm 0.00 in0.0 mm 0.00 in0.0 mm
03:44 PM 38.2°F3.4°C 23.6°F-4.7°C 56% 6.0 mph WNW9.7 kmh WNW -- 30.15 in1021.0 mb 0.00 in0.0 mm 0.00 in0.0 mm 0.00 in0.0 mm
03:45 PM 38.0°F3.3°C 24.3°F-4.3°C 58% 9.0 mph WNW14.5 kmh WNW -- 30.14 in1020.7 mb 0.00 in0.0 mm 0.00 in0.0 mm 0.00 in0.0 mm
03:46 PM 37.8°F3.2°C 24.1°F-4.4°C 58% 8.0 mph W12.9 kmh W -- 30.15 in1021.0 mb 0.00 in0.0 mm 0.00 in0.0 mm 0.00 in0.0 mm
03:47 PM 37.5°F3.1°C 24.4°F-4.2°C 59% 9.0 mph WNW14.5 kmh WNW -- 30.15 in1021.0 mb 0.00 in0.0 mm 0.00 in0.0 mm 0.00 in0.0 mm
03:48 PM 37.4°F3.0°C 24.2°F-4.3°C 59% 7.0 mph W11.3 kmh W -- 30.15 in1021.0 mb 0.00 in0.0 mm 0.00 in0.0 mm 0.00 in0.0 mm
03:49 PM 37.2°F2.9°C 24.5°F-4.2°C 60% 6.0 mph NNW9.7 kmh NNW -- 30.15 in1021.0 mb 0.00 in0.0 mm 0.00 in0.0 mm 0.00 in0.0 mm
03:50 PM 37.4°F3.0°C 24.6°F-4.1°C 60% 4.0 mph 6.4 kmh -- 30.15 in1021.0 mb 0.00 in0.0 mm 0.00 in0.0 mm 0.00 in0.0 mm
03:52 PM 37.4°F3.0°C 24.6°F-4.1°C 60% 7.0 mph NNW11.3 kmh NNW -- 30.15 in1021.0 mb 0.00 in0.0 mm 0.00 in0.0 mm 0.00 in0.0 mm
03:53 PM 37.4°F3.0°C 24.2°F-4.3°C 59% 9.0 mph WNW14.5 kmh WNW -- 30.15 in1021.0 mb 0.00 in0.0 mm 0.00 in0.0 mm 0.00 in0.0 mm
03:54 PM 37.2°F2.9°C 24.1°F-4.4°C 59% 6.0 mph NW9.7 kmh NW -- 30.15 in1021.0 mb 0.00 in0.0 mm 0.00 in0.0 mm 0.00 in0.0 mm
03:55 PM 37.0°F2.8°C 23.9°F-4.5°C 59% 7.0 mph NW11.3 kmh NW -- 30.15 in1021.0 mb 0.00 in0.0 mm 0.00 in0.0 mm 0.00 in0.0 mm
03:56 PM 37.0°F2.8°C 23.9°F-4.5°C 59% 5.0 mph 8.0 kmh -- 30.15 in1021.0 mb 0.00 in0.0 mm 0.00 in0.0 mm 0.00 in0.0 mm
03:57 PM 37.4°F3.0°C 24.2°F-4.3°C 59% 9.0 mph WNW14.5 kmh WNW -- 30.15 in1021.0 mb 0.00 in0.0 mm 0.00 in0.0 mm 0.00 in0.0 mm
03:58 PM 37.2°F2.9°C 23.6°F-4.7°C 58% 7.0 mph NW11.3 kmh NW -- 30.15 in1021.0 mb 0.00 in0.0 mm 0.00 in0.0 mm 0.00 in0.0 mm
03:59 PM 37.0°F2.8°C 23.9°F-4.5°C 59% 9.0 mph NW14.5 kmh NW -- 30.15 in1021.0 mb 0.00 in0.0 mm 0.00 in0.0 mm 0.00 in0.0 mm
04:00 PM 36.9°F2.7°C 23.7°F-4.6°C 59% 5.0 mph NW8.0 kmh NW -- 30.15 in1021.0 mb 0.00 in0.0 mm 0.00 in0.0 mm 0.00 in0.0 mm
04:01 PM 36.9°F2.7°C 23.7°F-4.6°C 59% 8.0 mph NW12.9 kmh NW -- 30.15 in1021.0 mb 0.00 in0.0 mm 0.00 in0.0 mm 0.00 in0.0 mm
04:02 PM 37.0°F2.8°C 24.3°F-4.3°C 60% 5.0 mph W8.0 kmh W -- 30.15 in1021.0 mb 0.00 in0.0 mm 0.00 in0.0 mm 0.00 in0.0 mm
04:03 PM 37.0°F2.8°C 24.3°F-4.3°C 60% 10.0 mph WSW16.1 kmh WSW -- 30.15 in1021.0 mb 0.00 in0.0 mm 0.00 in0.0 mm 0.00 in0.0 mm
04:04 PM 37.0°F2.8°C 24.3°F-4.3°C 60% 8.0 mph NW12.9 kmh NW -- 30.15 in1021.0 mb 0.00 in0.0 mm 0.00 in0.0 mm 0.00 in0.0 mm
04:05 PM 37.0°F2.8°C 24.3°F-4.3°C 60% 7.0 mph NNW11.3 kmh NNW -- 30.15 in1021.0 mb 0.00 in0.0 mm 0.00 in0.0 mm 0.00 in0.0 mm
04:06 PM 37.0°F2.8°C 23.9°F-4.5°C 59% 6.0 mph WNW9.7 kmh WNW -- 30.15 in1021.0 mb 0.00 in0.0 mm 0.00 in0.0 mm 0.00 in0.0 mm
04:07 PM 37.0°F2.8°C 23.9°F-4.5°C 59% 10.0 mph NW16.1 kmh NW -- 30.15 in1021.0 mb 0.00 in0.0 mm 0.00 in0.0 mm 0.00 in0.0 mm
04:08 PM 37.0°F2.8°C 24.3°F-4.3°C 60% 12.0 mph NW19.3 kmh NW -- 30.15 in1021.0 mb 0.00 in0.0 mm 0.00 in0.0 mm 0.00 in0.0 mm
04:09 PM 36.9°F2.7°C 24.5°F-4.2°C 61% 8.0 mph NW12.9 kmh NW -- 30.15 in1021.0 mb 0.00 in0.0 mm 0.00 in0.0 mm 0.00 in0.0 mm
04:10 PM 36.5°F2.5°C 24.2°F-4.3°C 61% 10.0 mph NNW16.1 kmh NNW -- 30.15 in1021.0 mb 0.00 in0.0 mm 0.00 in0.0 mm 0.00 in0.0 mm
04:11 PM 36.1°F2.3°C 23.8°F-4.6°C 61% 8.0 mph 12.9 kmh -- 30.15 in1021.0 mb 0.00 in0.0 mm 0.00 in0.0 mm 0.00 in0.0 mm
04:12 PM 36.1°F2.3°C 24.6°F-4.1°C 63% 11.0 mph WNW17.7 kmh WNW -- 30.15 in1021.0 mb 0.00 in0.0 mm 0.00 in0.0 mm 0.00 in0.0 mm
04:13 PM 36.1°F2.3°C 24.6°F-4.1°C 63% 10.0 mph NW16.1 kmh NW -- 30.15 in1021.0 mb 0.00 in0.0 mm 0.00 in0.0 mm 0.00 in0.0 mm
04:14 PM 35.9°F2.2°C 24.4°F-4.2°C 63% 9.0 mph NW14.5 kmh NW -- 30.15 in1021.0 mb 0.00 in0.0 mm 0.00 in0.0 mm 0.00 in0.0 mm
04:15 PM 35.7°F2.1°C 24.3°F-4.3°C 63% 9.0 mph SW14.5 kmh SW -- 30.16 in1021.3 mb 0.00 in0.0 mm 0.00 in0.0 mm 0.00 in0.0 mm
04:16 PM 35.7°F2.1°C 24.3°F-4.3°C 63% 7.0 mph NNW11.3 kmh NNW -- 30.15 in1021.0 mb 0.00 in0.0 mm 0.00 in0.0 mm 0.00 in0.0 mm
04:17 PM 35.9°F2.2°C 25.2°F-3.8°C 65% 7.0 mph NW11.3 kmh NW -- 30.15 in1021.0 mb 0.00 in0.0 mm 0.00 in0.0 mm 0.00 in0.0 mm
04:18 PM 35.9°F2.2°C 24.4°F-4.2°C 63% 12.0 mph NNW19.3 kmh NNW -- 30.15 in1021.0 mb 0.00 in0.0 mm 0.00 in0.0 mm 0.00 in0.0 mm
04:19 PM 35.9°F2.2°C 24.4°F-4.2°C 63% 11.0 mph NW17.7 kmh NW -- 30.15 in1021.0 mb 0.00 in0.0 mm 0.00 in0.0 mm 0.00 in0.0 mm
04:20 PM 35.5°F1.9°C 23.9°F-4.5°C 63% 11.0 mph NNW17.7 kmh NNW -- 30.15 in1021.0 mb 0.00 in0.0 mm 0.00 in0.0 mm 0.00 in0.0 mm
04:21 PM 35.4°F1.9°C 23.9°F-4.5°C 63% 6.0 mph NW9.7 kmh NW -- 30.15 in1021.0 mb 0.00 in0.0 mm 0.00 in0.0 mm 0.00 in0.0 mm
04:22 PM 35.1°F1.7°C 23.6°F-4.7°C 63% 6.0 mph WNW9.7 kmh WNW -- 30.15 in1021.0 mb 0.00 in0.0 mm 0.00 in0.0 mm 0.00 in0.0 mm
04:23 PM 35.4°F1.9°C 23.9°F-4.5°C 63% 12.0 mph NNW19.3 kmh NNW -- 30.15 in1021.0 mb 0.00 in0.0 mm 0.00 in0.0 mm 0.00 in0.0 mm
04:24 PM 35.5°F1.9°C 24.7°F-4.1°C 65% 4.0 mph WNW6.4 kmh WNW -- 30.15 in1021.0 mb 0.00 in0.0 mm 0.00 in0.0 mm 0.00 in0.0 mm
04:25 PM 35.7°F2.1°C 25.0°F-3.9°C 65% 9.0 mph NNW14.5 kmh NNW -- 30.15 in1021.0 mb 0.00 in0.0 mm 0.00 in0.0 mm 0.00 in0.0 mm
04:26 PM 35.7°F2.1°C 25.0°F-3.9°C 65% 8.0 mph NNW12.9 kmh NNW -- 30.15 in1021.0 mb 0.00 in0.0 mm 0.00 in0.0 mm 0.00 in0.0 mm
04:27 PM 35.7°F2.1°C 25.0°F-3.9°C 65% 8.0 mph NW12.9 kmh NW -- 30.15 in1021.0 mb 0.00 in0.0 mm 0.00 in0.0 mm 0.00 in0.0 mm
04:28 PM 35.9°F2.2°C 25.2°F-3.8°C 65% 8.0 mph W12.9 kmh W -- 30.15 in1021.0 mb 0.00 in0.0 mm 0.00 in0.0 mm 0.00 in0.0 mm
04:29 PM 36.1°F2.3°C 25.4°F-3.7°C 65% 8.0 mph WNW12.9 kmh WNW -- 30.15 in1021.0 mb 0.00 in0.0 mm 0.00 in0.0 mm 0.00 in0.0 mm
04:30 PM 36.1°F2.3°C 25.4°F-3.7°C 65% 6.0 mph NW9.7 kmh NW -- 30.16 in1021.3 mb 0.00 in0.0 mm 0.00 in0.0 mm 0.00 in0.0 mm
04:31 PM 35.9°F2.2°C 25.2°F-3.8°C 65% 9.0 mph NW14.5 kmh NW -- 30.15 in1021.0 mb 0.00 in0.0 mm 0.00 in0.0 mm 0.00 in0.0 mm
04:32 PM 35.9°F2.2°C 25.2°F-3.8°C 65% 8.0 mph NW12.9 kmh NW -- 30.15 in1021.0 mb 0.00 in0.0 mm 0.00 in0.0 mm 0.00 in0.0 mm
04:33 PM 35.9°F2.2°C 25.2°F-3.8°C 65% 8.0 mph W12.9 kmh W -- 30.15 in1021.0 mb 0.00 in0.0 mm 0.00 in0.0 mm 0.00 in0.0 mm
04:34 PM 35.9°F2.2°C 24.4°F-4.2°C 63% 9.0 mph NW14.5 kmh NW -- 30.15 in1021.0 mb 0.00 in0.0 mm 0.00 in0.0 mm 0.00 in0.0 mm
04:35 PM 36.1°F2.3°C 24.6°F-4.1°C 63% 6.0 mph WNW9.7 kmh WNW -- 30.15 in1021.0 mb 0.00 in0.0 mm 0.00 in0.0 mm 0.00 in0.0 mm
04:36 PM 36.2°F2.3°C 24.6°F-4.1°C 63% 5.0 mph NW8.0 kmh NW -- 30.15 in1021.0 mb 0.00 in0.0 mm 0.00 in0.0 mm 0.00 in0.0 mm
04:37 PM 36.5°F2.5°C 25.0°F-3.9°C 63% 7.0 mph NW11.3 kmh NW -- 30.15 in1021.0 mb 0.00 in0.0 mm 0.00 in0.0 mm 0.00 in0.0 mm
04:38 PM 36.7°F2.6°C 25.1°F-3.8°C 63% 6.0 mph NW9.7 kmh NW -- 30.15 in1021.0 mb 0.00 in0.0 mm 0.00 in0.0 mm 0.00 in0.0 mm
04:39 PM 36.7°F2.6°C 24.3°F-4.3°C 61% 7.0 mph NNW11.3 kmh NNW -- 30.15 in1021.0 mb 0.00 in0.0 mm 0.00 in0.0 mm 0.00 in0.0 mm
04:40 PM 36.7°F2.6°C 24.3°F-4.3°C 61% 6.0 mph NW9.7 kmh NW -- 30.15 in1021.0 mb 0.00 in0.0 mm 0.00 in0.0 mm 0.00 in0.0 mm
04:41 PM 36.5°F2.5°C 25.0°F-3.9°C 63% 4.0 mph 6.4 kmh -- 30.15 in1021.0 mb 0.00 in0.0 mm 0.00 in0.0 mm 0.00 in0.0 mm
04:42 PM 36.7°F2.6°C 25.1°F-3.8°C 63% 7.0 mph NW11.3 kmh NW -- 30.15 in1021.0 mb 0.00 in0.0 mm 0.00 in0.0 mm 0.00 in0.0 mm
04:43 PM 36.9°F2.7°C 25.3°F-3.7°C 63% 6.0 mph NNW9.7 kmh NNW -- 30.15 in1021.0 mb 0.00 in0.0 mm 0.00 in0.0 mm 0.00 in0.0 mm
04:44 PM 36.9°F2.7°C 25.3°F-3.7°C 63% 8.0 mph NW12.9 kmh NW -- 30.15 in1021.0 mb 0.00 in0.0 mm 0.00 in0.0 mm 0.00 in0.0 mm
04:46 PM 36.7°F2.6°C 25.1°F-3.8°C 63% 5.0 mph W8.0 kmh W -- 30.15 in1021.0 mb 0.00 in0.0 mm 0.00 in0.0 mm 0.00 in0.0 mm
04:47 PM 36.2°F2.3°C 25.4°F-3.7°C 65% 5.0 mph W8.0 kmh W -- 30.15 in1021.0 mb 0.00 in0.0 mm 0.00 in0.0 mm 0.00 in0.0 mm
04:48 PM 36.2°F2.3°C 25.4°F-3.7°C 65% 9.0 mph W14.5 kmh W -- 30.15 in1021.0 mb 0.00 in0.0 mm 0.00 in0.0 mm 0.00 in0.0 mm
04:49 PM 36.2°F2.3°C 25.4°F-3.7°C 65% 5.0 mph W8.0 kmh W -- 30.15 in1021.0 mb 0.00 in0.0 mm 0.00 in0.0 mm 0.00 in0.0 mm
04:50 PM 36.2°F2.3°C 25.4°F-3.7°C 65% 6.0 mph NW9.7 kmh NW -- 30.15 in1021.0 mb 0.00 in0.0 mm 0.00 in0.0 mm 0.00 in0.0 mm
04:51 PM 36.2°F2.3°C 25.4°F-3.7°C 65% 7.0 mph WNW11.3 kmh WNW -- 30.15 in1021.0 mb 0.00 in0.0 mm 0.00 in0.0 mm 0.00 in0.0 mm
04:52 PM 36.1°F2.3°C 25.4°F-3.7°C 65% 7.0 mph NW11.3 kmh NW -- 30.15 in1021.0 mb 0.00 in0.0 mm 0.00 in0.0 mm 0.00 in0.0 mm
04:53 PM 36.1°F2.3°C 25.4°F-3.7°C 65% 6.0 mph NW9.7 kmh NW -- 30.16 in1021.3 mb 0.00 in0.0 mm 0.00 in0.0 mm 0.00 in0.0 mm
04:54 PM 35.7°F2.1°C 25.0°F-3.9°C 65% 4.0 mph NW6.4 kmh NW -- 30.16 in1021.3 mb 0.00 in0.0 mm 0.00 in0.0 mm 0.00 in0.0 mm
04:55 PM 35.5°F1.9°C 24.7°F-4.1°C 65% 4.0 mph NNE6.4 kmh NNE -- 30.15 in1021.0 mb 0.00 in0.0 mm 0.00 in0.0 mm 0.00 in0.0 mm
04:56 PM 35.4°F1.9°C 24.7°F-4.1°C 65% 8.0 mph NW12.9 kmh NW -- 30.15 in1021.0 mb 0.00 in0.0 mm 0.00 in0.0 mm 0.00 in0.0 mm
04:57 PM 35.1°F1.7°C 24.3°F-4.3°C 65% 5.0 mph NW8.0 kmh NW -- 30.16 in1021.3 mb 0.00 in0.0 mm 0.00 in0.0 mm 0.00 in0.0 mm
04:58 PM 35.1°F1.7°C 24.3°F-4.3°C 65% 7.0 mph W11.3 kmh W -- 30.16 in1021.3 mb 0.00 in0.0 mm 0.00 in0.0 mm 0.00 in0.0 mm
04:59 PM 35.4°F1.9°C 25.1°F-3.8°C 66% 5.0 mph NW8.0 kmh NW -- 30.16 in1021.3 mb 0.00 in0.0 mm 0.00 in0.0 mm 0.00 in0.0 mm
05:00 PM 35.4°F1.9°C 24.7°F-4.1°C 65% 7.0 mph WNW11.3 kmh WNW -- 30.16 in1021.3 mb 0.00 in0.0 mm 0.00 in0.0 mm 0.00 in0.0 mm
05:01 PM 35.4°F1.9°C 24.7°F-4.1°C 65% 9.0 mph NNW14.5 kmh NNW -- 30.15 in1021.0 mb 0.00 in0.0 mm 0.00 in0.0 mm 0.00 in0.0 mm
05:02 PM 35.1°F1.7°C 24.3°F-4.3°C 65% 5.0 mph NNW8.0 kmh NNW -- 30.15 in1021.0 mb 0.00 in0.0 mm 0.00 in0.0 mm 0.00 in0.0 mm
05:03 PM 35.1°F1.7°C 24.3°F-4.3°C 65% 6.0 mph W9.7 kmh W -- 30.15 in1021.0 mb 0.00 in0.0 mm 0.00 in0.0 mm 0.00 in0.0 mm
05:04 PM 35.4°F1.9°C 25.1°F-3.8°C 66% 7.0 mph NW11.3 kmh NW -- 30.16 in1021.3 mb 0.00 in0.0 mm 0.00 in0.0 mm 0.00 in0.0 mm
05:05 PM 35.4°F1.9°C 25.1°F-3.8°C 66% 6.0 mph 9.7 kmh -- 30.16 in1021.3 mb 0.00 in0.0 mm 0.00 in0.0 mm 0.00 in0.0 mm
05:06 PM 35.4°F1.9°C 25.1°F-3.8°C 66% 6.0 mph NW9.7 kmh NW -- 30.15 in1021.0 mb 0.00 in0.0 mm 0.00 in0.0 mm 0.00 in0.0 mm
05:07 PM 35.0°F1.7°C 24.7°F-4.1°C 66% 4.0 mph NW6.4 kmh NW -- 30.15 in1021.0 mb 0.00 in0.0 mm 0.00 in0.0 mm 0.00 in0.0 mm
05:08 PM 35.0°F1.7°C 24.7°F-4.1°C 66% 6.0 mph NW9.7 kmh NW -- 30.15 in1021.0 mb 0.00 in0.0 mm 0.00 in0.0 mm 0.00 in0.0 mm
05:09 PM 35.1°F1.7°C 24.7°F-4.1°C 66% 7.0 mph NNW11.3 kmh NNW -- 30.15 in1021.0 mb 0.00 in0.0 mm 0.00 in0.0 mm 0.00 in0.0 mm
05:10 PM 35.4°F1.9°C 25.1°F-3.8°C 66% 8.0 mph NNW12.9 kmh NNW -- 30.15 in1021.0 mb 0.00 in0.0 mm 0.00 in0.0 mm 0.00 in0.0 mm
05:11 PM 35.1°F1.7°C 24.7°F-4.1°C 66% 4.0 mph NNW6.4 kmh NNW -- 30.15 in1021.0 mb 0.00 in0.0 mm 0.00 in0.0 mm 0.00 in0.0 mm
05:12 PM 35.1°F1.7°C 24.7°F-4.1°C 66% 6.0 mph 9.7 kmh -- 30.15 in1021.0 mb 0.00 in0.0 mm 0.00 in0.0 mm 0.00 in0.0 mm
05:13 PM 35.1°F1.7°C 24.7°F-4.1°C 66% 6.0 mph NNW9.7 kmh NNW -- 30.15 in1021.0 mb 0.00 in0.0 mm 0.00 in0.0 mm 0.00 in0.0 mm
05:14 PM 35.0°F1.7°C 24.7°F-4.1°C 66% 5.0 mph NW8.0 kmh NW -- 30.15 in1021.0 mb 0.00 in0.0 mm 0.00 in0.0 mm 0.00 in0.0 mm
05:16 PM 35.0°F1.7°C 25.4°F-3.7°C 68% 5.0 mph NE8.0 kmh NE -- 30.15 in1021.0 mb 0.00 in0.0 mm 0.00 in0.0 mm 0.00 in0.0 mm
05:17 PM 35.0°F1.7°C 24.7°F-4.1°C 66% 5.0 mph NNW8.0 kmh NNW -- 30.15 in1021.0 mb 0.00 in0.0 mm 0.00 in0.0 mm 0.00 in0.0 mm
05:18 PM 35.0°F1.7°C 24.3°F-4.3°C 65% 4.0 mph NNE6.4 kmh NNE -- 30.16 in1021.3 mb 0.00 in0.0 mm 0.00 in0.0 mm 0.00 in0.0 mm
05:19 PM 34.9°F1.6°C 24.2°F-4.3°C 65% 5.0 mph 8.0 kmh -- 30.16 in1021.3 mb 0.00 in0.0 mm 0.00 in0.0 mm 0.00 in0.0 mm
05:20 PM 34.7°F1.5°C 24.0°F-4.4°C 65% 2.0 mph 3.2 kmh -- 30.16 in1021.3 mb 0.00 in0.0 mm 0.00 in0.0 mm 0.00 in0.0 mm
05:21 PM 34.7°F1.5°C 24.0°F-4.4°C 65% 4.0 mph NNW6.4 kmh NNW -- 30.16 in1021.3 mb 0.00 in0.0 mm 0.00 in0.0 mm 0.00 in0.0 mm
05:22 PM 34.9°F1.6°C 24.2°F-4.3°C 65% 3.0 mph NNE4.8 kmh NNE -- 30.16 in1021.3 mb 0.00 in0.0 mm 0.00 in0.0 mm 0.00 in0.0 mm
05:23 PM 34.9°F1.6°C 24.2°F-4.3°C 65% 3.0 mph WNW4.8 kmh WNW -- 30.16 in1021.3 mb 0.00 in0.0 mm 0.00 in0.0 mm 0.00 in0.0 mm
05:24 PM 35.0°F1.7°C 24.3°F-4.3°C 65% 3.0 mph NNW4.8 kmh NNW -- 30.16 in1021.3 mb 0.00 in0.0 mm 0.00 in0.0 mm 0.00 in0.0 mm
05:25 PM 35.0°F1.7°C 24.3°F-4.3°C 65% 4.0 mph NNW6.4 kmh NNW -- 30.16 in1021.3 mb 0.00 in0.0 mm 0.00 in0.0 mm 0.00 in0.0 mm
05:26 PM 35.0°F1.7°C 24.3°F-4.3°C 65% 5.0 mph WNW8.0 kmh WNW -- 30.16 in1021.3 mb 0.00 in0.0 mm 0.00 in0.0 mm 0.00 in0.0 mm
05:27 PM 35.1°F1.7°C 24.3°F-4.3°C 65% 4.0 mph W6.4 kmh W -- 30.16 in1021.3 mb 0.00 in0.0 mm 0.00 in0.0 mm 0.00 in0.0 mm
05:28 PM 35.1°F1.7°C 24.3°F-4.3°C 65% 4.0 mph 6.4 kmh -- 30.16 in1021.3 mb 0.00 in0.0 mm 0.00 in0.0 mm 0.00 in0.0 mm
05:29 PM 35.1°F1.7°C 23.6°F-4.7°C 63% 6.0 mph WNW9.7 kmh WNW -- 30.16 in1021.3 mb 0.00 in0.0 mm 0.00 in0.0 mm 0.00 in0.0 mm
05:30 PM 35.1°F1.7°C 23.6°F-4.7°C 63% 6.0 mph W9.7 kmh W -- 30.16 in1021.3 mb 0.00 in0.0 mm 0.00 in0.0 mm 0.00 in0.0 mm
05:31 PM 35.1°F1.7°C 22.8°F-5.1°C 61% 7.0 mph WNW11.3 kmh WNW -- 30.16 in1021.3 mb 0.00 in0.0 mm 0.00 in0.0 mm 0.00 in0.0 mm
05:32 PM 35.1°F1.7°C 22.8°F-5.1°C 61% 9.0 mph W14.5 kmh W -- 30.16 in1021.3 mb 0.00 in0.0 mm 0.00 in0.0 mm 0.00 in0.0 mm
05:33 PM 35.1°F1.7°C 22.8°F-5.1°C 61% 7.0 mph NNW11.3 kmh NNW -- 30.16 in1021.3 mb 0.00 in0.0 mm 0.00 in0.0 mm 0.00 in0.0 mm
05:34 PM 35.1°F1.7°C 22.8°F-5.1°C 61% 4.0 mph W6.4 kmh W -- 30.16 in1021.3 mb 0.00 in0.0 mm 0.00 in0.0 mm 0.00 in0.0 mm
05:35 PM 35.1°F1.7°C 22.8°F-5.1°C 61% 3.0 mph NNW4.8 kmh NNW -- 30.16 in1021.3 mb 0.00 in0.0 mm 0.00 in0.0 mm 0.00 in0.0 mm
05:36 PM 35.1°F1.7°C 22.8°F-5.1°C 61% 3.0 mph NNE4.8 kmh NNE -- 30.16 in1021.3 mb 0.00 in0.0 mm 0.00 in0.0 mm 0.00 in0.0 mm
05:37 PM 35.1°F1.7°C 22.8°F-5.1°C 61% 7.0 mph NE11.3 kmh NE -- 30.16 in1021.3 mb 0.00 in0.0 mm 0.00 in0.0 mm 0.00 in0.0 mm
05:38 PM 35.1°F1.7°C 22.8°F-5.1°C 61% 3.0 mph WNW4.8 kmh WNW -- 30.16 in1021.3 mb 0.00 in0.0 mm 0.00 in0.0 mm 0.00 in0.0 mm
05:39 PM 35.0°F1.7°C 22.8°F-5.1°C 61% 6.0 mph NNW9.7 kmh NNW -- 30.16 in1021.3 mb 0.00 in0.0 mm 0.00 in0.0 mm 0.00 in0.0 mm
05:40 PM 35.0°F1.7°C 22.8°F-5.1°C 61% 7.0 mph NE11.3 kmh NE -- 30.16 in1021.3 mb 0.00 in0.0 mm 0.00 in0.0 mm 0.00 in0.0 mm
05:41 PM 34.9°F1.6°C 22.6°F-5.2°C 61% 10.0 mph NE16.1 kmh NE -- 30.16 in1021.3 mb 0.00 in0.0 mm 0.00 in0.0 mm 0.00 in0.0 mm
05:42 PM 34.9°F1.6°C 22.6°F-5.2°C 61% 9.0 mph NNE14.5 kmh NNE -- 30.16 in1021.3 mb 0.00 in0.0 mm 0.00 in0.0 mm 0.00 in0.0 mm
05:43 PM 34.7°F1.5°C 22.5°F-5.3°C 61% 6.0 mph 9.7 kmh -- 30.17 in1021.7 mb 0.00 in0.0 mm 0.00 in0.0 mm 0.00 in0.0 mm
05:44 PM 34.7°F1.5°C 22.5°F-5.3°C 61% 4.0 mph NNE6.4 kmh NNE -- 30.16 in1021.3 mb 0.00 in0.0 mm 0.00 in0.0 mm 0.00 in0.0 mm
05:45 PM 34.7°F1.5°C 22.5°F-5.3°C 61% 5.0 mph NNE8.0 kmh NNE -- 30.16 in1021.3 mb 0.00 in0.0 mm 0.00 in0.0 mm 0.00 in0.0 mm
05:46 PM 34.7°F1.5°C 22.5°F-5.3°C 61% 4.0 mph E6.4 kmh E -- 30.16 in1021.3 mb 0.00 in0.0 mm 0.00 in0.0 mm 0.00 in0.0 mm
05:47 PM 34.7°F1.5°C 22.5°F-5.3°C 61% 8.0 mph NNW12.9 kmh NNW -- 30.16 in1021.3 mb 0.00 in0.0 mm 0.00 in0.0 mm 0.00 in0.0 mm
05:48 PM 34.7°F1.5°C 22.5°F-5.3°C 61% 5.0 mph WNW8.0 kmh WNW -- 30.16 in1021.3 mb 0.00 in0.0 mm 0.00 in0.0 mm 0.00 in0.0 mm
05:49 PM 34.7°F1.5°C 22.5°F-5.3°C 61% 4.0 mph NNW6.4 kmh NNW -- 30.16 in1021.3 mb 0.00 in0.0 mm 0.00 in0.0 mm 0.00 in0.0 mm
05:50 PM 34.7°F1.5°C 22.5°F-5.3°C 61% 9.0 mph NNW14.5 kmh NNW -- 30.16 in1021.3 mb 0.00 in0.0 mm 0.00 in0.0 mm 0.00 in0.0 mm
05:51 PM 34.7°F1.5°C 22.5°F-5.3°C 61% 5.0 mph NNW8.0 kmh NNW -- 30.16 in1021.3 mb 0.00 in0.0 mm 0.00 in0.0 mm 0.00 in0.0 mm
05:52 PM 34.7°F1.5°C 22.5°F-5.3°C 61% 7.0 mph 11.3 kmh -- 30.16 in1021.3 mb 0.00 in0.0 mm 0.00 in0.0 mm 0.00 in0.0 mm
05:54 PM 34.7°F1.5°C 22.5°F-5.3°C 61% 7.0 mph WNW11.3 kmh WNW -- 30.16 in1021.3 mb 0.00 in0.0 mm 0.00 in0.0 mm 0.00 in0.0 mm
05:55 PM 34.5°F1.4°C 22.3°F-5.4°C 61% 9.0 mph WNW14.5 kmh WNW -- 30.16 in1021.3 mb 0.00 in0.0 mm 0.00 in0.0 mm 0.00 in0.0 mm
05:56 PM 34.5°F1.4°C 22.3°F-5.4°C 61% 6.0 mph NNW9.7 kmh NNW -- 30.16 in1021.3 mb 0.00 in0.0 mm 0.00 in0.0 mm 0.00 in0.0 mm
05:57 PM 34.5°F1.4°C 22.3°F-5.4°C 61% 6.0 mph 9.7 kmh -- 30.16 in1021.3 mb 0.00 in0.0 mm 0.00 in0.0 mm 0.00 in0.0 mm
05:58 PM 34.5°F1.4°C 22.3°F-5.4°C 61% 4.0 mph 6.4 kmh -- 30.16 in1021.3 mb 0.00 in0.0 mm 0.00 in0.0 mm 0.00 in0.0 mm
05:59 PM 34.5°F1.4°C 22.3°F-5.4°C 61% 11.0 mph NW17.7 kmh NW -- 30.16 in1021.3 mb 0.00 in0.0 mm 0.00 in0.0 mm 0.00 in0.0 mm
06:00 PM 34.5°F1.4°C 22.3°F-5.4°C 61% 8.0 mph NNW12.9 kmh NNW -- 30.17 in1021.7 mb 0.00 in0.0 mm 0.00 in0.0 mm 0.00 in0.0 mm
06:01 PM 34.2°F1.2°C 22.7°F-5.2°C 63% 5.0 mph WNW8.0 kmh WNW -- 30.16 in1021.3 mb 0.00 in0.0 mm 0.00 in0.0 mm 0.00 in0.0 mm
06:02 PM 34.2°F1.2°C 22.7°F-5.2°C 63% 8.0 mph NNW12.9 kmh NNW -- 30.16 in1021.3 mb 0.00 in0.0 mm 0.00 in0.0 mm 0.00 in0.0 mm
06:03 PM 34.2°F1.2°C 22.7°F-5.2°C 63% 8.0 mph NNW12.9 kmh NNW -- 30.17 in1021.7 mb 0.00 in0.0 mm 0.00 in0.0 mm 0.00 in0.0 mm
06:04 PM 34.2°F1.2°C 22.7°F-5.2°C 63% 7.0 mph NNW11.3 kmh NNW -- 30.17 in1021.7 mb 0.00 in0.0 mm 0.00 in0.0 mm 0.00 in0.0 mm
06:05 PM 34.2°F1.2°C 22.7°F-5.2°C 63% 6.0 mph NNE9.7 kmh NNE -- 30.17 in1021.7 mb 0.00 in0.0 mm 0.00 in0.0 mm 0.00 in0.0 mm
06:06 PM 34.2°F1.2°C 22.7°F-5.2°C 63% 5.0 mph NNW8.0 kmh NNW -- 30.17 in1021.7 mb 0.00 in0.0 mm 0.00 in0.0 mm 0.00 in0.0 mm
06:07 PM 34.0°F1.1°C 22.6°F-5.2°C 63% 7.0 mph NW11.3 kmh NW -- 30.17 in1021.7 mb 0.00 in0.0 mm 0.00 in0.0 mm 0.00 in0.0 mm
06:08 PM 34.0°F1.1°C 22.6°F-5.2°C 63% 6.0 mph NW9.7 kmh NW -- 30.17 in1021.7 mb 0.00 in0.0 mm 0.00 in0.0 mm 0.00 in0.0 mm
06:09 PM 34.0°F1.1°C 22.6°F-5.2°C 63% 4.0 mph NNW6.4 kmh NNW -- 30.17 in1021.7 mb 0.00 in0.0 mm 0.00 in0.0 mm 0.00 in0.0 mm
06:10 PM 34.0°F1.1°C 22.6°F-5.2°C 63% 6.0 mph W9.7 kmh W -- 30.17 in1021.7 mb 0.00 in0.0 mm 0.00 in0.0 mm 0.00 in0.0 mm
06:11 PM 34.0°F1.1°C 22.6°F-5.2°C 63% 7.0 mph 11.3 kmh -- 30.17 in1021.7 mb 0.00 in0.0 mm 0.00 in0.0 mm 0.00 in0.0 mm
06:12 PM 34.2°F1.2°C 22.7°F-5.2°C 63% 7.0 mph NW11.3 kmh NW -- 30.16 in1021.3 mb 0.00 in0.0 mm 0.00 in0.0 mm 0.00 in0.0 mm
06:13 PM 34.2°F1.2°C 22.7°F-5.2°C 63% 5.0 mph NW8.0 kmh NW -- 30.16 in1021.3 mb 0.00 in0.0 mm 0.00 in0.0 mm 0.00 in0.0 mm
06:14 PM 34.2°F1.2°C 22.7°F-5.2°C 63% 5.0 mph NNE8.0 kmh NNE -- 30.16 in1021.3 mb 0.00 in0.0 mm 0.00 in0.0 mm 0.00 in0.0 mm
06:15 PM 34.2°F1.2°C 22.7°F-5.2°C 63% 6.0 mph NNE9.7 kmh NNE -- 30.17 in1021.7 mb 0.00 in0.0 mm 0.00 in0.0 mm 0.00 in0.0 mm
06:16 PM 34.2°F1.2°C 22.7°F-5.2°C 63% 5.0 mph NNW8.0 kmh NNW -- 30.17 in1021.7 mb 0.00 in0.0 mm 0.00 in0.0 mm 0.00 in0.0 mm
06:17 PM 34.2°F1.2°C 23.5°F-4.7°C 65% 5.0 mph 8.0 kmh -- 30.17 in1021.7 mb 0.00 in0.0 mm 0.00 in0.0 mm 0.00 in0.0 mm
06:18 PM 34.0°F1.1°C 23.3°F-4.8°C 65% 8.0 mph NW12.9 kmh NW -- 30.17 in1021.7 mb 0.00 in0.0 mm 0.00 in0.0 mm 0.00 in0.0 mm
06:19 PM 34.0°F1.1°C 23.3°F-4.8°C 65% 6.0 mph NNE9.7 kmh NNE -- 30.17 in1021.7 mb 0.00 in0.0 mm 0.00 in0.0 mm 0.00 in0.0 mm
06:20 PM 34.0°F1.1°C 23.3°F-4.8°C 65% 6.0 mph 9.7 kmh -- 30.17 in1021.7 mb 0.00 in0.0 mm 0.00 in0.0 mm 0.00 in0.0 mm
06:21 PM 33.8°F1.0°C 23.1°F-4.9°C 65% 4.0 mph NNE6.4 kmh NNE -- 30.17 in1021.7 mb 0.00 in0.0 mm 0.00 in0.0 mm 0.00 in0.0 mm
06:22 PM 33.8°F1.0°C 23.1°F-4.9°C 65% 5.0 mph WSW8.0 kmh WSW -- 30.17 in1021.7 mb 0.00 in0.0 mm 0.00 in0.0 mm 0.00 in0.0 mm
06:23 PM 33.8°F1.0°C 23.1°F-4.9°C 65% 6.0 mph NNW9.7 kmh NNW -- 30.17 in1021.7 mb 0.00 in0.0 mm 0.00 in0.0 mm 0.00 in0.0 mm
06:24 PM 33.8°F1.0°C 23.1°F-4.9°C 65% 4.0 mph NNE6.4 kmh NNE -- 30.17 in1021.7 mb 0.00 in0.0 mm 0.00 in0.0 mm 0.00 in0.0 mm
06:25 PM 33.8°F1.0°C 23.1°F-4.9°C 65% 5.0 mph WNW8.0 kmh WNW -- 30.17 in1021.7 mb 0.00 in0.0 mm 0.00 in0.0 mm 0.00 in0.0 mm
06:26 PM 33.8°F1.0°C 23.1°F-4.9°C 65% 5.0 mph NE8.0 kmh NE -- 30.17 in1021.7 mb 0.00 in0.0 mm 0.00 in0.0 mm 0.00 in0.0 mm
06:27 PM 33.8°F1.0°C 23.1°F-4.9°C 65% 4.0 mph 6.4 kmh -- 30.17 in1021.7 mb 0.00 in0.0 mm 0.00 in0.0 mm 0.00 in0.0 mm
06:28 PM 33.8°F1.0°C 23.1°F-4.9°C 65% 10.0 mph 16.1 kmh -- 30.17 in1021.7 mb 0.00 in0.0 mm 0.00 in0.0 mm 0.00 in0.0 mm
06:29 PM 33.8°F1.0°C 23.1°F-4.9°C 65% 9.0 mph NNW14.5 kmh NNW -- 30.17 in1021.7 mb 0.00 in0.0 mm 0.00 in0.0 mm 0.00 in0.0 mm
06:30 PM 33.8°F1.0°C 23.1°F-4.9°C 65% 8.0 mph NW12.9 kmh NW -- 30.17 in1021.7 mb 0.00 in0.0 mm 0.00 in0.0 mm 0.00 in0.0 mm
06:31 PM 33.5°F0.8°C 22.8°F-5.1°C 65% 7.0 mph 11.3 kmh -- 30.18 in1022.0 mb 0.00 in0.0 mm 0.00 in0.0 mm 0.00 in0.0 mm
06:32 PM 33.5°F0.8°C 22.8°F-5.1°C 65% 8.0 mph WNW12.9 kmh WNW -- 30.17 in1021.7 mb 0.00 in0.0 mm 0.00 in0.0 mm 0.00 in0.0 mm
06:33 PM 33.5°F0.8°C 22.1°F-5.5°C 63% 9.0 mph W14.5 kmh W -- 30.17 in1021.7 mb 0.00 in0.0 mm 0.00 in0.0 mm 0.00 in0.0 mm
06:34 PM 33.4°F0.8°C 22.1°F-5.5°C 63% 8.0 mph NNW12.9 kmh NNW -- 30.17 in1021.7 mb 0.00 in0.0 mm 0.00 in0.0 mm 0.00 in0.0 mm
06:35 PM 33.4°F0.8°C 22.1°F-5.5°C 63% 10.0 mph WNW16.1 kmh WNW -- 30.18 in1022.0 mb 0.00 in0.0 mm 0.00 in0.0 mm 0.00 in0.0 mm
06:36 PM 33.4°F0.8°C 22.1°F-5.5°C 63% 8.0 mph 12.9 kmh -- 30.17 in1021.7 mb 0.00 in0.0 mm 0.00 in0.0 mm 0.00 in0.0 mm
06:37 PM 33.2°F0.7°C 21.9°F-5.6°C 63% 6.0 mph 9.7 kmh -- 30.17 in1021.7 mb 0.00 in0.0 mm 0.00 in0.0 mm 0.00 in0.0 mm
06:38 PM 33.2°F0.7°C 21.9°F-5.6°C 63% 4.0 mph NNE6.4 kmh NNE -- 30.17 in1021.7 mb 0.00 in0.0 mm 0.00 in0.0 mm 0.00 in0.0 mm
06:39 PM 33.2°F0.7°C 21.9°F-5.6°C 63% 9.0 mph NE14.5 kmh NE -- 30.17 in1021.7 mb 0.00 in0.0 mm 0.00 in0.0 mm 0.00 in0.0 mm
06:40 PM 33.2°F0.7°C 22.6°F-5.2°C 65% 7.0 mph NW11.3 kmh NW -- 30.17 in1021.7 mb 0.00 in0.0 mm 0.00 in0.0 mm 0.00 in0.0 mm
06:41 PM 33.2°F0.7°C 22.6°F-5.2°C 65% 10.0 mph WNW16.1 kmh WNW -- 30.18 in1022.0 mb 0.00 in0.0 mm 0.00 in0.0 mm 0.00 in0.0 mm
06:42 PM 33.0°F0.6°C 22.5°F-5.3°C 65% 7.0 mph NW11.3 kmh NW -- 30.18 in1022.0 mb 0.00 in0.0 mm 0.00 in0.0 mm 0.00 in0.0 mm
06:43 PM 33.0°F0.6°C 22.5°F-5.3°C 65% 7.0 mph NNW11.3 kmh NNW -- 30.18 in1022.0 mb 0.00 in0.0 mm 0.00 in0.0 mm 0.00 in0.0 mm
06:44 PM 33.0°F0.6°C 22.5°F-5.3°C 65% 4.0 mph NNE6.4 kmh NNE -- 30.18 in1022.0 mb 0.00 in0.0 mm 0.00 in0.0 mm 0.00 in0.0 mm
06:45 PM 33.0°F0.6°C 22.5°F-5.3°C 65% 5.0 mph NNW8.0 kmh NNW -- 30.18 in1022.0 mb 0.00 in0.0 mm 0.00 in0.0 mm 0.00 in0.0 mm
06:46 PM 32.9°F0.5°C 22.3°F-5.4°C 65% 4.0 mph 6.4 kmh -- 30.18 in1022.0 mb 0.00 in0.0 mm 0.00 in0.0 mm 0.00 in0.0 mm
06:47 PM 32.9°F0.5°C 22.3°F-5.4°C 65% 4.0 mph NNW6.4 kmh NNW -- 30.18 in1022.0 mb 0.00 in0.0 mm 0.00 in0.0 mm 0.00 in0.0 mm
06:48 PM 32.9°F0.5°C 22.3°F-5.4°C 65% 5.0 mph NNW8.0 kmh NNW -- 30.18 in1022.0 mb 0.00 in0.0 mm 0.00 in0.0 mm 0.00 in0.0 mm
06:49 PM 32.9°F0.5°C 22.3°F-5.4°C 65% 6.0 mph WNW9.7 kmh WNW -- 30.18 in1022.0 mb 0.00 in0.0 mm 0.00 in0.0 mm 0.00 in0.0 mm
06:50 PM 32.9°F0.5°C 22.3°F-5.4°C 65% 8.0 mph W12.9 kmh W -- 30.18 in1022.0 mb 0.00 in0.0 mm 0.00 in0.0 mm 0.00 in0.0 mm
06:51 PM 32.9°F0.5°C 22.3°F-5.4°C 65% 10.0 mph NW16.1 kmh NW -- 30.18 in1022.0 mb 0.00 in0.0 mm 0.00 in0.0 mm 0.00 in0.0 mm
06:52 PM 32.6°F0.3°C 21.9°F-5.6°C 65% 6.0 mph NW9.7 kmh NW -- 30.18 in1022.0 mb 0.00 in0.0 mm 0.00 in0.0 mm 0.00 in0.0 mm
06:53 PM 32.6°F0.3°C 21.9°F-5.6°C 65% 7.0 mph NW11.3 kmh NW -- 30.18 in1022.0 mb 0.00 in0.0 mm 0.00 in0.0 mm 0.00 in0.0 mm
06:54 PM 32.6°F0.3°C 21.9°F-5.6°C 65% 8.0 mph NNW12.9 kmh NNW -- 30.18 in1022.0 mb 0.00 in0.0 mm 0.00 in0.0 mm 0.00 in0.0 mm
06:55 PM 32.5°F0.3°C 21.9°F-5.6°C 65% 10.0 mph NW16.1 kmh NW -- 30.18 in1022.0 mb 0.00 in0.0 mm 0.00 in0.0 mm 0.00 in0.0 mm
06:56 PM 32.5°F0.3°C 21.9°F-5.6°C 65% 7.0 mph WNW11.3 kmh WNW -- 30.18 in1022.0 mb 0.00 in0.0 mm 0.00 in0.0 mm 0.00 in0.0 mm
06:57 PM 32.5°F0.3°C 21.9°F-5.6°C 65% 6.0 mph NNW9.7 kmh NNW -- 30.18 in1022.0 mb 0.00 in0.0 mm 0.00 in0.0 mm 0.00 in0.0 mm
06:58 PM 32.5°F0.3°C 21.9°F-5.6°C 65% 5.0 mph NNW8.0 kmh NNW -- 30.18 in1022.0 mb 0.00 in0.0 mm 0.00 in0.0 mm 0.00 in0.0 mm
06:59 PM 32.5°F0.3°C 21.9°F-5.6°C 65% 7.0 mph NNW11.3 kmh NNW -- 30.19 in1022.4 mb 0.00 in0.0 mm 0.00 in0.0 mm 0.00 in0.0 mm
07:00 PM 32.5°F0.3°C 21.9°F-5.6°C 65% 5.0 mph WNW8.0 kmh WNW -- 30.18 in1022.0 mb 0.00 in0.0 mm 0.00 in0.0 mm 0.00 in0.0 mm
07:01 PM 32.4°F0.2°C 21.8°F-5.7°C 65% 6.0 mph NW9.7 kmh NW -- 30.18 in1022.0 mb 0.00 in0.0 mm 0.00 in0.0 mm 0.00 in0.0 mm
07:02 PM 32.4°F0.2°C 21.8°F-5.7°C 65% 5.0 mph 8.0 kmh -- 30.18 in1022.0 mb 0.00 in0.0 mm 0.00 in0.0 mm 0.00 in0.0 mm
07:03 PM 32.4°F0.2°C 21.8°F-5.7°C 65% 4.0 mph WNW6.4 kmh WNW -- 30.18 in1022.0 mb 0.00 in0.0 mm 0.00 in0.0 mm 0.00 in0.0 mm
07:04 PM 32.4°F0.2°C 21.8°F-5.7°C 65% 4.0 mph NNW6.4 kmh NNW -- 30.18 in1022.0 mb 0.00 in0.0 mm 0.00 in0.0 mm 0.00 in0.0 mm
07:05 PM 32.4°F0.2°C 21.8°F-5.7°C 65% 6.0 mph NW9.7 kmh NW -- 30.18 in1022.0 mb 0.00 in0.0 mm 0.00 in0.0 mm 0.00 in0.0 mm
07:06 PM 32.4°F0.2°C 21.8°F-5.7°C 65% 4.0 mph NW6.4 kmh NW -- 30.18 in1022.0 mb 0.00 in0.0 mm 0.00 in0.0 mm 0.00 in0.0 mm
07:07 PM 32.4°F0.2°C 21.8°F-5.7°C 65% 4.0 mph NNW6.4 kmh NNW -- 30.18 in1022.0 mb 0.00 in0.0 mm 0.00 in0.0 mm 0.00 in0.0 mm
07:08 PM 32.4°F0.2°C 21.8°F-5.7°C 65% 6.0 mph NW9.7 kmh NW -- 30.18 in1022.0 mb 0.00 in0.0 mm 0.00 in0.0 mm 0.00 in0.0 mm
07:09 PM 32.4°F0.2°C 21.8°F-5.7°C 65% 5.0 mph WNW8.0 kmh WNW -- 30.18 in1022.0 mb 0.00 in0.0 mm 0.00 in0.0 mm 0.00 in0.0 mm
07:10 PM 32.4°F0.2°C 21.8°F-5.7°C 65% 6.0 mph WNW9.7 kmh WNW -- 30.18 in1022.0 mb 0.00 in0.0 mm 0.00 in0.0 mm 0.00 in0.0 mm
07:11 PM 32.4°F0.2°C 21.8°F-5.7°C 65% 3.0 mph NNW4.8 kmh NNW -- 30.18 in1022.0 mb 0.00 in0.0 mm 0.00 in0.0 mm 0.00 in0.0 mm
07:12 PM 32.4°F0.2°C 21.8°F-5.7°C 65% 7.0 mph NW11.3 kmh NW -- 30.19 in1022.4 mb 0.00 in0.0 mm 0.00 in0.0 mm 0.00 in0.0 mm
07:13 PM 32.2°F0.1°C 21.6°F-5.8°C 65% 8.0 mph NNW12.9 kmh NNW -- 30.18 in1022.0 mb 0.00 in0.0 mm 0.00 in0.0 mm 0.00 in0.0 mm
07:14 PM 32.2°F0.1°C 20.9°F-6.2°C 63% 5.0 mph NNW8.0 kmh NNW -- 30.19 in1022.4 mb 0.00 in0.0 mm 0.00 in0.0 mm 0.00 in0.0 mm
07:15 PM 32.2°F0.1°C 20.9°F-6.2°C 63% 7.0 mph WNW11.3 kmh WNW -- 30.18 in1022.0 mb 0.00 in0.0 mm 0.00 in0.0 mm 0.00 in0.0 mm
07:16 PM 32.2°F0.1°C 20.9°F-6.2°C 63% 5.0 mph NNW8.0 kmh NNW -- 30.19 in1022.4 mb 0.00 in0.0 mm 0.00 in0.0 mm 0.00 in0.0 mm
07:17 PM 32.2°F0.1°C 20.9°F-6.2°C 63% 5.0 mph NNW8.0 kmh NNW -- 30.18 in1022.0 mb 0.00 in0.0 mm 0.00 in0.0 mm 0.00 in0.0 mm
07:18 PM 32.2°F0.1°C 20.9°F-6.2°C 63% 5.0 mph NW8.0 kmh NW -- 30.18 in1022.0 mb 0.00 in0.0 mm 0.00 in0.0 mm 0.00 in0.0 mm
07:19 PM 32.2°F0.1°C 20.9°F-6.2°C 63% 6.0 mph NNW9.7 kmh NNW -- 30.19 in1022.4 mb 0.00 in0.0 mm 0.00 in0.0 mm 0.00 in0.0 mm
07:20 PM 32.2°F0.1°C 20.9°F-6.2°C 63% 5.0 mph NW8.0 kmh NW -- 30.19 in1022.4 mb 0.00 in0.0 mm 0.00 in0.0 mm 0.00 in0.0 mm
07:21 PM 32.2°F0.1°C 20.9°F-6.2°C 63% 8.0 mph WNW12.9 kmh WNW -- 30.18 in1022.0 mb 0.00 in0.0 mm 0.00 in0.0 mm 0.00 in0.0 mm
07:22 PM 32.2°F0.1°C 20.9°F-6.2°C 63% 6.0 mph NNW9.7 kmh NNW -- 30.18 in1022.0 mb 0.00 in0.0 mm 0.00 in0.0 mm 0.00 in0.0 mm
07:23 PM 32.2°F0.1°C 20.9°F-6.2°C 63% 5.0 mph NW8.0 kmh NW -- 30.19 in1022.4 mb 0.00 in0.0 mm 0.00 in0.0 mm 0.00 in0.0 mm
07:24 PM 31.9°F-0.1°C 20.5°F-6.4°C 63% 6.0 mph NNW9.7 kmh NNW -- 30.19 in1022.4 mb 0.00 in0.0 mm 0.00 in0.0 mm 0.00 in0.0 mm
07:25 PM 31.9°F-0.1°C 20.5°F-6.4°C 63% 6.0 mph NW9.7 kmh NW -- 30.19 in1022.4 mb 0.00 in0.0 mm 0.00 in0.0 mm 0.00 in0.0 mm
07:26 PM 31.9°F-0.1°C 20.5°F-6.4°C 63% 4.0 mph W6.4 kmh W -- 30.19 in1022.4 mb 0.00 in0.0 mm 0.00 in0.0 mm 0.00 in0.0 mm
07:27 PM 31.9°F-0.1°C 20.5°F-6.4°C 63% 6.0 mph W9.7 kmh W -- 30.19 in1022.4 mb 0.00 in0.0 mm 0.00 in0.0 mm 0.00 in0.0 mm
07:28 PM 31.7°F-0.2°C 20.3°F-6.5°C 63% 9.0 mph ENE14.5 kmh ENE -- 30.19 in1022.4 mb 0.00 in0.0 mm 0.00 in0.0 mm 0.00 in0.0 mm
07:29 PM 31.7°F-0.2°C 20.3°F-6.5°C 63% 6.0 mph NNW9.7 kmh NNW -- 30.19 in1022.4 mb 0.00 in0.0 mm 0.00 in0.0 mm 0.00 in0.0 mm
07:30 PM 31.7°F-0.2°C 20.3°F-6.5°C 63% 3.0 mph NW4.8 kmh NW -- 30.19 in1022.4 mb 0.00 in0.0 mm 0.00 in0.0 mm 0.00 in0.0 mm
07:31 PM 31.7°F-0.2°C 20.3°F-6.5°C 63% 4.0 mph NW6.4 kmh NW -- 30.19 in1022.4 mb 0.00 in0.0 mm 0.00 in0.0 mm 0.00 in0.0 mm
07:32 PM 31.6°F-0.2°C 20.3°F-6.5°C 63% 7.0 mph NNW11.3 kmh NNW -- 30.19 in1022.4 mb 0.00 in0.0 mm 0.00 in0.0 mm 0.00 in0.0 mm
07:33 PM 31.6°F-0.2°C 20.3°F-6.5°C 63% 4.0 mph NW6.4 kmh NW -- 30.19 in1022.4 mb 0.00 in0.0 mm 0.00 in0.0 mm 0.00 in0.0 mm
07:35 PM 31.6°F-0.2°C 20.3°F-6.5°C 63% 7.0 mph NW11.3 kmh NW -- 30.19 in1022.4 mb 0.00 in0.0 mm 0.00 in0.0 mm 0.00 in0.0 mm
07:36 PM 31.5°F-0.3°C 20.2°F-6.6°C 63% 4.0 mph NW6.4 kmh NW -- 30.19 in1022.4 mb 0.00 in0.0 mm 0.00 in0.0 mm 0.00 in0.0 mm
07:37 PM 31.5°F-0.3°C 20.2°F-6.6°C 63% 5.0 mph WNW8.0 kmh WNW -- 30.19 in1022.4 mb 0.00 in0.0 mm 0.00 in0.0 mm 0.00 in0.0 mm
07:38 PM 31.5°F-0.3°C 20.2°F-6.6°C 63% 5.0 mph NNW8.0 kmh NNW -- 30.19 in1022.4 mb 0.00 in0.0 mm 0.00 in0.0 mm 0.00 in0.0 mm
07:39 PM 31.2°F-0.4°C 20.0°F-6.7°C 63% 6.0 mph NNW9.7 kmh NNW -- 30.18 in1022.0 mb 0.00 in0.0 mm 0.00 in0.0 mm 0.00 in0.0 mm
07:40 PM 31.2°F-0.4°C 20.0°F-6.7°C 63% 6.0 mph NNW9.7 kmh NNW -- 30.19 in1022.4 mb 0.00 in0.0 mm 0.00 in0.0 mm 0.00 in0.0 mm
07:41 PM 31.1°F-0.5°C 19.8°F-6.8°C 63% 5.0 mph NW8.0 kmh NW -- 30.19 in1022.4 mb 0.00 in0.0 mm 0.00 in0.0 mm 0.00 in0.0 mm
07:42 PM 31.1°F-0.5°C 19.8°F-6.8°C 63% 4.0 mph WNW6.4 kmh WNW -- 30.19 in1022.4 mb 0.00 in0.0 mm 0.00 in0.0 mm 0.00 in0.0 mm
07:43 PM 31.1°F-0.5°C 19.8°F-6.8°C 63% 6.0 mph NNW9.7 kmh NNW -- 30.19 in1022.4 mb 0.00 in0.0 mm 0.00 in0.0 mm 0.00 in0.0 mm
07:44 PM 30.8°F-0.7°C 19.5°F-6.9°C 63% 4.0 mph NW6.4 kmh NW -- 30.19 in1022.4 mb 0.00 in0.0 mm 0.00 in0.0 mm 0.00 in0.0 mm
07:45 PM 30.8°F-0.7°C 19.5°F-6.9°C 63% 7.0 mph NW11.3 kmh NW -- 30.19 in1022.4 mb 0.00 in0.0 mm 0.00 in0.0 mm 0.00 in0.0 mm
07:46 PM 30.7°F-0.7°C 19.5°F-6.9°C 63% 4.0 mph NNW6.4 kmh NNW -- 30.19 in1022.4 mb 0.00 in0.0 mm 0.00 in0.0 mm 0.00 in0.0 mm
07:47 PM 30.7°F-0.7°C 19.5°F-6.9°C 63% 5.0 mph W8.0 kmh W -- 30.19 in1022.4 mb 0.00 in0.0 mm 0.00 in0.0 mm 0.00 in0.0 mm
07:48 PM 30.5°F-0.8°C 19.3°F-7.1°C 63% 4.0 mph NNW6.4 kmh NNW -- 30.19 in1022.4 mb 0.00 in0.0 mm 0.00 in0.0 mm 0.00 in0.0 mm
07:49 PM 30.5°F-0.8°C 19.3°F-7.1°C 63% 3.0 mph WNW4.8 kmh WNW -- 30.19 in1022.4 mb 0.00 in0.0 mm 0.00 in0.0 mm 0.00 in0.0 mm
07:51 PM 30.3°F-0.9°C 19.1°F-7.2°C 63% 3.0 mph NNW4.8 kmh NNW -- 30.19 in1022.4 mb 0.00 in0.0 mm 0.00 in0.0 mm 0.00 in0.0 mm
07:52 PM 30.1°F-1.1°C 19.5°F-6.9°C 65% 3.0 mph WNW4.8 kmh WNW -- 30.19 in1022.4 mb 0.00 in0.0 mm 0.00 in0.0 mm 0.00 in0.0 mm
07:53 PM 30.1°F-1.1°C 19.5°F-6.9°C 65% 4.0 mph WNW6.4 kmh WNW -- 30.19 in1022.4 mb 0.00 in0.0 mm 0.00 in0.0 mm 0.00 in0.0 mm
07:54 PM 30.1°F-1.1°C 19.5°F-6.9°C 65% 1.0 mph WNW1.6 kmh WNW -- 30.19 in1022.4 mb 0.00 in0.0 mm 0.00 in0.0 mm 0.00 in0.0 mm
07:55 PM 30.1°F-1.1°C 19.5°F-6.9°C 65% 2.0 mph NNW3.2 kmh NNW -- 30.19 in1022.4 mb 0.00 in0.0 mm 0.00 in0.0 mm 0.00 in0.0 mm
07:56 PM 30.0°F-1.1°C 19.5°F-6.9°C 65% 2.0 mph WNW3.2 kmh WNW -- 30.19 in1022.4 mb 0.00 in0.0 mm 0.00 in0.0 mm 0.00 in0.0 mm
07:57 PM 29.8°F-1.2°C 19.4°F-7.0°C 65% 1.0 mph W1.6 kmh W -- 30.19 in1022.4 mb 0.00 in0.0 mm 0.00 in0.0 mm 0.00 in0.0 mm
07:58 PM 29.8°F-1.2°C 19.4°F-7.0°C 65% 2.0 mph W3.2 kmh W -- 30.19 in1022.4 mb 0.00 in0.0 mm 0.00 in0.0 mm 0.00 in0.0 mm
07:59 PM 29.6°F-1.3°C 19.2°F-7.1°C 65% 1.0 mph W1.6 kmh W -- 30.19 in1022.4 mb 0.00 in0.0 mm 0.00 in0.0 mm 0.00 in0.0 mm
08:00 PM 29.6°F-1.3°C 19.2°F-7.1°C 65% 2.0 mph W3.2 kmh W -- 30.19 in1022.4 mb 0.00 in0.0 mm 0.00 in0.0 mm 0.00 in0.0 mm
08:02 PM 29.6°F-1.3°C 19.2°F-7.1°C 65% 1.0 mph W1.6 kmh W -- 30.19 in1022.4 mb 0.00 in0.0 mm 0.00 in0.0 mm 0.00 in0.0 mm
08:03 PM 29.6°F-1.3°C 19.2°F-7.1°C 65% Calm Calm -- 30.19 in1022.4 mb 0.00 in0.0 mm 0.00 in0.0 mm 0.00 in0.0 mm
08:04 PM 29.5°F-1.4°C 19.0°F-7.2°C 65% Calm Calm -- 30.19 in1022.4 mb 0.00 in0.0 mm 0.00 in0.0 mm 0.00 in0.0 mm
08:06 PM 29.2°F-1.6°C 18.7°F-7.4°C 65% Calm Calm -- 30.19 in1022.4 mb 0.00 in0.0 mm 0.00 in0.0 mm 0.00 in0.0 mm
08:07 PM 29.1°F-1.6°C 19.0°F-7.2°C 66% Calm Calm -- 30.19 in1022.4 mb 0.00 in0.0 mm 0.00 in0.0 mm 0.00 in0.0 mm
08:08 PM 29.1°F-1.6°C 19.0°F-7.2°C 66% Calm Calm -- 30.19 in1022.4 mb 0.00 in0.0 mm 0.00 in0.0 mm 0.00 in0.0 mm
08:09 PM 29.1°F-1.6°C 19.0°F-7.2°C 66% Calm Calm -- 30.19 in1022.4 mb 0.00 in0.0 mm 0.00 in0.0 mm 0.00 in0.0 mm
08:10 PM 29.1°F-1.6°C 19.0°F-7.2°C 66% Calm Calm -- 30.19 in1022.4 mb 0.00 in0.0 mm 0.00 in0.0 mm 0.00 in0.0 mm
08:11 PM 28.7°F-1.8°C 18.7°F-7.4°C 66% Calm Calm -- 30.19 in1022.4 mb 0.00 in0.0 mm 0.00 in0.0 mm 0.00 in0.0 mm
08:12 PM 28.7°F-1.8°C 19.4°F-7.0°C 68% Calm Calm -- 30.19 in1022.4 mb 0.00 in0.0 mm 0.00 in0.0 mm 0.00 in0.0 mm
08:13 PM 28.6°F-1.9°C 19.2°F-7.1°C 68% 3.0 mph W4.8 kmh W -- 30.19 in1022.4 mb 0.00 in0.0 mm 0.00 in0.0 mm 0.00 in0.0 mm
08:14 PM 28.6°F-1.9°C 19.2°F-7.1°C 68% 2.0 mph WSW3.2 kmh WSW -- 30.19 in1022.4 mb 0.00 in0.0 mm 0.00 in0.0 mm 0.00 in0.0 mm
08:15 PM 28.6°F-1.9°C 19.2°F-7.1°C 68% 2.0 mph W3.2 kmh W -- 30.19 in1022.4 mb 0.00 in0.0 mm 0.00 in0.0 mm 0.00 in0.0 mm
08:17 PM 28.3°F-2.1°C 19.2°F-7.1°C 69% 2.0 mph W3.2 kmh W -- 30.19 in1022.4 mb 0.00 in0.0 mm 0.00 in0.0 mm 0.00 in0.0 mm
08:19 PM 28.2°F-2.1°C 19.2°F-7.1°C 69% 2.0 mph W3.2 kmh W -- 30.20 in1022.7 mb 0.00 in0.0 mm 0.00 in0.0 mm 0.00 in0.0 mm
08:21 PM 28.2°F-2.1°C 19.2°F-7.1°C 69% 2.0 mph W3.2 kmh W -- 30.19 in1022.4 mb 0.00 in0.0 mm 0.00 in0.0 mm 0.00 in0.0 mm</